<?xml version="1.0" encoding="UTF-8" standalone="no" ?>
<gpx xmlns="http://www.topografix.com/GPX/1/1" xmlns:xsi="http://www.w3.org/2001/XMLSchema-instance" xsi:schemaLocation="http://www.topografix.com/GPX/1/1 http://www.topografix.com/GPX/1/1/gpx.xsd" version="1.1" creator="VisuGPX - https://www.visugpx.com">
  <metadata>
    <name>ASPTT 20101016</name>
    <desc><![CDATA[Sortie vélo ASPTT]]></desc>
  </metadata>
  <trk>
    <name><![CDATA[Trk003-MNT]]></name>
    <trkseg>
      <trkpt lat="47.44476" lon="-0.56242">
        <ele>26.691875</ele>
        <time>2010-10-16T11:11:40Z</time>
      </trkpt>
      <trkpt lat="47.44476" lon="-0.56244">
        <ele>26.726875</ele>
        <time>2010-10-16T11:11:45Z</time>
      </trkpt>
      <trkpt lat="47.44476" lon="-0.56245">
        <ele>26.741875</ele>
        <time>2010-10-16T11:11:50Z</time>
      </trkpt>
      <trkpt lat="47.44476" lon="-0.56245">
        <ele>26.739374</ele>
        <time>2010-10-16T11:11:55Z</time>
      </trkpt>
      <trkpt lat="47.44476" lon="-0.56245">
        <ele>26.744375</ele>
        <time>2010-10-16T11:12:00Z</time>
      </trkpt>
      <trkpt lat="47.44476" lon="-0.56245">
        <ele>26.739374</ele>
        <time>2010-10-16T11:12:05Z</time>
      </trkpt>
      <trkpt lat="47.44476" lon="-0.56245">
        <ele>26.741875</ele>
        <time>2010-10-16T11:12:10Z</time>
      </trkpt>
      <trkpt lat="47.44477" lon="-0.56246">
        <ele>26.748751</ele>
        <time>2010-10-16T11:12:15Z</time>
      </trkpt>
      <trkpt lat="47.44477" lon="-0.56246">
        <ele>26.748751</ele>
        <time>2010-10-16T11:12:20Z</time>
      </trkpt>
      <trkpt lat="47.44477" lon="-0.56246">
        <ele>26.75625</ele>
        <time>2010-10-16T11:12:25Z</time>
      </trkpt>
      <trkpt lat="47.44478" lon="-0.56247">
        <ele>26.768126</ele>
        <time>2010-10-16T11:12:30Z</time>
      </trkpt>
      <trkpt lat="47.44461" lon="-0.56243">
        <ele>26.719376</ele>
        <time>2010-10-16T11:12:35Z</time>
      </trkpt>
      <trkpt lat="47.44444" lon="-0.56247">
        <ele>26.80125</ele>
        <time>2010-10-16T11:12:40Z</time>
      </trkpt>
      <trkpt lat="47.44424" lon="-0.56252">
        <ele>26.885</ele>
        <time>2010-10-16T11:12:45Z</time>
      </trkpt>
      <trkpt lat="47.44404" lon="-0.56256">
        <ele>26.973391</ele>
        <time>2010-10-16T11:12:50Z</time>
      </trkpt>
      <trkpt lat="47.44389" lon="-0.56258">
        <ele>27.003426</ele>
        <time>2010-10-16T11:12:55Z</time>
      </trkpt>
      <trkpt lat="47.44373" lon="-0.56261">
        <ele>27.065001</ele>
        <time>2010-10-16T11:13:00Z</time>
      </trkpt>
      <trkpt lat="47.44357" lon="-0.56265">
        <ele>27.13625</ele>
        <time>2010-10-16T11:13:05Z</time>
      </trkpt>
      <trkpt lat="47.44345" lon="-0.56247">
        <ele>27</ele>
        <time>2010-10-16T11:13:10Z</time>
      </trkpt>
      <trkpt lat="47.44335" lon="-0.56217">
        <ele>27</ele>
        <time>2010-10-16T11:13:15Z</time>
      </trkpt>
      <trkpt lat="47.4433" lon="-0.56185">
        <ele>26.954399</ele>
        <time>2010-10-16T11:13:20Z</time>
      </trkpt>
      <trkpt lat="47.44324" lon="-0.5615">
        <ele>26.53545</ele>
        <time>2010-10-16T11:13:25Z</time>
      </trkpt>
      <trkpt lat="47.4432" lon="-0.56114">
        <ele>26.26421</ele>
        <time>2010-10-16T11:13:30Z</time>
      </trkpt>
      <trkpt lat="47.44318" lon="-0.56076">
        <ele>26.117485</ele>
        <time>2010-10-16T11:13:35Z</time>
      </trkpt>
      <trkpt lat="47.44319" lon="-0.56038">
        <ele>26</ele>
        <time>2010-10-16T11:13:40Z</time>
      </trkpt>
      <trkpt lat="47.4432" lon="-0.56002">
        <ele>26</ele>
        <time>2010-10-16T11:13:45Z</time>
      </trkpt>
      <trkpt lat="47.44325" lon="-0.55967">
        <ele>25.670626</ele>
        <time>2010-10-16T11:13:50Z</time>
      </trkpt>
      <trkpt lat="47.44329" lon="-0.5593">
        <ele>25.119375</ele>
        <time>2010-10-16T11:13:55Z</time>
      </trkpt>
      <trkpt lat="47.44332" lon="-0.55895">
        <ele>24.579374</ele>
        <time>2010-10-16T11:14:00Z</time>
      </trkpt>
      <trkpt lat="47.44337" lon="-0.55859">
        <ele>24.032499</ele>
        <time>2010-10-16T11:14:05Z</time>
      </trkpt>
      <trkpt lat="47.44342" lon="-0.55821">
        <ele>24.040001</ele>
        <time>2010-10-16T11:14:10Z</time>
      </trkpt>
      <trkpt lat="47.44347" lon="-0.55782">
        <ele>24.24375</ele>
        <time>2010-10-16T11:14:15Z</time>
      </trkpt>
      <trkpt lat="47.44349" lon="-0.55747">
        <ele>24.815624</ele>
        <time>2010-10-16T11:14:20Z</time>
      </trkpt>
      <trkpt lat="47.44353" lon="-0.55714">
        <ele>25.341581</ele>
        <time>2010-10-16T11:14:25Z</time>
      </trkpt>
      <trkpt lat="47.44356" lon="-0.55681">
        <ele>25.756363</ele>
        <time>2010-10-16T11:14:30Z</time>
      </trkpt>
      <trkpt lat="47.44355" lon="-0.55648">
        <ele>26.035984</ele>
        <time>2010-10-16T11:14:35Z</time>
      </trkpt>
      <trkpt lat="47.44363" lon="-0.55606">
        <ele>26.296953</ele>
        <time>2010-10-16T11:14:40Z</time>
      </trkpt>
      <trkpt lat="47.4437" lon="-0.55567">
        <ele>26.703856</ele>
        <time>2010-10-16T11:14:45Z</time>
      </trkpt>
      <trkpt lat="47.44376" lon="-0.55529">
        <ele>26.990288</ele>
        <time>2010-10-16T11:14:50Z</time>
      </trkpt>
      <trkpt lat="47.44381" lon="-0.55493">
        <ele>27</ele>
        <time>2010-10-16T11:14:55Z</time>
      </trkpt>
      <trkpt lat="47.44382" lon="-0.55457">
        <ele>27</ele>
        <time>2010-10-16T11:15:00Z</time>
      </trkpt>
      <trkpt lat="47.44383" lon="-0.55422">
        <ele>27</ele>
        <time>2010-10-16T11:15:05Z</time>
      </trkpt>
      <trkpt lat="47.44385" lon="-0.55386">
        <ele>27.097782</ele>
        <time>2010-10-16T11:15:10Z</time>
      </trkpt>
      <trkpt lat="47.44386" lon="-0.55351">
        <ele>27.503975</ele>
        <time>2010-10-16T11:15:15Z</time>
      </trkpt>
      <trkpt lat="47.4439" lon="-0.55322">
        <ele>27.83</ele>
        <time>2010-10-16T11:15:20Z</time>
      </trkpt>
      <trkpt lat="47.44399" lon="-0.55287">
        <ele>28</ele>
        <time>2010-10-16T11:15:25Z</time>
      </trkpt>
      <trkpt lat="47.44407" lon="-0.55254">
        <ele>28.174999</ele>
        <time>2010-10-16T11:15:30Z</time>
      </trkpt>
      <trkpt lat="47.44416" lon="-0.55219">
        <ele>28.334999</ele>
        <time>2010-10-16T11:15:35Z</time>
      </trkpt>
      <trkpt lat="47.44424" lon="-0.55185">
        <ele>28.600313</ele>
        <time>2010-10-16T11:15:40Z</time>
      </trkpt>
      <trkpt lat="47.44435" lon="-0.55152">
        <ele>28.917225</ele>
        <time>2010-10-16T11:15:45Z</time>
      </trkpt>
      <trkpt lat="47.44446" lon="-0.55117">
        <ele>29</ele>
        <time>2010-10-16T11:15:50Z</time>
      </trkpt>
      <trkpt lat="47.44458" lon="-0.55082">
        <ele>29.200001</ele>
        <time>2010-10-16T11:15:55Z</time>
      </trkpt>
      <trkpt lat="47.44465" lon="-0.55047">
        <ele>29.540735</ele>
        <time>2010-10-16T11:16:00Z</time>
      </trkpt>
      <trkpt lat="47.44469" lon="-0.55011">
        <ele>29.913343</ele>
        <time>2010-10-16T11:16:05Z</time>
      </trkpt>
      <trkpt lat="47.44474" lon="-0.54975">
        <ele>30</ele>
        <time>2010-10-16T11:16:10Z</time>
      </trkpt>
      <trkpt lat="47.4447" lon="-0.54941">
        <ele>30</ele>
        <time>2010-10-16T11:16:15Z</time>
      </trkpt>
      <trkpt lat="47.44444" lon="-0.54931">
        <ele>30</ele>
        <time>2010-10-16T11:16:20Z</time>
      </trkpt>
      <trkpt lat="47.44415" lon="-0.54932">
        <ele>30</ele>
        <time>2010-10-16T11:16:25Z</time>
      </trkpt>
      <trkpt lat="47.44386" lon="-0.54931">
        <ele>29.51545</ele>
        <time>2010-10-16T11:16:30Z</time>
      </trkpt>
      <trkpt lat="47.44358" lon="-0.54931">
        <ele>29</ele>
        <time>2010-10-16T11:16:35Z</time>
      </trkpt>
      <trkpt lat="47.4433" lon="-0.5493">
        <ele>29</ele>
        <time>2010-10-16T11:16:40Z</time>
      </trkpt>
      <trkpt lat="47.44299" lon="-0.54928">
        <ele>29</ele>
        <time>2010-10-16T11:16:45Z</time>
      </trkpt>
      <trkpt lat="47.44277" lon="-0.54927">
        <ele>29</ele>
        <time>2010-10-16T11:16:50Z</time>
      </trkpt>
      <trkpt lat="47.44243" lon="-0.54926">
        <ele>29</ele>
        <time>2010-10-16T11:16:55Z</time>
      </trkpt>
      <trkpt lat="47.44223" lon="-0.54898">
        <ele>29</ele>
        <time>2010-10-16T11:17:00Z</time>
      </trkpt>
      <trkpt lat="47.44223" lon="-0.54867">
        <ele>29</ele>
        <time>2010-10-16T11:17:05Z</time>
      </trkpt>
      <trkpt lat="47.44227" lon="-0.54821">
        <ele>29</ele>
        <time>2010-10-16T11:17:10Z</time>
      </trkpt>
      <trkpt lat="47.44227" lon="-0.54782">
        <ele>29.100651</ele>
        <time>2010-10-16T11:17:15Z</time>
      </trkpt>
      <trkpt lat="47.44229" lon="-0.54742">
        <ele>29.661512</ele>
        <time>2010-10-16T11:17:20Z</time>
      </trkpt>
      <trkpt lat="47.44231" lon="-0.54704">
        <ele>29.971476</ele>
        <time>2010-10-16T11:17:25Z</time>
      </trkpt>
      <trkpt lat="47.44232" lon="-0.54667">
        <ele>29.993137</ele>
        <time>2010-10-16T11:17:30Z</time>
      </trkpt>
      <trkpt lat="47.44233" lon="-0.54632">
        <ele>30.370625</ele>
        <time>2010-10-16T11:17:35Z</time>
      </trkpt>
      <trkpt lat="47.44234" lon="-0.546">
        <ele>30.85125</ele>
        <time>2010-10-16T11:17:40Z</time>
      </trkpt>
      <trkpt lat="47.44233" lon="-0.54575">
        <ele>31</ele>
        <time>2010-10-16T11:17:45Z</time>
      </trkpt>
      <trkpt lat="47.44219" lon="-0.54547">
        <ele>31</ele>
        <time>2010-10-16T11:17:50Z</time>
      </trkpt>
      <trkpt lat="47.44195" lon="-0.54531">
        <ele>31</ele>
        <time>2010-10-16T11:17:55Z</time>
      </trkpt>
      <trkpt lat="47.44168" lon="-0.54521">
        <ele>30.459999</ele>
        <time>2010-10-16T11:18:00Z</time>
      </trkpt>
      <trkpt lat="47.44149" lon="-0.54517">
        <ele>30.070013</ele>
        <time>2010-10-16T11:18:05Z</time>
      </trkpt>
      <trkpt lat="47.44141" lon="-0.54499">
        <ele>30.251595</ele>
        <time>2010-10-16T11:18:10Z</time>
      </trkpt>
      <trkpt lat="47.4414" lon="-0.54465">
        <ele>30.643209</ele>
        <time>2010-10-16T11:18:15Z</time>
      </trkpt>
      <trkpt lat="47.44138" lon="-0.54428">
        <ele>30.74</ele>
        <time>2010-10-16T11:18:20Z</time>
      </trkpt>
      <trkpt lat="47.44137" lon="-0.5439">
        <ele>30.690001</ele>
        <time>2010-10-16T11:18:25Z</time>
      </trkpt>
      <trkpt lat="47.44134" lon="-0.54348">
        <ele>30.033751</ele>
        <time>2010-10-16T11:18:30Z</time>
      </trkpt>
      <trkpt lat="47.4413" lon="-0.54307">
        <ele>29.404043</ele>
        <time>2010-10-16T11:18:35Z</time>
      </trkpt>
      <trkpt lat="47.44126" lon="-0.54268">
        <ele>29.082266</ele>
        <time>2010-10-16T11:18:40Z</time>
      </trkpt>
      <trkpt lat="47.44122" lon="-0.54226">
        <ele>28.707544</ele>
        <time>2010-10-16T11:18:45Z</time>
      </trkpt>
      <trkpt lat="47.44123" lon="-0.54184">
        <ele>28.264999</ele>
        <time>2010-10-16T11:18:50Z</time>
      </trkpt>
      <trkpt lat="47.44124" lon="-0.54142">
        <ele>28.264999</ele>
        <time>2010-10-16T11:18:55Z</time>
      </trkpt>
      <trkpt lat="47.44124" lon="-0.54102">
        <ele>28.457657</ele>
        <time>2010-10-16T11:19:00Z</time>
      </trkpt>
      <trkpt lat="47.44127" lon="-0.54062">
        <ele>28.918924</ele>
        <time>2010-10-16T11:19:05Z</time>
      </trkpt>
      <trkpt lat="47.44132" lon="-0.54023">
        <ele>29.47625</ele>
        <time>2010-10-16T11:19:10Z</time>
      </trkpt>
      <trkpt lat="47.44138" lon="-0.53987">
        <ele>30.026875</ele>
        <time>2010-10-16T11:19:15Z</time>
      </trkpt>
      <trkpt lat="47.44149" lon="-0.53952">
        <ele>30.560625</ele>
        <time>2010-10-16T11:19:20Z</time>
      </trkpt>
      <trkpt lat="47.4417" lon="-0.53918">
        <ele>31.011999</ele>
        <time>2010-10-16T11:19:25Z</time>
      </trkpt>
      <trkpt lat="47.4419" lon="-0.53898">
        <ele>31.244322</ele>
        <time>2010-10-16T11:19:30Z</time>
      </trkpt>
      <trkpt lat="47.44212" lon="-0.53879">
        <ele>31.722113</ele>
        <time>2010-10-16T11:19:35Z</time>
      </trkpt>
      <trkpt lat="47.4423" lon="-0.53854">
        <ele>32</ele>
        <time>2010-10-16T11:19:40Z</time>
      </trkpt>
      <trkpt lat="47.44239" lon="-0.53816">
        <ele>32</ele>
        <time>2010-10-16T11:19:45Z</time>
      </trkpt>
      <trkpt lat="47.44247" lon="-0.53776">
        <ele>31.938969</ele>
        <time>2010-10-16T11:19:50Z</time>
      </trkpt>
      <trkpt lat="47.44251" lon="-0.53734">
        <ele>31.874788</ele>
        <time>2010-10-16T11:19:55Z</time>
      </trkpt>
      <trkpt lat="47.44255" lon="-0.53694">
        <ele>31.38875</ele>
        <time>2010-10-16T11:20:00Z</time>
      </trkpt>
      <trkpt lat="47.4426" lon="-0.53653">
        <ele>30.850775</ele>
        <time>2010-10-16T11:20:05Z</time>
      </trkpt>
      <trkpt lat="47.44263" lon="-0.53624">
        <ele>30.490362</ele>
        <time>2010-10-16T11:20:10Z</time>
      </trkpt>
      <trkpt lat="47.44266" lon="-0.53588">
        <ele>30.213541</ele>
        <time>2010-10-16T11:20:15Z</time>
      </trkpt>
      <trkpt lat="47.44269" lon="-0.53554">
        <ele>30.228119</ele>
        <time>2010-10-16T11:20:20Z</time>
      </trkpt>
      <trkpt lat="47.44272" lon="-0.53529">
        <ele>30.160625</ele>
        <time>2010-10-16T11:20:25Z</time>
      </trkpt>
      <trkpt lat="47.44267" lon="-0.53511">
        <ele>29.79125</ele>
        <time>2010-10-16T11:20:30Z</time>
      </trkpt>
      <trkpt lat="47.44242" lon="-0.53495">
        <ele>29.252001</ele>
        <time>2010-10-16T11:20:35Z</time>
      </trkpt>
      <trkpt lat="47.44214" lon="-0.5348">
        <ele>28.895</ele>
        <time>2010-10-16T11:20:40Z</time>
      </trkpt>
      <trkpt lat="47.44184" lon="-0.53464">
        <ele>28.225</ele>
        <time>2010-10-16T11:20:45Z</time>
      </trkpt>
      <trkpt lat="47.44153" lon="-0.53448">
        <ele>27.530001</ele>
        <time>2010-10-16T11:20:50Z</time>
      </trkpt>
      <trkpt lat="47.44124" lon="-0.53432">
        <ele>26.870001</ele>
        <time>2010-10-16T11:20:55Z</time>
      </trkpt>
      <trkpt lat="47.44093" lon="-0.53412">
        <ele>26.174999</ele>
        <time>2010-10-16T11:21:00Z</time>
      </trkpt>
      <trkpt lat="47.44067" lon="-0.53388">
        <ele>25.575001</ele>
        <time>2010-10-16T11:21:05Z</time>
      </trkpt>
      <trkpt lat="47.44041" lon="-0.53366">
        <ele>24.99552</ele>
        <time>2010-10-16T11:21:10Z</time>
      </trkpt>
      <trkpt lat="47.44016" lon="-0.53344">
        <ele>24.643301</ele>
        <time>2010-10-16T11:21:15Z</time>
      </trkpt>
      <trkpt lat="47.4399" lon="-0.53321">
        <ele>24.055651</ele>
        <time>2010-10-16T11:21:20Z</time>
      </trkpt>
      <trkpt lat="47.43965" lon="-0.53299">
        <ele>24.0637</ele>
        <time>2010-10-16T11:21:25Z</time>
      </trkpt>
      <trkpt lat="47.43933" lon="-0.53272">
        <ele>23.827078</ele>
        <time>2010-10-16T11:21:30Z</time>
      </trkpt>
      <trkpt lat="47.43907" lon="-0.53251">
        <ele>23.872944</ele>
        <time>2010-10-16T11:21:35Z</time>
      </trkpt>
      <trkpt lat="47.43885" lon="-0.53238">
        <ele>23.459999</ele>
        <time>2010-10-16T11:21:40Z</time>
      </trkpt>
      <trkpt lat="47.43858" lon="-0.53217">
        <ele>23</ele>
        <time>2010-10-16T11:21:45Z</time>
      </trkpt>
      <trkpt lat="47.43826" lon="-0.53196">
        <ele>23</ele>
        <time>2010-10-16T11:21:50Z</time>
      </trkpt>
      <trkpt lat="47.43801" lon="-0.53179">
        <ele>22.545</ele>
        <time>2010-10-16T11:21:55Z</time>
      </trkpt>
      <trkpt lat="47.43774" lon="-0.53164">
        <ele>21.952288</ele>
        <time>2010-10-16T11:22:00Z</time>
      </trkpt>
      <trkpt lat="47.43746" lon="-0.53151">
        <ele>21.515673</ele>
        <time>2010-10-16T11:22:05Z</time>
      </trkpt>
      <trkpt lat="47.43721" lon="-0.53142">
        <ele>21.32205</ele>
        <time>2010-10-16T11:22:10Z</time>
      </trkpt>
      <trkpt lat="47.43699" lon="-0.53134">
        <ele>21.132919</ele>
        <time>2010-10-16T11:22:15Z</time>
      </trkpt>
      <trkpt lat="47.43685" lon="-0.53128">
        <ele>21</ele>
        <time>2010-10-16T11:22:20Z</time>
      </trkpt>
      <trkpt lat="47.43684" lon="-0.53126">
        <ele>21</ele>
        <time>2010-10-16T11:22:25Z</time>
      </trkpt>
      <trkpt lat="47.43684" lon="-0.53125">
        <ele>21</ele>
        <time>2010-10-16T11:22:30Z</time>
      </trkpt>
      <trkpt lat="47.43685" lon="-0.53125">
        <ele>21</ele>
        <time>2010-10-16T11:22:35Z</time>
      </trkpt>
      <trkpt lat="47.43685" lon="-0.53125">
        <ele>21</ele>
        <time>2010-10-16T11:22:40Z</time>
      </trkpt>
      <trkpt lat="47.43686" lon="-0.53124">
        <ele>21</ele>
        <time>2010-10-16T11:22:45Z</time>
      </trkpt>
      <trkpt lat="47.43687" lon="-0.53123">
        <ele>21</ele>
        <time>2010-10-16T11:22:50Z</time>
      </trkpt>
      <trkpt lat="47.43687" lon="-0.53123">
        <ele>21</ele>
        <time>2010-10-16T11:22:55Z</time>
      </trkpt>
      <trkpt lat="47.43687" lon="-0.53123">
        <ele>21</ele>
        <time>2010-10-16T11:23:00Z</time>
      </trkpt>
      <trkpt lat="47.43682" lon="-0.53121">
        <ele>21</ele>
        <time>2010-10-16T11:23:05Z</time>
      </trkpt>
      <trkpt lat="47.43666" lon="-0.53114">
        <ele>21</ele>
        <time>2010-10-16T11:23:10Z</time>
      </trkpt>
      <trkpt lat="47.43642" lon="-0.53104">
        <ele>21</ele>
        <time>2010-10-16T11:23:15Z</time>
      </trkpt>
      <trkpt lat="47.43615" lon="-0.53094">
        <ele>21</ele>
        <time>2010-10-16T11:23:20Z</time>
      </trkpt>
      <trkpt lat="47.43587" lon="-0.53084">
        <ele>21</ele>
        <time>2010-10-16T11:23:25Z</time>
      </trkpt>
      <trkpt lat="47.43559" lon="-0.53073">
        <ele>21</ele>
        <time>2010-10-16T11:23:30Z</time>
      </trkpt>
      <trkpt lat="47.4353" lon="-0.5306">
        <ele>21</ele>
        <time>2010-10-16T11:23:35Z</time>
      </trkpt>
      <trkpt lat="47.43502" lon="-0.53043">
        <ele>21</ele>
        <time>2010-10-16T11:23:40Z</time>
      </trkpt>
      <trkpt lat="47.43475" lon="-0.53027">
        <ele>21</ele>
        <time>2010-10-16T11:23:45Z</time>
      </trkpt>
      <trkpt lat="47.43448" lon="-0.53014">
        <ele>21</ele>
        <time>2010-10-16T11:23:50Z</time>
      </trkpt>
      <trkpt lat="47.43424" lon="-0.53001">
        <ele>21</ele>
        <time>2010-10-16T11:23:55Z</time>
      </trkpt>
      <trkpt lat="47.43407" lon="-0.52994">
        <ele>20.700001</ele>
        <time>2010-10-16T11:24:00Z</time>
      </trkpt>
      <trkpt lat="47.43394" lon="-0.52987">
        <ele>20.4</ele>
        <time>2010-10-16T11:24:05Z</time>
      </trkpt>
      <trkpt lat="47.43384" lon="-0.52982">
        <ele>20.18</ele>
        <time>2010-10-16T11:24:10Z</time>
      </trkpt>
      <trkpt lat="47.43365" lon="-0.52971">
        <ele>20</ele>
        <time>2010-10-16T11:24:15Z</time>
      </trkpt>
      <trkpt lat="47.43343" lon="-0.5296">
        <ele>20</ele>
        <time>2010-10-16T11:24:20Z</time>
      </trkpt>
      <trkpt lat="47.43318" lon="-0.52947">
        <ele>20</ele>
        <time>2010-10-16T11:24:25Z</time>
      </trkpt>
      <trkpt lat="47.43291" lon="-0.52931">
        <ele>20</ele>
        <time>2010-10-16T11:24:30Z</time>
      </trkpt>
      <trkpt lat="47.43264" lon="-0.52916">
        <ele>20</ele>
        <time>2010-10-16T11:24:35Z</time>
      </trkpt>
      <trkpt lat="47.43237" lon="-0.52902">
        <ele>20</ele>
        <time>2010-10-16T11:24:40Z</time>
      </trkpt>
      <trkpt lat="47.43211" lon="-0.52887">
        <ele>20</ele>
        <time>2010-10-16T11:24:45Z</time>
      </trkpt>
      <trkpt lat="47.43186" lon="-0.5287">
        <ele>19.65295</ele>
        <time>2010-10-16T11:24:50Z</time>
      </trkpt>
      <trkpt lat="47.43158" lon="-0.52856">
        <ele>19.068697</ele>
        <time>2010-10-16T11:24:55Z</time>
      </trkpt>
      <trkpt lat="47.4314" lon="-0.52845">
        <ele>19</ele>
        <time>2010-10-16T11:25:00Z</time>
      </trkpt>
      <trkpt lat="47.43111" lon="-0.52839">
        <ele>19</ele>
        <time>2010-10-16T11:25:05Z</time>
      </trkpt>
      <trkpt lat="47.43085" lon="-0.5283">
        <ele>19</ele>
        <time>2010-10-16T11:25:10Z</time>
      </trkpt>
      <trkpt lat="47.43059" lon="-0.52822">
        <ele>19.129999</ele>
        <time>2010-10-16T11:25:15Z</time>
      </trkpt>
      <trkpt lat="47.43035" lon="-0.52814">
        <ele>19.67</ele>
        <time>2010-10-16T11:25:20Z</time>
      </trkpt>
      <trkpt lat="47.43009" lon="-0.52805">
        <ele>20</ele>
        <time>2010-10-16T11:25:25Z</time>
      </trkpt>
      <trkpt lat="47.42996" lon="-0.52798">
        <ele>20</ele>
        <time>2010-10-16T11:25:30Z</time>
      </trkpt>
      <trkpt lat="47.4299" lon="-0.52796">
        <ele>20</ele>
        <time>2010-10-16T11:25:35Z</time>
      </trkpt>
      <trkpt lat="47.42988" lon="-0.52794">
        <ele>20</ele>
        <time>2010-10-16T11:25:40Z</time>
      </trkpt>
      <trkpt lat="47.42984" lon="-0.52793">
        <ele>20</ele>
        <time>2010-10-16T11:25:45Z</time>
      </trkpt>
      <trkpt lat="47.42982" lon="-0.52792">
        <ele>20</ele>
        <time>2010-10-16T11:25:50Z</time>
      </trkpt>
      <trkpt lat="47.42977" lon="-0.5279">
        <ele>20</ele>
        <time>2010-10-16T11:25:55Z</time>
      </trkpt>
      <trkpt lat="47.42965" lon="-0.52785">
        <ele>20</ele>
        <time>2010-10-16T11:26:00Z</time>
      </trkpt>
      <trkpt lat="47.42944" lon="-0.52786">
        <ele>20</ele>
        <time>2010-10-16T11:26:05Z</time>
      </trkpt>
      <trkpt lat="47.42919" lon="-0.52784">
        <ele>20</ele>
        <time>2010-10-16T11:26:10Z</time>
      </trkpt>
      <trkpt lat="47.42893" lon="-0.52779">
        <ele>20</ele>
        <time>2010-10-16T11:26:15Z</time>
      </trkpt>
      <trkpt lat="47.42866" lon="-0.52766">
        <ele>20</ele>
        <time>2010-10-16T11:26:20Z</time>
      </trkpt>
      <trkpt lat="47.42834" lon="-0.52751">
        <ele>20</ele>
        <time>2010-10-16T11:26:25Z</time>
      </trkpt>
      <trkpt lat="47.42815" lon="-0.5274">
        <ele>20</ele>
        <time>2010-10-16T11:26:30Z</time>
      </trkpt>
      <trkpt lat="47.42789" lon="-0.52724">
        <ele>20</ele>
        <time>2010-10-16T11:26:35Z</time>
      </trkpt>
      <trkpt lat="47.42759" lon="-0.52704">
        <ele>20</ele>
        <time>2010-10-16T11:26:40Z</time>
      </trkpt>
      <trkpt lat="47.42734" lon="-0.52689">
        <ele>20</ele>
        <time>2010-10-16T11:26:45Z</time>
      </trkpt>
      <trkpt lat="47.42709" lon="-0.52673">
        <ele>20</ele>
        <time>2010-10-16T11:26:50Z</time>
      </trkpt>
      <trkpt lat="47.42684" lon="-0.52655">
        <ele>20</ele>
        <time>2010-10-16T11:26:55Z</time>
      </trkpt>
      <trkpt lat="47.42657" lon="-0.52637">
        <ele>20</ele>
        <time>2010-10-16T11:27:00Z</time>
      </trkpt>
      <trkpt lat="47.42626" lon="-0.52617">
        <ele>20</ele>
        <time>2010-10-16T11:27:05Z</time>
      </trkpt>
      <trkpt lat="47.42595" lon="-0.52596">
        <ele>20</ele>
        <time>2010-10-16T11:27:10Z</time>
      </trkpt>
      <trkpt lat="47.42564" lon="-0.52574">
        <ele>20</ele>
        <time>2010-10-16T11:27:15Z</time>
      </trkpt>
      <trkpt lat="47.42536" lon="-0.52555">
        <ele>20</ele>
        <time>2010-10-16T11:27:20Z</time>
      </trkpt>
      <trkpt lat="47.42514" lon="-0.5254">
        <ele>20</ele>
        <time>2010-10-16T11:27:25Z</time>
      </trkpt>
      <trkpt lat="47.42487" lon="-0.52535">
        <ele>20</ele>
        <time>2010-10-16T11:27:30Z</time>
      </trkpt>
      <trkpt lat="47.42464" lon="-0.5252">
        <ele>20</ele>
        <time>2010-10-16T11:27:35Z</time>
      </trkpt>
      <trkpt lat="47.42444" lon="-0.52485">
        <ele>20</ele>
        <time>2010-10-16T11:27:40Z</time>
      </trkpt>
      <trkpt lat="47.42418" lon="-0.52465">
        <ele>20</ele>
        <time>2010-10-16T11:27:45Z</time>
      </trkpt>
      <trkpt lat="47.42393" lon="-0.52446">
        <ele>20</ele>
        <time>2010-10-16T11:27:50Z</time>
      </trkpt>
      <trkpt lat="47.42367" lon="-0.52427">
        <ele>20</ele>
        <time>2010-10-16T11:27:55Z</time>
      </trkpt>
      <trkpt lat="47.4234" lon="-0.52405">
        <ele>20</ele>
        <time>2010-10-16T11:28:00Z</time>
      </trkpt>
      <trkpt lat="47.42313" lon="-0.52385">
        <ele>20</ele>
        <time>2010-10-16T11:28:05Z</time>
      </trkpt>
      <trkpt lat="47.42286" lon="-0.5237">
        <ele>20</ele>
        <time>2010-10-16T11:28:10Z</time>
      </trkpt>
      <trkpt lat="47.42257" lon="-0.52363">
        <ele>20</ele>
        <time>2010-10-16T11:28:15Z</time>
      </trkpt>
      <trkpt lat="47.42227" lon="-0.52363">
        <ele>20</ele>
        <time>2010-10-16T11:28:20Z</time>
      </trkpt>
      <trkpt lat="47.42197" lon="-0.52363">
        <ele>20</ele>
        <time>2010-10-16T11:28:25Z</time>
      </trkpt>
      <trkpt lat="47.42168" lon="-0.52361">
        <ele>20</ele>
        <time>2010-10-16T11:28:30Z</time>
      </trkpt>
      <trkpt lat="47.42139" lon="-0.5236">
        <ele>20</ele>
        <time>2010-10-16T11:28:35Z</time>
      </trkpt>
      <trkpt lat="47.4211" lon="-0.52359">
        <ele>20</ele>
        <time>2010-10-16T11:28:40Z</time>
      </trkpt>
      <trkpt lat="47.4208" lon="-0.52357">
        <ele>20</ele>
        <time>2010-10-16T11:28:45Z</time>
      </trkpt>
      <trkpt lat="47.42048" lon="-0.52355">
        <ele>20</ele>
        <time>2010-10-16T11:28:50Z</time>
      </trkpt>
      <trkpt lat="47.42019" lon="-0.52354">
        <ele>20</ele>
        <time>2010-10-16T11:28:55Z</time>
      </trkpt>
      <trkpt lat="47.4199" lon="-0.52352">
        <ele>20</ele>
        <time>2010-10-16T11:29:00Z</time>
      </trkpt>
      <trkpt lat="47.4195" lon="-0.52348">
        <ele>20</ele>
        <time>2010-10-16T11:29:05Z</time>
      </trkpt>
      <trkpt lat="47.41916" lon="-0.52346">
        <ele>20</ele>
        <time>2010-10-16T11:29:10Z</time>
      </trkpt>
      <trkpt lat="47.41884" lon="-0.52344">
        <ele>20</ele>
        <time>2010-10-16T11:29:15Z</time>
      </trkpt>
      <trkpt lat="47.41856" lon="-0.5234">
        <ele>20.129999</ele>
        <time>2010-10-16T11:29:20Z</time>
      </trkpt>
      <trkpt lat="47.41826" lon="-0.52338">
        <ele>20.775679</ele>
        <time>2010-10-16T11:29:25Z</time>
      </trkpt>
      <trkpt lat="47.41795" lon="-0.52336">
        <ele>20.993126</ele>
        <time>2010-10-16T11:29:30Z</time>
      </trkpt>
      <trkpt lat="47.41763" lon="-0.52335">
        <ele>21</ele>
        <time>2010-10-16T11:29:35Z</time>
      </trkpt>
      <trkpt lat="47.41731" lon="-0.52332">
        <ele>20.9825</ele>
        <time>2010-10-16T11:29:40Z</time>
      </trkpt>
      <trkpt lat="47.417" lon="-0.52329">
        <ele>20.943356</ele>
        <time>2010-10-16T11:29:45Z</time>
      </trkpt>
      <trkpt lat="47.41676" lon="-0.52327">
        <ele>20.887501</ele>
        <time>2010-10-16T11:29:50Z</time>
      </trkpt>
      <trkpt lat="47.41645" lon="-0.52321">
        <ele>20.7775</ele>
        <time>2010-10-16T11:29:55Z</time>
      </trkpt>
      <trkpt lat="47.41616" lon="-0.5232">
        <ele>21.71875</ele>
        <time>2010-10-16T11:30:00Z</time>
      </trkpt>
      <trkpt lat="47.4159" lon="-0.52319">
        <ele>22.848</ele>
        <time>2010-10-16T11:30:05Z</time>
      </trkpt>
      <trkpt lat="47.41566" lon="-0.52317">
        <ele>23.4937</ele>
        <time>2010-10-16T11:30:10Z</time>
      </trkpt>
      <trkpt lat="47.41543" lon="-0.52315">
        <ele>23.928631</ele>
        <time>2010-10-16T11:30:15Z</time>
      </trkpt>
      <trkpt lat="47.41524" lon="-0.52311">
        <ele>23.648874</ele>
        <time>2010-10-16T11:30:20Z</time>
      </trkpt>
      <trkpt lat="47.41512" lon="-0.5231">
        <ele>23.504</ele>
        <time>2010-10-16T11:30:25Z</time>
      </trkpt>
      <trkpt lat="47.41512" lon="-0.52309">
        <ele>23.521063</ele>
        <time>2010-10-16T11:30:30Z</time>
      </trkpt>
      <trkpt lat="47.41512" lon="-0.52309">
        <ele>23.516399</ele>
        <time>2010-10-16T11:30:35Z</time>
      </trkpt>
      <trkpt lat="47.41505" lon="-0.5231">
        <ele>23.388113</ele>
        <time>2010-10-16T11:30:40Z</time>
      </trkpt>
      <trkpt lat="47.41484" lon="-0.52309">
        <ele>22.86615</ele>
        <time>2010-10-16T11:30:45Z</time>
      </trkpt>
      <trkpt lat="47.41458" lon="-0.52312">
        <ele>22.111631</ele>
        <time>2010-10-16T11:30:50Z</time>
      </trkpt>
      <trkpt lat="47.41429" lon="-0.52319">
        <ele>20.721642</ele>
        <time>2010-10-16T11:30:55Z</time>
      </trkpt>
      <trkpt lat="47.41399" lon="-0.52327">
        <ele>19.0863</ele>
        <time>2010-10-16T11:31:00Z</time>
      </trkpt>
      <trkpt lat="47.41371" lon="-0.52334">
        <ele>17.509706</ele>
        <time>2010-10-16T11:31:05Z</time>
      </trkpt>
      <trkpt lat="47.41342" lon="-0.52344">
        <ele>17.473125</ele>
        <time>2010-10-16T11:31:10Z</time>
      </trkpt>
      <trkpt lat="47.41313" lon="-0.52353">
        <ele>17.8325</ele>
        <time>2010-10-16T11:31:15Z</time>
      </trkpt>
      <trkpt lat="47.41283" lon="-0.52362">
        <ele>18.6425</ele>
        <time>2010-10-16T11:31:20Z</time>
      </trkpt>
      <trkpt lat="47.41247" lon="-0.52374">
        <ele>19.626875</ele>
        <time>2010-10-16T11:31:25Z</time>
      </trkpt>
      <trkpt lat="47.41224" lon="-0.5238">
        <ele>20</ele>
        <time>2010-10-16T11:31:30Z</time>
      </trkpt>
      <trkpt lat="47.41189" lon="-0.5239">
        <ele>20</ele>
        <time>2010-10-16T11:31:35Z</time>
      </trkpt>
      <trkpt lat="47.4116" lon="-0.524">
        <ele>20</ele>
        <time>2010-10-16T11:31:40Z</time>
      </trkpt>
      <trkpt lat="47.41132" lon="-0.5241">
        <ele>19.825001</ele>
        <time>2010-10-16T11:31:45Z</time>
      </trkpt>
      <trkpt lat="47.41103" lon="-0.52419">
        <ele>19.195</ele>
        <time>2010-10-16T11:31:50Z</time>
      </trkpt>
      <trkpt lat="47.41075" lon="-0.52429">
        <ele>19</ele>
        <time>2010-10-16T11:31:55Z</time>
      </trkpt>
      <trkpt lat="47.41046" lon="-0.52438">
        <ele>19</ele>
        <time>2010-10-16T11:32:00Z</time>
      </trkpt>
      <trkpt lat="47.41017" lon="-0.52449">
        <ele>19</ele>
        <time>2010-10-16T11:32:05Z</time>
      </trkpt>
      <trkpt lat="47.40988" lon="-0.5246">
        <ele>19</ele>
        <time>2010-10-16T11:32:10Z</time>
      </trkpt>
      <trkpt lat="47.40966" lon="-0.5247">
        <ele>19</ele>
        <time>2010-10-16T11:32:15Z</time>
      </trkpt>
      <trkpt lat="47.40938" lon="-0.52482">
        <ele>19</ele>
        <time>2010-10-16T11:32:20Z</time>
      </trkpt>
      <trkpt lat="47.40913" lon="-0.52492">
        <ele>19</ele>
        <time>2010-10-16T11:32:25Z</time>
      </trkpt>
      <trkpt lat="47.40897" lon="-0.52487">
        <ele>19</ele>
        <time>2010-10-16T11:32:30Z</time>
      </trkpt>
      <trkpt lat="47.409" lon="-0.52452">
        <ele>19</ele>
        <time>2010-10-16T11:32:35Z</time>
      </trkpt>
      <trkpt lat="47.40916" lon="-0.52424">
        <ele>19</ele>
        <time>2010-10-16T11:32:40Z</time>
      </trkpt>
      <trkpt lat="47.40927" lon="-0.52385">
        <ele>18.432501</ele>
        <time>2010-10-16T11:32:45Z</time>
      </trkpt>
      <trkpt lat="47.40934" lon="-0.52341">
        <ele>18</ele>
        <time>2010-10-16T11:32:50Z</time>
      </trkpt>
      <trkpt lat="47.40943" lon="-0.52294">
        <ele>18</ele>
        <time>2010-10-16T11:32:55Z</time>
      </trkpt>
      <trkpt lat="47.40954" lon="-0.5225">
        <ele>18</ele>
        <time>2010-10-16T11:33:00Z</time>
      </trkpt>
      <trkpt lat="47.40965" lon="-0.52208">
        <ele>18</ele>
        <time>2010-10-16T11:33:05Z</time>
      </trkpt>
      <trkpt lat="47.40978" lon="-0.52167">
        <ele>18</ele>
        <time>2010-10-16T11:33:10Z</time>
      </trkpt>
      <trkpt lat="47.40988" lon="-0.52125">
        <ele>18</ele>
        <time>2010-10-16T11:33:15Z</time>
      </trkpt>
      <trkpt lat="47.40997" lon="-0.52087">
        <ele>18.07819</ele>
        <time>2010-10-16T11:33:20Z</time>
      </trkpt>
      <trkpt lat="47.41005" lon="-0.52051">
        <ele>18.542999</ele>
        <time>2010-10-16T11:33:25Z</time>
      </trkpt>
      <trkpt lat="47.41012" lon="-0.52014">
        <ele>18.940001</ele>
        <time>2010-10-16T11:33:30Z</time>
      </trkpt>
      <trkpt lat="47.41018" lon="-0.51976">
        <ele>19</ele>
        <time>2010-10-16T11:33:35Z</time>
      </trkpt>
      <trkpt lat="47.41027" lon="-0.51938">
        <ele>19</ele>
        <time>2010-10-16T11:33:40Z</time>
      </trkpt>
      <trkpt lat="47.41033" lon="-0.51899">
        <ele>19</ele>
        <time>2010-10-16T11:33:45Z</time>
      </trkpt>
      <trkpt lat="47.41039" lon="-0.5186">
        <ele>19</ele>
        <time>2010-10-16T11:33:50Z</time>
      </trkpt>
      <trkpt lat="47.41048" lon="-0.51812">
        <ele>19</ele>
        <time>2010-10-16T11:33:55Z</time>
      </trkpt>
      <trkpt lat="47.41055" lon="-0.51781">
        <ele>19</ele>
        <time>2010-10-16T11:34:00Z</time>
      </trkpt>
      <trkpt lat="47.41062" lon="-0.51733">
        <ele>19</ele>
        <time>2010-10-16T11:34:05Z</time>
      </trkpt>
      <trkpt lat="47.41067" lon="-0.51692">
        <ele>19</ele>
        <time>2010-10-16T11:34:10Z</time>
      </trkpt>
      <trkpt lat="47.41074" lon="-0.51647">
        <ele>19</ele>
        <time>2010-10-16T11:34:15Z</time>
      </trkpt>
      <trkpt lat="47.41078" lon="-0.51599">
        <ele>19</ele>
        <time>2010-10-16T11:34:20Z</time>
      </trkpt>
      <trkpt lat="47.41084" lon="-0.51552">
        <ele>19</ele>
        <time>2010-10-16T11:34:25Z</time>
      </trkpt>
      <trkpt lat="47.41094" lon="-0.5151">
        <ele>19</ele>
        <time>2010-10-16T11:34:30Z</time>
      </trkpt>
      <trkpt lat="47.41111" lon="-0.51476">
        <ele>19</ele>
        <time>2010-10-16T11:34:35Z</time>
      </trkpt>
      <trkpt lat="47.41128" lon="-0.51452">
        <ele>19</ele>
        <time>2010-10-16T11:34:40Z</time>
      </trkpt>
      <trkpt lat="47.41154" lon="-0.51417">
        <ele>19</ele>
        <time>2010-10-16T11:34:45Z</time>
      </trkpt>
      <trkpt lat="47.4118" lon="-0.5138">
        <ele>19</ele>
        <time>2010-10-16T11:34:50Z</time>
      </trkpt>
      <trkpt lat="47.41204" lon="-0.51343">
        <ele>19</ele>
        <time>2010-10-16T11:34:55Z</time>
      </trkpt>
      <trkpt lat="47.41227" lon="-0.51304">
        <ele>19</ele>
        <time>2010-10-16T11:35:00Z</time>
      </trkpt>
      <trkpt lat="47.41248" lon="-0.51266">
        <ele>19</ele>
        <time>2010-10-16T11:35:05Z</time>
      </trkpt>
      <trkpt lat="47.41269" lon="-0.51229">
        <ele>19</ele>
        <time>2010-10-16T11:35:10Z</time>
      </trkpt>
      <trkpt lat="47.4129" lon="-0.51191">
        <ele>19</ele>
        <time>2010-10-16T11:35:15Z</time>
      </trkpt>
      <trkpt lat="47.41311" lon="-0.51151">
        <ele>19</ele>
        <time>2010-10-16T11:35:20Z</time>
      </trkpt>
      <trkpt lat="47.41333" lon="-0.51112">
        <ele>19</ele>
        <time>2010-10-16T11:35:25Z</time>
      </trkpt>
      <trkpt lat="47.41356" lon="-0.51074">
        <ele>19</ele>
        <time>2010-10-16T11:35:30Z</time>
      </trkpt>
      <trkpt lat="47.41376" lon="-0.51034">
        <ele>19</ele>
        <time>2010-10-16T11:35:35Z</time>
      </trkpt>
      <trkpt lat="47.41389" lon="-0.50987">
        <ele>19.024376</ele>
        <time>2010-10-16T11:35:40Z</time>
      </trkpt>
      <trkpt lat="47.41395" lon="-0.50938">
        <ele>19.776251</ele>
        <time>2010-10-16T11:35:45Z</time>
      </trkpt>
      <trkpt lat="47.41402" lon="-0.50889">
        <ele>20</ele>
        <time>2010-10-16T11:35:50Z</time>
      </trkpt>
      <trkpt lat="47.4141" lon="-0.5084">
        <ele>20</ele>
        <time>2010-10-16T11:35:55Z</time>
      </trkpt>
      <trkpt lat="47.41414" lon="-0.50789">
        <ele>20</ele>
        <time>2010-10-16T11:36:00Z</time>
      </trkpt>
      <trkpt lat="47.41413" lon="-0.50738">
        <ele>20</ele>
        <time>2010-10-16T11:36:05Z</time>
      </trkpt>
      <trkpt lat="47.41405" lon="-0.50686">
        <ele>20</ele>
        <time>2010-10-16T11:36:10Z</time>
      </trkpt>
      <trkpt lat="47.41396" lon="-0.50626">
        <ele>20</ele>
        <time>2010-10-16T11:36:15Z</time>
      </trkpt>
      <trkpt lat="47.41387" lon="-0.50579">
        <ele>19.907562</ele>
        <time>2010-10-16T11:36:20Z</time>
      </trkpt>
      <trkpt lat="47.41379" lon="-0.50533">
        <ele>19.3745</ele>
        <time>2010-10-16T11:36:25Z</time>
      </trkpt>
      <trkpt lat="47.4137" lon="-0.50487">
        <ele>19.029209</ele>
        <time>2010-10-16T11:36:30Z</time>
      </trkpt>
      <trkpt lat="47.41362" lon="-0.50434">
        <ele>19</ele>
        <time>2010-10-16T11:36:35Z</time>
      </trkpt>
      <trkpt lat="47.41357" lon="-0.50378">
        <ele>19</ele>
        <time>2010-10-16T11:36:40Z</time>
      </trkpt>
      <trkpt lat="47.41358" lon="-0.50326">
        <ele>19</ele>
        <time>2010-10-16T11:36:45Z</time>
      </trkpt>
      <trkpt lat="47.41349" lon="-0.50272">
        <ele>19</ele>
        <time>2010-10-16T11:36:50Z</time>
      </trkpt>
      <trkpt lat="47.41336" lon="-0.50221">
        <ele>19</ele>
        <time>2010-10-16T11:36:55Z</time>
      </trkpt>
      <trkpt lat="47.41325" lon="-0.50168">
        <ele>19</ele>
        <time>2010-10-16T11:37:00Z</time>
      </trkpt>
      <trkpt lat="47.41323" lon="-0.50121">
        <ele>19</ele>
        <time>2010-10-16T11:37:05Z</time>
      </trkpt>
      <trkpt lat="47.41319" lon="-0.50065">
        <ele>19</ele>
        <time>2010-10-16T11:37:10Z</time>
      </trkpt>
      <trkpt lat="47.41316" lon="-0.50009">
        <ele>19</ele>
        <time>2010-10-16T11:37:15Z</time>
      </trkpt>
      <trkpt lat="47.41314" lon="-0.49955">
        <ele>19</ele>
        <time>2010-10-16T11:37:20Z</time>
      </trkpt>
      <trkpt lat="47.41312" lon="-0.499">
        <ele>19</ele>
        <time>2010-10-16T11:37:25Z</time>
      </trkpt>
      <trkpt lat="47.4131" lon="-0.49844">
        <ele>19</ele>
        <time>2010-10-16T11:37:30Z</time>
      </trkpt>
      <trkpt lat="47.41305" lon="-0.49787">
        <ele>19.05225</ele>
        <time>2010-10-16T11:37:35Z</time>
      </trkpt>
      <trkpt lat="47.41298" lon="-0.49734">
        <ele>19.817801</ele>
        <time>2010-10-16T11:37:40Z</time>
      </trkpt>
      <trkpt lat="47.41287" lon="-0.49683">
        <ele>20</ele>
        <time>2010-10-16T11:37:45Z</time>
      </trkpt>
      <trkpt lat="47.41276" lon="-0.49632">
        <ele>20</ele>
        <time>2010-10-16T11:37:50Z</time>
      </trkpt>
      <trkpt lat="47.41265" lon="-0.4958">
        <ele>20</ele>
        <time>2010-10-16T11:37:55Z</time>
      </trkpt>
      <trkpt lat="47.41254" lon="-0.49527">
        <ele>20</ele>
        <time>2010-10-16T11:38:00Z</time>
      </trkpt>
      <trkpt lat="47.41249" lon="-0.49476">
        <ele>20</ele>
        <time>2010-10-16T11:38:05Z</time>
      </trkpt>
      <trkpt lat="47.41239" lon="-0.49426">
        <ele>20</ele>
        <time>2010-10-16T11:38:10Z</time>
      </trkpt>
      <trkpt lat="47.4123" lon="-0.49378">
        <ele>20</ele>
        <time>2010-10-16T11:38:15Z</time>
      </trkpt>
      <trkpt lat="47.41221" lon="-0.49329">
        <ele>20</ele>
        <time>2010-10-16T11:38:20Z</time>
      </trkpt>
      <trkpt lat="47.41209" lon="-0.49272">
        <ele>20</ele>
        <time>2010-10-16T11:38:25Z</time>
      </trkpt>
      <trkpt lat="47.412" lon="-0.49234">
        <ele>20</ele>
        <time>2010-10-16T11:38:30Z</time>
      </trkpt>
      <trkpt lat="47.4119" lon="-0.49185">
        <ele>20</ele>
        <time>2010-10-16T11:38:35Z</time>
      </trkpt>
      <trkpt lat="47.41178" lon="-0.49137">
        <ele>20</ele>
        <time>2010-10-16T11:38:40Z</time>
      </trkpt>
      <trkpt lat="47.41162" lon="-0.49078">
        <ele>20</ele>
        <time>2010-10-16T11:38:45Z</time>
      </trkpt>
      <trkpt lat="47.41144" lon="-0.49025">
        <ele>20.10215</ele>
        <time>2010-10-16T11:38:50Z</time>
      </trkpt>
      <trkpt lat="47.41126" lon="-0.48974">
        <ele>20.153141</ele>
        <time>2010-10-16T11:38:55Z</time>
      </trkpt>
      <trkpt lat="47.41109" lon="-0.48924">
        <ele>20.384394</ele>
        <time>2010-10-16T11:39:00Z</time>
      </trkpt>
      <trkpt lat="47.41092" lon="-0.48873">
        <ele>20.678749</ele>
        <time>2010-10-16T11:39:05Z</time>
      </trkpt>
      <trkpt lat="47.41074" lon="-0.4882">
        <ele>21</ele>
        <time>2010-10-16T11:39:10Z</time>
      </trkpt>
      <trkpt lat="47.41057" lon="-0.48768">
        <ele>20.805225</ele>
        <time>2010-10-16T11:39:15Z</time>
      </trkpt>
      <trkpt lat="47.4104" lon="-0.48716">
        <ele>20</ele>
        <time>2010-10-16T11:39:20Z</time>
      </trkpt>
      <trkpt lat="47.41025" lon="-0.48674">
        <ele>20</ele>
        <time>2010-10-16T11:39:25Z</time>
      </trkpt>
      <trkpt lat="47.41008" lon="-0.48622">
        <ele>20</ele>
        <time>2010-10-16T11:39:30Z</time>
      </trkpt>
      <trkpt lat="47.40989" lon="-0.48573">
        <ele>20</ele>
        <time>2010-10-16T11:39:35Z</time>
      </trkpt>
      <trkpt lat="47.40969" lon="-0.48525">
        <ele>20</ele>
        <time>2010-10-16T11:39:40Z</time>
      </trkpt>
      <trkpt lat="47.40947" lon="-0.48473">
        <ele>19.66111</ele>
        <time>2010-10-16T11:39:45Z</time>
      </trkpt>
      <trkpt lat="47.40926" lon="-0.48422">
        <ele>19.601828</ele>
        <time>2010-10-16T11:39:50Z</time>
      </trkpt>
      <trkpt lat="47.40905" lon="-0.48373">
        <ele>19.390863</ele>
        <time>2010-10-16T11:39:55Z</time>
      </trkpt>
      <trkpt lat="47.40887" lon="-0.48326">
        <ele>19.198687</ele>
        <time>2010-10-16T11:40:00Z</time>
      </trkpt>
      <trkpt lat="47.40873" lon="-0.48276">
        <ele>19.35</ele>
        <time>2010-10-16T11:40:05Z</time>
      </trkpt>
      <trkpt lat="47.40865" lon="-0.48225">
        <ele>20.045</ele>
        <time>2010-10-16T11:40:10Z</time>
      </trkpt>
      <trkpt lat="47.40859" lon="-0.48177">
        <ele>21.084375</ele>
        <time>2010-10-16T11:40:15Z</time>
      </trkpt>
      <trkpt lat="47.40847" lon="-0.48138">
        <ele>21.65</ele>
        <time>2010-10-16T11:40:20Z</time>
      </trkpt>
      <trkpt lat="47.40848" lon="-0.48095">
        <ele>21.690001</ele>
        <time>2010-10-16T11:40:25Z</time>
      </trkpt>
      <trkpt lat="47.40842" lon="-0.48047">
        <ele>22</ele>
        <time>2010-10-16T11:40:30Z</time>
      </trkpt>
      <trkpt lat="47.40831" lon="-0.47998">
        <ele>21.858126</ele>
        <time>2010-10-16T11:40:35Z</time>
      </trkpt>
      <trkpt lat="47.40819" lon="-0.47957">
        <ele>21.673628</ele>
        <time>2010-10-16T11:40:40Z</time>
      </trkpt>
      <trkpt lat="47.40805" lon="-0.47919">
        <ele>21.197124</ele>
        <time>2010-10-16T11:40:45Z</time>
      </trkpt>
      <trkpt lat="47.40786" lon="-0.47879">
        <ele>21.105127</ele>
        <time>2010-10-16T11:40:50Z</time>
      </trkpt>
      <trkpt lat="47.40779" lon="-0.47871">
        <ele>21.158819</ele>
        <time>2010-10-16T11:40:55Z</time>
      </trkpt>
      <trkpt lat="47.40775" lon="-0.47857">
        <ele>20.99247</ele>
        <time>2010-10-16T11:41:00Z</time>
      </trkpt>
      <trkpt lat="47.40769" lon="-0.47825">
        <ele>20.735001</ele>
        <time>2010-10-16T11:41:05Z</time>
      </trkpt>
      <trkpt lat="47.40766" lon="-0.47776">
        <ele>20.84</ele>
        <time>2010-10-16T11:41:10Z</time>
      </trkpt>
      <trkpt lat="47.40766" lon="-0.4773">
        <ele>20.860001</ele>
        <time>2010-10-16T11:41:15Z</time>
      </trkpt>
      <trkpt lat="47.4077" lon="-0.47686">
        <ele>20.795</ele>
        <time>2010-10-16T11:41:20Z</time>
      </trkpt>
      <trkpt lat="47.40772" lon="-0.47643">
        <ele>20.764999</ele>
        <time>2010-10-16T11:41:25Z</time>
      </trkpt>
      <trkpt lat="47.40773" lon="-0.47601">
        <ele>20.764999</ele>
        <time>2010-10-16T11:41:30Z</time>
      </trkpt>
      <trkpt lat="47.40759" lon="-0.4756">
        <ele>20.891251</ele>
        <time>2010-10-16T11:41:35Z</time>
      </trkpt>
      <trkpt lat="47.40734" lon="-0.47521">
        <ele>20.903126</ele>
        <time>2010-10-16T11:41:40Z</time>
      </trkpt>
      <trkpt lat="47.40709" lon="-0.47478">
        <ele>20.846251</ele>
        <time>2010-10-16T11:41:45Z</time>
      </trkpt>
      <trkpt lat="47.40688" lon="-0.47449">
        <ele>20.905624</ele>
        <time>2010-10-16T11:41:50Z</time>
      </trkpt>
      <trkpt lat="47.40661" lon="-0.47422">
        <ele>21.119375</ele>
        <time>2010-10-16T11:41:55Z</time>
      </trkpt>
      <trkpt lat="47.40634" lon="-0.47394">
        <ele>21.35375</ele>
        <time>2010-10-16T11:42:00Z</time>
      </trkpt>
      <trkpt lat="47.40604" lon="-0.47369">
        <ele>21.678928</ele>
        <time>2010-10-16T11:42:05Z</time>
      </trkpt>
      <trkpt lat="47.40581" lon="-0.47336">
        <ele>22.262331</ele>
        <time>2010-10-16T11:42:10Z</time>
      </trkpt>
      <trkpt lat="47.40565" lon="-0.47296">
        <ele>22.515625</ele>
        <time>2010-10-16T11:42:15Z</time>
      </trkpt>
      <trkpt lat="47.40548" lon="-0.47257">
        <ele>22.317499</ele>
        <time>2010-10-16T11:42:20Z</time>
      </trkpt>
      <trkpt lat="47.40531" lon="-0.47219">
        <ele>22.103468</ele>
        <time>2010-10-16T11:42:25Z</time>
      </trkpt>
      <trkpt lat="47.40514" lon="-0.47181">
        <ele>22.403</ele>
        <time>2010-10-16T11:42:30Z</time>
      </trkpt>
      <trkpt lat="47.40497" lon="-0.47143">
        <ele>23.11875</ele>
        <time>2010-10-16T11:42:35Z</time>
      </trkpt>
      <trkpt lat="47.40479" lon="-0.47104">
        <ele>23.829374</ele>
        <time>2010-10-16T11:42:40Z</time>
      </trkpt>
      <trkpt lat="47.40459" lon="-0.47062">
        <ele>24.601372</ele>
        <time>2010-10-16T11:42:45Z</time>
      </trkpt>
      <trkpt lat="47.40439" lon="-0.47019">
        <ele>25.435625</ele>
        <time>2010-10-16T11:42:50Z</time>
      </trkpt>
      <trkpt lat="47.4042" lon="-0.46976">
        <ele>26.849751</ele>
        <time>2010-10-16T11:42:55Z</time>
      </trkpt>
      <trkpt lat="47.40398" lon="-0.46939">
        <ele>27.465</ele>
        <time>2010-10-16T11:43:00Z</time>
      </trkpt>
      <trkpt lat="47.40371" lon="-0.46901">
        <ele>27.636047</ele>
        <time>2010-10-16T11:43:05Z</time>
      </trkpt>
      <trkpt lat="47.40349" lon="-0.46856">
        <ele>27.78875</ele>
        <time>2010-10-16T11:43:10Z</time>
      </trkpt>
      <trkpt lat="47.40338" lon="-0.46801">
        <ele>27.301441</ele>
        <time>2010-10-16T11:43:15Z</time>
      </trkpt>
      <trkpt lat="47.40331" lon="-0.46727">
        <ele>26.154024</ele>
        <time>2010-10-16T11:43:20Z</time>
      </trkpt>
      <trkpt lat="47.40325" lon="-0.46663">
        <ele>23.864622</ele>
        <time>2010-10-16T11:43:25Z</time>
      </trkpt>
      <trkpt lat="47.40317" lon="-0.46594">
        <ele>21.384251</ele>
        <time>2010-10-16T11:43:30Z</time>
      </trkpt>
      <trkpt lat="47.40299" lon="-0.46526">
        <ele>19.550625</ele>
        <time>2010-10-16T11:43:35Z</time>
      </trkpt>
      <trkpt lat="47.40277" lon="-0.46466">
        <ele>18.79854</ele>
        <time>2010-10-16T11:43:40Z</time>
      </trkpt>
      <trkpt lat="47.40256" lon="-0.46411">
        <ele>19.175501</ele>
        <time>2010-10-16T11:43:45Z</time>
      </trkpt>
      <trkpt lat="47.40237" lon="-0.46362">
        <ele>21.088751</ele>
        <time>2010-10-16T11:43:50Z</time>
      </trkpt>
      <trkpt lat="47.4022" lon="-0.46317">
        <ele>23.365625</ele>
        <time>2010-10-16T11:43:55Z</time>
      </trkpt>
      <trkpt lat="47.40203" lon="-0.46273">
        <ele>25.195</ele>
        <time>2010-10-16T11:44:00Z</time>
      </trkpt>
      <trkpt lat="47.40188" lon="-0.46228">
        <ele>25.854376</ele>
        <time>2010-10-16T11:44:05Z</time>
      </trkpt>
      <trkpt lat="47.40179" lon="-0.46181">
        <ele>26.559376</ele>
        <time>2010-10-16T11:44:10Z</time>
      </trkpt>
      <trkpt lat="47.40176" lon="-0.46142">
        <ele>27.1245</ele>
        <time>2010-10-16T11:44:15Z</time>
      </trkpt>
      <trkpt lat="47.40167" lon="-0.46093">
        <ele>27.8848</ele>
        <time>2010-10-16T11:44:20Z</time>
      </trkpt>
      <trkpt lat="47.40154" lon="-0.46043">
        <ele>28</ele>
        <time>2010-10-16T11:44:25Z</time>
      </trkpt>
      <trkpt lat="47.40139" lon="-0.45993">
        <ele>28</ele>
        <time>2010-10-16T11:44:30Z</time>
      </trkpt>
      <trkpt lat="47.40125" lon="-0.45947">
        <ele>28</ele>
        <time>2010-10-16T11:44:35Z</time>
      </trkpt>
      <trkpt lat="47.4011" lon="-0.45898">
        <ele>28</ele>
        <time>2010-10-16T11:44:40Z</time>
      </trkpt>
      <trkpt lat="47.40096" lon="-0.45839">
        <ele>28.5005</ele>
        <time>2010-10-16T11:44:45Z</time>
      </trkpt>
      <trkpt lat="47.40081" lon="-0.45781">
        <ele>29.06135</ele>
        <time>2010-10-16T11:44:50Z</time>
      </trkpt>
      <trkpt lat="47.40068" lon="-0.45729">
        <ele>29.605551</ele>
        <time>2010-10-16T11:44:55Z</time>
      </trkpt>
      <trkpt lat="47.40055" lon="-0.45677">
        <ele>30.046875</ele>
        <time>2010-10-16T11:45:00Z</time>
      </trkpt>
      <trkpt lat="47.4004" lon="-0.45626">
        <ele>30.847338</ele>
        <time>2010-10-16T11:45:05Z</time>
      </trkpt>
      <trkpt lat="47.40024" lon="-0.45575">
        <ele>30.712282</ele>
        <time>2010-10-16T11:45:10Z</time>
      </trkpt>
      <trkpt lat="47.40003" lon="-0.45526">
        <ele>30.995001</ele>
        <time>2010-10-16T11:45:15Z</time>
      </trkpt>
      <trkpt lat="47.3998" lon="-0.45477">
        <ele>30.926201</ele>
        <time>2010-10-16T11:45:20Z</time>
      </trkpt>
      <trkpt lat="47.39961" lon="-0.45424">
        <ele>29.383207</ele>
        <time>2010-10-16T11:45:25Z</time>
      </trkpt>
      <trkpt lat="47.39947" lon="-0.4537">
        <ele>27.470625</ele>
        <time>2010-10-16T11:45:30Z</time>
      </trkpt>
      <trkpt lat="47.39937" lon="-0.45304">
        <ele>25.626076</ele>
        <time>2010-10-16T11:45:35Z</time>
      </trkpt>
      <trkpt lat="47.39921" lon="-0.45234">
        <ele>25</ele>
        <time>2010-10-16T11:45:40Z</time>
      </trkpt>
      <trkpt lat="47.39907" lon="-0.4517">
        <ele>25.594376</ele>
        <time>2010-10-16T11:45:45Z</time>
      </trkpt>
      <trkpt lat="47.39894" lon="-0.45119">
        <ele>26.727501</ele>
        <time>2010-10-16T11:45:50Z</time>
      </trkpt>
      <trkpt lat="47.39871" lon="-0.45067">
        <ele>28.233963</ele>
        <time>2010-10-16T11:45:55Z</time>
      </trkpt>
      <trkpt lat="47.39852" lon="-0.45023">
        <ele>29.067345</ele>
        <time>2010-10-16T11:46:00Z</time>
      </trkpt>
      <trkpt lat="47.39835" lon="-0.44976">
        <ele>29.923025</ele>
        <time>2010-10-16T11:46:05Z</time>
      </trkpt>
      <trkpt lat="47.39817" lon="-0.44934">
        <ele>30.685101</ele>
        <time>2010-10-16T11:46:10Z</time>
      </trkpt>
      <trkpt lat="47.39799" lon="-0.44895">
        <ele>31.358984</ele>
        <time>2010-10-16T11:46:15Z</time>
      </trkpt>
      <trkpt lat="47.39784" lon="-0.44865">
        <ele>31.87125</ele>
        <time>2010-10-16T11:46:20Z</time>
      </trkpt>
      <trkpt lat="47.39781" lon="-0.44851">
        <ele>32.017498</ele>
        <time>2010-10-16T11:46:25Z</time>
      </trkpt>
      <trkpt lat="47.3979" lon="-0.44853">
        <ele>32.199375</ele>
        <time>2010-10-16T11:46:30Z</time>
      </trkpt>
      <trkpt lat="47.39802" lon="-0.44851">
        <ele>32.3325</ele>
        <time>2010-10-16T11:46:35Z</time>
      </trkpt>
      <trkpt lat="47.3981" lon="-0.44848">
        <ele>32.375626</ele>
        <time>2010-10-16T11:46:40Z</time>
      </trkpt>
      <trkpt lat="47.39818" lon="-0.44845">
        <ele>32.427502</ele>
        <time>2010-10-16T11:46:45Z</time>
      </trkpt>
      <trkpt lat="47.3982" lon="-0.44844">
        <ele>32.446877</ele>
        <time>2010-10-16T11:46:50Z</time>
      </trkpt>
      <trkpt lat="47.3982" lon="-0.44846">
        <ele>32.423752</ele>
        <time>2010-10-16T11:46:55Z</time>
      </trkpt>
      <trkpt lat="47.3982" lon="-0.44846">
        <ele>32.416248</ele>
        <time>2010-10-16T11:47:00Z</time>
      </trkpt>
      <trkpt lat="47.3982" lon="-0.44846">
        <ele>32.411251</ele>
        <time>2010-10-16T11:47:05Z</time>
      </trkpt>
      <trkpt lat="47.3982" lon="-0.44847">
        <ele>32.408749</ele>
        <time>2010-10-16T11:47:10Z</time>
      </trkpt>
      <trkpt lat="47.3982" lon="-0.44846">
        <ele>32.411251</ele>
        <time>2010-10-16T11:47:15Z</time>
      </trkpt>
      <trkpt lat="47.39829" lon="-0.44846">
        <ele>32.431252</ele>
        <time>2010-10-16T11:47:20Z</time>
      </trkpt>
      <trkpt lat="47.39847" lon="-0.44839">
        <ele>32.543125</ele>
        <time>2010-10-16T11:47:25Z</time>
      </trkpt>
      <trkpt lat="47.39869" lon="-0.44831">
        <ele>32.67625</ele>
        <time>2010-10-16T11:47:30Z</time>
      </trkpt>
      <trkpt lat="47.39895" lon="-0.44821">
        <ele>32.8475</ele>
        <time>2010-10-16T11:47:35Z</time>
      </trkpt>
      <trkpt lat="47.3992" lon="-0.44806">
        <ele>33.09375</ele>
        <time>2010-10-16T11:47:40Z</time>
      </trkpt>
      <trkpt lat="47.39947" lon="-0.448">
        <ele>32.843124</ele>
        <time>2010-10-16T11:47:45Z</time>
      </trkpt>
      <trkpt lat="47.39978" lon="-0.44797">
        <ele>32.207237</ele>
        <time>2010-10-16T11:47:50Z</time>
      </trkpt>
      <trkpt lat="47.40013" lon="-0.44798">
        <ele>31.200434</ele>
        <time>2010-10-16T11:47:55Z</time>
      </trkpt>
      <trkpt lat="47.40051" lon="-0.448">
        <ele>29.65</ele>
        <time>2010-10-16T11:48:00Z</time>
      </trkpt>
      <trkpt lat="47.40098" lon="-0.44794">
        <ele>27.57</ele>
        <time>2010-10-16T11:48:05Z</time>
      </trkpt>
      <trkpt lat="47.40126" lon="-0.44771">
        <ele>26.6124</ele>
        <time>2010-10-16T11:48:10Z</time>
      </trkpt>
      <trkpt lat="47.40154" lon="-0.44733">
        <ele>26.452499</ele>
        <time>2010-10-16T11:48:15Z</time>
      </trkpt>
      <trkpt lat="47.40178" lon="-0.44702">
        <ele>26.488951</ele>
        <time>2010-10-16T11:48:20Z</time>
      </trkpt>
      <trkpt lat="47.40201" lon="-0.4467">
        <ele>26.045</ele>
        <time>2010-10-16T11:48:25Z</time>
      </trkpt>
      <trkpt lat="47.40212" lon="-0.44631">
        <ele>25.65</ele>
        <time>2010-10-16T11:48:30Z</time>
      </trkpt>
      <trkpt lat="47.40211" lon="-0.44586">
        <ele>25.75</ele>
        <time>2010-10-16T11:48:35Z</time>
      </trkpt>
      <trkpt lat="47.4021" lon="-0.4454">
        <ele>25.870001</ele>
        <time>2010-10-16T11:48:40Z</time>
      </trkpt>
      <trkpt lat="47.40206" lon="-0.44494">
        <ele>26.09</ele>
        <time>2010-10-16T11:48:45Z</time>
      </trkpt>
      <trkpt lat="47.40203" lon="-0.4445">
        <ele>26.24</ele>
        <time>2010-10-16T11:48:50Z</time>
      </trkpt>
      <trkpt lat="47.40199" lon="-0.44406">
        <ele>26.459999</ele>
        <time>2010-10-16T11:48:55Z</time>
      </trkpt>
      <trkpt lat="47.40196" lon="-0.44364">
        <ele>26.639999</ele>
        <time>2010-10-16T11:49:00Z</time>
      </trkpt>
      <trkpt lat="47.40194" lon="-0.44332">
        <ele>26.799999</ele>
        <time>2010-10-16T11:49:05Z</time>
      </trkpt>
      <trkpt lat="47.40189" lon="-0.44291">
        <ele>26.946875</ele>
        <time>2010-10-16T11:49:10Z</time>
      </trkpt>
      <trkpt lat="47.40188" lon="-0.44248">
        <ele>26.434999</ele>
        <time>2010-10-16T11:49:15Z</time>
      </trkpt>
      <trkpt lat="47.40188" lon="-0.44198">
        <ele>25.210001</ele>
        <time>2010-10-16T11:49:20Z</time>
      </trkpt>
      <trkpt lat="47.40188" lon="-0.4414">
        <ele>23.182499</ele>
        <time>2010-10-16T11:49:25Z</time>
      </trkpt>
      <trkpt lat="47.40189" lon="-0.44078">
        <ele>20.893024</ele>
        <time>2010-10-16T11:49:30Z</time>
      </trkpt>
      <trkpt lat="47.4019" lon="-0.44019">
        <ele>19.93722</ele>
        <time>2010-10-16T11:49:35Z</time>
      </trkpt>
      <trkpt lat="47.40191" lon="-0.43965">
        <ele>19.655863</ele>
        <time>2010-10-16T11:49:40Z</time>
      </trkpt>
      <trkpt lat="47.40191" lon="-0.43914">
        <ele>19.928928</ele>
        <time>2010-10-16T11:49:45Z</time>
      </trkpt>
      <trkpt lat="47.40188" lon="-0.43862">
        <ele>20</ele>
        <time>2010-10-16T11:49:50Z</time>
      </trkpt>
      <trkpt lat="47.40186" lon="-0.43809">
        <ele>20</ele>
        <time>2010-10-16T11:49:55Z</time>
      </trkpt>
      <trkpt lat="47.40185" lon="-0.43758">
        <ele>20</ele>
        <time>2010-10-16T11:50:00Z</time>
      </trkpt>
      <trkpt lat="47.40185" lon="-0.43711">
        <ele>20</ele>
        <time>2010-10-16T11:50:05Z</time>
      </trkpt>
      <trkpt lat="47.40183" lon="-0.43664">
        <ele>20</ele>
        <time>2010-10-16T11:50:10Z</time>
      </trkpt>
      <trkpt lat="47.40182" lon="-0.43619">
        <ele>20.027628</ele>
        <time>2010-10-16T11:50:15Z</time>
      </trkpt>
      <trkpt lat="47.40178" lon="-0.43577">
        <ele>20.023901</ele>
        <time>2010-10-16T11:50:20Z</time>
      </trkpt>
      <trkpt lat="47.4017" lon="-0.43532">
        <ele>20</ele>
        <time>2010-10-16T11:50:25Z</time>
      </trkpt>
      <trkpt lat="47.40162" lon="-0.43485">
        <ele>20</ele>
        <time>2010-10-16T11:50:30Z</time>
      </trkpt>
      <trkpt lat="47.40152" lon="-0.43439">
        <ele>20</ele>
        <time>2010-10-16T11:50:35Z</time>
      </trkpt>
      <trkpt lat="47.40143" lon="-0.43391">
        <ele>20.049999</ele>
        <time>2010-10-16T11:50:40Z</time>
      </trkpt>
      <trkpt lat="47.40135" lon="-0.43334">
        <ele>20.459999</ele>
        <time>2010-10-16T11:50:45Z</time>
      </trkpt>
      <trkpt lat="47.40135" lon="-0.43284">
        <ele>20.47942</ele>
        <time>2010-10-16T11:50:50Z</time>
      </trkpt>
      <trkpt lat="47.40139" lon="-0.43234">
        <ele>20.208715</ele>
        <time>2010-10-16T11:50:55Z</time>
      </trkpt>
      <trkpt lat="47.40145" lon="-0.43185">
        <ele>20.09</ele>
        <time>2010-10-16T11:51:00Z</time>
      </trkpt>
      <trkpt lat="47.40153" lon="-0.43136">
        <ele>20</ele>
        <time>2010-10-16T11:51:05Z</time>
      </trkpt>
      <trkpt lat="47.4016" lon="-0.43091">
        <ele>20</ele>
        <time>2010-10-16T11:51:10Z</time>
      </trkpt>
      <trkpt lat="47.40165" lon="-0.43047">
        <ele>20</ele>
        <time>2010-10-16T11:51:15Z</time>
      </trkpt>
      <trkpt lat="47.40165" lon="-0.42999">
        <ele>20</ele>
        <time>2010-10-16T11:51:20Z</time>
      </trkpt>
      <trkpt lat="47.40161" lon="-0.4295">
        <ele>20</ele>
        <time>2010-10-16T11:51:25Z</time>
      </trkpt>
      <trkpt lat="47.40157" lon="-0.42911">
        <ele>20</ele>
        <time>2010-10-16T11:51:30Z</time>
      </trkpt>
      <trkpt lat="47.40151" lon="-0.42864">
        <ele>20</ele>
        <time>2010-10-16T11:51:35Z</time>
      </trkpt>
      <trkpt lat="47.40146" lon="-0.42817">
        <ele>20</ele>
        <time>2010-10-16T11:51:40Z</time>
      </trkpt>
      <trkpt lat="47.40146" lon="-0.4277">
        <ele>20</ele>
        <time>2010-10-16T11:51:45Z</time>
      </trkpt>
      <trkpt lat="47.4015" lon="-0.42722">
        <ele>20</ele>
        <time>2010-10-16T11:51:50Z</time>
      </trkpt>
      <trkpt lat="47.40154" lon="-0.42675">
        <ele>20.073524</ele>
        <time>2010-10-16T11:51:55Z</time>
      </trkpt>
      <trkpt lat="47.40155" lon="-0.42627">
        <ele>20.17</ele>
        <time>2010-10-16T11:52:00Z</time>
      </trkpt>
      <trkpt lat="47.40155" lon="-0.42579">
        <ele>20.184999</ele>
        <time>2010-10-16T11:52:05Z</time>
      </trkpt>
      <trkpt lat="47.40156" lon="-0.42529">
        <ele>20.205</ele>
        <time>2010-10-16T11:52:10Z</time>
      </trkpt>
      <trkpt lat="47.40154" lon="-0.4248">
        <ele>20.162663</ele>
        <time>2010-10-16T11:52:15Z</time>
      </trkpt>
      <trkpt lat="47.40145" lon="-0.42433">
        <ele>20</ele>
        <time>2010-10-16T11:52:20Z</time>
      </trkpt>
      <trkpt lat="47.40126" lon="-0.42393">
        <ele>20</ele>
        <time>2010-10-16T11:52:25Z</time>
      </trkpt>
      <trkpt lat="47.40112" lon="-0.42355">
        <ele>20.856613</ele>
        <time>2010-10-16T11:52:30Z</time>
      </trkpt>
      <trkpt lat="47.40103" lon="-0.42312">
        <ele>21.859699</ele>
        <time>2010-10-16T11:52:35Z</time>
      </trkpt>
      <trkpt lat="47.40098" lon="-0.42268">
        <ele>22.52</ele>
        <time>2010-10-16T11:52:40Z</time>
      </trkpt>
      <trkpt lat="47.40091" lon="-0.42224">
        <ele>23.200001</ele>
        <time>2010-10-16T11:52:45Z</time>
      </trkpt>
      <trkpt lat="47.40085" lon="-0.4218">
        <ele>23.82</ele>
        <time>2010-10-16T11:52:50Z</time>
      </trkpt>
      <trkpt lat="47.40073" lon="-0.42137">
        <ele>24.158678</ele>
        <time>2010-10-16T11:52:55Z</time>
      </trkpt>
      <trkpt lat="47.40054" lon="-0.42104">
        <ele>24.430256</ele>
        <time>2010-10-16T11:53:00Z</time>
      </trkpt>
      <trkpt lat="47.40035" lon="-0.42073">
        <ele>25.075624</ele>
        <time>2010-10-16T11:53:05Z</time>
      </trkpt>
      <trkpt lat="47.40029" lon="-0.42029">
        <ele>25.139999</ele>
        <time>2010-10-16T11:53:10Z</time>
      </trkpt>
      <trkpt lat="47.40036" lon="-0.41971">
        <ele>24.6</ele>
        <time>2010-10-16T11:53:15Z</time>
      </trkpt>
      <trkpt lat="47.40038" lon="-0.41926">
        <ele>24.58</ele>
        <time>2010-10-16T11:53:20Z</time>
      </trkpt>
      <trkpt lat="47.40041" lon="-0.41883">
        <ele>24.360001</ele>
        <time>2010-10-16T11:53:25Z</time>
      </trkpt>
      <trkpt lat="47.40046" lon="-0.41836">
        <ele>24</ele>
        <time>2010-10-16T11:53:30Z</time>
      </trkpt>
      <trkpt lat="47.40045" lon="-0.41789">
        <ele>24.180984</ele>
        <time>2010-10-16T11:53:35Z</time>
      </trkpt>
      <trkpt lat="47.40038" lon="-0.41744">
        <ele>23.870674</ele>
        <time>2010-10-16T11:53:40Z</time>
      </trkpt>
      <trkpt lat="47.40031" lon="-0.41705">
        <ele>22.906979</ele>
        <time>2010-10-16T11:53:45Z</time>
      </trkpt>
      <trkpt lat="47.40014" lon="-0.41676">
        <ele>22.880001</ele>
        <time>2010-10-16T11:53:50Z</time>
      </trkpt>
      <trkpt lat="47.40009" lon="-0.41643">
        <ele>22.165525</ele>
        <time>2010-10-16T11:53:55Z</time>
      </trkpt>
      <trkpt lat="47.40012" lon="-0.41588">
        <ele>21.17375</ele>
        <time>2010-10-16T11:54:00Z</time>
      </trkpt>
      <trkpt lat="47.40003" lon="-0.4153">
        <ele>21.26</ele>
        <time>2010-10-16T11:54:05Z</time>
      </trkpt>
      <trkpt lat="47.39996" lon="-0.41477">
        <ele>21.610001</ele>
        <time>2010-10-16T11:54:10Z</time>
      </trkpt>
      <trkpt lat="47.40003" lon="-0.41427">
        <ele>21.510626</ele>
        <time>2010-10-16T11:54:15Z</time>
      </trkpt>
      <trkpt lat="47.40009" lon="-0.41378">
        <ele>22.034374</ele>
        <time>2010-10-16T11:54:20Z</time>
      </trkpt>
      <trkpt lat="47.40016" lon="-0.41329">
        <ele>22.514376</ele>
        <time>2010-10-16T11:54:25Z</time>
      </trkpt>
      <trkpt lat="47.4002" lon="-0.41279">
        <ele>22.77</ele>
        <time>2010-10-16T11:54:30Z</time>
      </trkpt>
      <trkpt lat="47.40023" lon="-0.41228">
        <ele>22.68</ele>
        <time>2010-10-16T11:54:35Z</time>
      </trkpt>
      <trkpt lat="47.40026" lon="-0.41177">
        <ele>22.610001</ele>
        <time>2010-10-16T11:54:40Z</time>
      </trkpt>
      <trkpt lat="47.40028" lon="-0.41125">
        <ele>22.549999</ele>
        <time>2010-10-16T11:54:45Z</time>
      </trkpt>
      <trkpt lat="47.40031" lon="-0.41075">
        <ele>22.48</ele>
        <time>2010-10-16T11:54:50Z</time>
      </trkpt>
      <trkpt lat="47.40034" lon="-0.41025">
        <ele>22.350582</ele>
        <time>2010-10-16T11:54:55Z</time>
      </trkpt>
      <trkpt lat="47.40037" lon="-0.40972">
        <ele>22.005594</ele>
        <time>2010-10-16T11:55:00Z</time>
      </trkpt>
      <trkpt lat="47.40039" lon="-0.40919">
        <ele>21.386801</ele>
        <time>2010-10-16T11:55:05Z</time>
      </trkpt>
      <trkpt lat="47.40041" lon="-0.40869">
        <ele>21.492849</ele>
        <time>2010-10-16T11:55:10Z</time>
      </trkpt>
      <trkpt lat="47.40042" lon="-0.40823">
        <ele>22.092512</ele>
        <time>2010-10-16T11:55:15Z</time>
      </trkpt>
      <trkpt lat="47.40043" lon="-0.40772">
        <ele>23.418594</ele>
        <time>2010-10-16T11:55:20Z</time>
      </trkpt>
      <trkpt lat="47.40044" lon="-0.40739">
        <ele>25.0382</ele>
        <time>2010-10-16T11:55:25Z</time>
      </trkpt>
      <trkpt lat="47.40046" lon="-0.40698">
        <ele>27.071301</ele>
        <time>2010-10-16T11:55:30Z</time>
      </trkpt>
      <trkpt lat="47.40047" lon="-0.40657">
        <ele>29.025831</ele>
        <time>2010-10-16T11:55:35Z</time>
      </trkpt>
      <trkpt lat="47.40048" lon="-0.40609">
        <ele>30.655001</ele>
        <time>2010-10-16T11:55:40Z</time>
      </trkpt>
      <trkpt lat="47.40051" lon="-0.40576">
        <ele>31.374815</ele>
        <time>2010-10-16T11:55:45Z</time>
      </trkpt>
      <trkpt lat="47.40048" lon="-0.40553">
        <ele>31.663563</ele>
        <time>2010-10-16T11:55:50Z</time>
      </trkpt>
      <trkpt lat="47.4004" lon="-0.40572">
        <ele>32.859524</ele>
        <time>2010-10-16T11:55:55Z</time>
      </trkpt>
      <trkpt lat="47.40031" lon="-0.40601">
        <ele>33.263748</ele>
        <time>2010-10-16T11:56:00Z</time>
      </trkpt>
      <trkpt lat="47.40016" lon="-0.40625">
        <ele>34.032501</ele>
        <time>2010-10-16T11:56:05Z</time>
      </trkpt>
      <trkpt lat="47.39996" lon="-0.40634">
        <ele>35.963749</ele>
        <time>2010-10-16T11:56:10Z</time>
      </trkpt>
      <trkpt lat="47.39979" lon="-0.40633">
        <ele>37.411224</ele>
        <time>2010-10-16T11:56:15Z</time>
      </trkpt>
      <trkpt lat="47.39957" lon="-0.40629">
        <ele>38.282574</ele>
        <time>2010-10-16T11:56:20Z</time>
      </trkpt>
      <trkpt lat="47.39935" lon="-0.40626">
        <ele>39.316154</ele>
        <time>2010-10-16T11:56:25Z</time>
      </trkpt>
      <trkpt lat="47.39911" lon="-0.40618">
        <ele>41.344002</ele>
        <time>2010-10-16T11:56:30Z</time>
      </trkpt>
      <trkpt lat="47.39889" lon="-0.40618">
        <ele>42.974998</ele>
        <time>2010-10-16T11:56:35Z</time>
      </trkpt>
      <trkpt lat="47.3987" lon="-0.40624">
        <ele>45.174999</ele>
        <time>2010-10-16T11:56:40Z</time>
      </trkpt>
      <trkpt lat="47.3985" lon="-0.40633">
        <ele>46.959999</ele>
        <time>2010-10-16T11:56:45Z</time>
      </trkpt>
      <trkpt lat="47.39832" lon="-0.40644">
        <ele>48.19725</ele>
        <time>2010-10-16T11:56:50Z</time>
      </trkpt>
      <trkpt lat="47.39815" lon="-0.40663">
        <ele>48.910137</ele>
        <time>2010-10-16T11:56:55Z</time>
      </trkpt>
      <trkpt lat="47.39805" lon="-0.40694">
        <ele>47.962231</ele>
        <time>2010-10-16T11:57:00Z</time>
      </trkpt>
      <trkpt lat="47.39799" lon="-0.40727">
        <ele>48.101109</ele>
        <time>2010-10-16T11:57:05Z</time>
      </trkpt>
      <trkpt lat="47.39793" lon="-0.40759">
        <ele>48.448502</ele>
        <time>2010-10-16T11:57:10Z</time>
      </trkpt>
      <trkpt lat="47.39789" lon="-0.4079">
        <ele>49.0769</ele>
        <time>2010-10-16T11:57:15Z</time>
      </trkpt>
      <trkpt lat="47.39783" lon="-0.40821">
        <ele>49.994164</ele>
        <time>2010-10-16T11:57:20Z</time>
      </trkpt>
      <trkpt lat="47.39777" lon="-0.40848">
        <ele>50.929867</ele>
        <time>2010-10-16T11:57:25Z</time>
      </trkpt>
      <trkpt lat="47.3977" lon="-0.40875">
        <ele>51.773312</ele>
        <time>2010-10-16T11:57:30Z</time>
      </trkpt>
      <trkpt lat="47.3976" lon="-0.40901">
        <ele>52.982063</ele>
        <time>2010-10-16T11:57:35Z</time>
      </trkpt>
      <trkpt lat="47.39751" lon="-0.40922">
        <ele>54.25037</ele>
        <time>2010-10-16T11:57:40Z</time>
      </trkpt>
      <trkpt lat="47.39746" lon="-0.40936">
        <ele>54.803062</ele>
        <time>2010-10-16T11:57:45Z</time>
      </trkpt>
      <trkpt lat="47.39746" lon="-0.40936">
        <ele>54.803814</ele>
        <time>2010-10-16T11:57:50Z</time>
      </trkpt>
      <trkpt lat="47.39746" lon="-0.40935">
        <ele>54.777473</ele>
        <time>2010-10-16T11:57:55Z</time>
      </trkpt>
      <trkpt lat="47.39746" lon="-0.40936">
        <ele>54.749962</ele>
        <time>2010-10-16T11:58:00Z</time>
      </trkpt>
      <trkpt lat="47.39747" lon="-0.40936">
        <ele>54.723179</ele>
        <time>2010-10-16T11:58:05Z</time>
      </trkpt>
      <trkpt lat="47.39747" lon="-0.40936">
        <ele>54.722839</ele>
        <time>2010-10-16T11:58:10Z</time>
      </trkpt>
      <trkpt lat="47.39747" lon="-0.40936">
        <ele>54.723515</ele>
        <time>2010-10-16T11:58:15Z</time>
      </trkpt>
      <trkpt lat="47.39747" lon="-0.40936">
        <ele>54.723515</ele>
        <time>2010-10-16T11:58:20Z</time>
      </trkpt>
      <trkpt lat="47.39747" lon="-0.40936">
        <ele>54.69672</ele>
        <time>2010-10-16T11:58:25Z</time>
      </trkpt>
      <trkpt lat="47.39747" lon="-0.40935">
        <ele>54.723854</ele>
        <time>2010-10-16T11:58:30Z</time>
      </trkpt>
      <trkpt lat="47.39747" lon="-0.40935">
        <ele>54.697369</ele>
        <time>2010-10-16T11:58:35Z</time>
      </trkpt>
      <trkpt lat="47.39747" lon="-0.40935">
        <ele>54.670624</ele>
        <time>2010-10-16T11:58:40Z</time>
      </trkpt>
      <trkpt lat="47.39742" lon="-0.40941">
        <ele>55.239773</ele>
        <time>2010-10-16T11:58:45Z</time>
      </trkpt>
      <trkpt lat="47.3973" lon="-0.40957">
        <ele>56.464394</ele>
        <time>2010-10-16T11:58:50Z</time>
      </trkpt>
      <trkpt lat="47.39711" lon="-0.40979">
        <ele>57.946934</ele>
        <time>2010-10-16T11:58:55Z</time>
      </trkpt>
      <trkpt lat="47.39684" lon="-0.40985">
        <ele>59.68375</ele>
        <time>2010-10-16T11:59:00Z</time>
      </trkpt>
      <trkpt lat="47.39661" lon="-0.40965">
        <ele>62.448624</ele>
        <time>2010-10-16T11:59:05Z</time>
      </trkpt>
      <trkpt lat="47.39652" lon="-0.40926">
        <ele>64.203331</ele>
        <time>2010-10-16T11:59:10Z</time>
      </trkpt>
      <trkpt lat="47.39632" lon="-0.40903">
        <ele>65.791618</ele>
        <time>2010-10-16T11:59:15Z</time>
      </trkpt>
      <trkpt lat="47.39603" lon="-0.40901">
        <ele>66.741692</ele>
        <time>2010-10-16T11:59:20Z</time>
      </trkpt>
      <trkpt lat="47.39573" lon="-0.40905">
        <ele>67.38829</ele>
        <time>2010-10-16T11:59:25Z</time>
      </trkpt>
      <trkpt lat="47.39542" lon="-0.4091">
        <ele>68.450996</ele>
        <time>2010-10-16T11:59:30Z</time>
      </trkpt>
      <trkpt lat="47.39511" lon="-0.40912">
        <ele>69.936226</ele>
        <time>2010-10-16T11:59:35Z</time>
      </trkpt>
      <trkpt lat="47.39493" lon="-0.4088">
        <ele>70.578026</ele>
        <time>2010-10-16T11:59:40Z</time>
      </trkpt>
      <trkpt lat="47.39493" lon="-0.40831">
        <ele>70.027412</ele>
        <time>2010-10-16T11:59:45Z</time>
      </trkpt>
      <trkpt lat="47.39494" lon="-0.4078">
        <ele>69.73542</ele>
        <time>2010-10-16T11:59:50Z</time>
      </trkpt>
      <trkpt lat="47.39495" lon="-0.40727">
        <ele>69.420128</ele>
        <time>2010-10-16T11:59:55Z</time>
      </trkpt>
      <trkpt lat="47.39495" lon="-0.40673">
        <ele>68.735001</ele>
        <time>2010-10-16T12:00:00Z</time>
      </trkpt>
      <trkpt lat="47.39496" lon="-0.40619">
        <ele>67.927498</ele>
        <time>2010-10-16T12:00:05Z</time>
      </trkpt>
      <trkpt lat="47.39496" lon="-0.40564">
        <ele>67.814674</ele>
        <time>2010-10-16T12:00:10Z</time>
      </trkpt>
      <trkpt lat="47.39497" lon="-0.40513">
        <ele>67.860886</ele>
        <time>2010-10-16T12:00:15Z</time>
      </trkpt>
      <trkpt lat="47.3949" lon="-0.40455">
        <ele>68.080002</ele>
        <time>2010-10-16T12:00:20Z</time>
      </trkpt>
      <trkpt lat="47.39478" lon="-0.40414">
        <ele>68.411385</ele>
        <time>2010-10-16T12:00:25Z</time>
      </trkpt>
      <trkpt lat="47.39469" lon="-0.40389">
        <ele>69.138123</ele>
        <time>2010-10-16T12:00:30Z</time>
      </trkpt>
      <trkpt lat="47.3947" lon="-0.40386">
        <ele>69.189369</ele>
        <time>2010-10-16T12:00:35Z</time>
      </trkpt>
      <trkpt lat="47.39481" lon="-0.40412">
        <ele>68.416077</ele>
        <time>2010-10-16T12:00:40Z</time>
      </trkpt>
      <trkpt lat="47.39492" lon="-0.40455">
        <ele>68.050003</ele>
        <time>2010-10-16T12:00:45Z</time>
      </trkpt>
      <trkpt lat="47.39499" lon="-0.40502">
        <ele>67.839066</ele>
        <time>2010-10-16T12:00:50Z</time>
      </trkpt>
      <trkpt lat="47.39499" lon="-0.4055">
        <ele>67.673096</ele>
        <time>2010-10-16T12:00:55Z</time>
      </trkpt>
      <trkpt lat="47.39499" lon="-0.40601">
        <ele>67.787155</ele>
        <time>2010-10-16T12:01:00Z</time>
      </trkpt>
      <trkpt lat="47.39498" lon="-0.40641">
        <ele>68.192497</ele>
        <time>2010-10-16T12:01:05Z</time>
      </trkpt>
      <trkpt lat="47.39498" lon="-0.40692">
        <ele>68.910477</ele>
        <time>2010-10-16T12:01:10Z</time>
      </trkpt>
      <trkpt lat="47.39498" lon="-0.40746">
        <ele>69.518829</ele>
        <time>2010-10-16T12:01:15Z</time>
      </trkpt>
      <trkpt lat="47.39497" lon="-0.40801">
        <ele>69.694641</ele>
        <time>2010-10-16T12:01:20Z</time>
      </trkpt>
      <trkpt lat="47.39497" lon="-0.40855">
        <ele>70.176315</ele>
        <time>2010-10-16T12:01:25Z</time>
      </trkpt>
      <trkpt lat="47.39503" lon="-0.40903">
        <ele>70.321747</ele>
        <time>2010-10-16T12:01:30Z</time>
      </trkpt>
      <trkpt lat="47.39536" lon="-0.40913">
        <ele>68.681549</ele>
        <time>2010-10-16T12:01:35Z</time>
      </trkpt>
      <trkpt lat="47.39574" lon="-0.40906">
        <ele>67.304565</ele>
        <time>2010-10-16T12:01:40Z</time>
      </trkpt>
      <trkpt lat="47.39614" lon="-0.409">
        <ele>66.495239</ele>
        <time>2010-10-16T12:01:45Z</time>
      </trkpt>
      <trkpt lat="47.39653" lon="-0.40916">
        <ele>64.521523</ele>
        <time>2010-10-16T12:01:50Z</time>
      </trkpt>
      <trkpt lat="47.39672" lon="-0.4098">
        <ele>60.753899</ele>
        <time>2010-10-16T12:01:55Z</time>
      </trkpt>
      <trkpt lat="47.39715" lon="-0.40981">
        <ele>57.471863</ele>
        <time>2010-10-16T12:02:00Z</time>
      </trkpt>
      <trkpt lat="47.3974" lon="-0.40947">
        <ele>55.372368</ele>
        <time>2010-10-16T12:02:05Z</time>
      </trkpt>
      <trkpt lat="47.39752" lon="-0.40941">
        <ele>54.132061</ele>
        <time>2010-10-16T12:02:10Z</time>
      </trkpt>
      <trkpt lat="47.39751" lon="-0.40942">
        <ele>54.210377</ele>
        <time>2010-10-16T12:02:15Z</time>
      </trkpt>
      <trkpt lat="47.3975" lon="-0.40943">
        <ele>54.288818</ele>
        <time>2010-10-16T12:02:20Z</time>
      </trkpt>
      <trkpt lat="47.39749" lon="-0.40945">
        <ele>54.36562</ele>
        <time>2010-10-16T12:02:25Z</time>
      </trkpt>
      <trkpt lat="47.39749" lon="-0.40946">
        <ele>54.442638</ele>
        <time>2010-10-16T12:02:30Z</time>
      </trkpt>
      <trkpt lat="47.39748" lon="-0.40946">
        <ele>54.467999</ele>
        <time>2010-10-16T12:02:35Z</time>
      </trkpt>
      <trkpt lat="47.39748" lon="-0.40946">
        <ele>54.519936</ele>
        <time>2010-10-16T12:02:40Z</time>
      </trkpt>
      <trkpt lat="47.39748" lon="-0.40945">
        <ele>54.547771</ele>
        <time>2010-10-16T12:02:45Z</time>
      </trkpt>
      <trkpt lat="47.39748" lon="-0.40945">
        <ele>54.573856</ele>
        <time>2010-10-16T12:02:50Z</time>
      </trkpt>
      <trkpt lat="47.39747" lon="-0.40944">
        <ele>54.602528</ele>
        <time>2010-10-16T12:02:55Z</time>
      </trkpt>
      <trkpt lat="47.39747" lon="-0.40943">
        <ele>54.629326</ele>
        <time>2010-10-16T12:03:00Z</time>
      </trkpt>
      <trkpt lat="47.39754" lon="-0.40952">
        <ele>53.790501</ele>
        <time>2010-10-16T12:03:05Z</time>
      </trkpt>
      <trkpt lat="47.39766" lon="-0.40974">
        <ele>52.604244</ele>
        <time>2010-10-16T12:03:10Z</time>
      </trkpt>
      <trkpt lat="47.3977" lon="-0.41001">
        <ele>52.451225</ele>
        <time>2010-10-16T12:03:15Z</time>
      </trkpt>
      <trkpt lat="47.39768" lon="-0.41039">
        <ele>52.473751</ele>
        <time>2010-10-16T12:03:20Z</time>
      </trkpt>
      <trkpt lat="47.39766" lon="-0.41078">
        <ele>51.318748</ele>
        <time>2010-10-16T12:03:25Z</time>
      </trkpt>
      <trkpt lat="47.39765" lon="-0.41117">
        <ele>49.328602</ele>
        <time>2010-10-16T12:03:30Z</time>
      </trkpt>
      <trkpt lat="47.39757" lon="-0.41161">
        <ele>47.031601</ele>
        <time>2010-10-16T12:03:35Z</time>
      </trkpt>
      <trkpt lat="47.39756" lon="-0.41197">
        <ele>45.333118</ele>
        <time>2010-10-16T12:03:40Z</time>
      </trkpt>
      <trkpt lat="47.39784" lon="-0.41225">
        <ele>40.833424</ele>
        <time>2010-10-16T12:03:45Z</time>
      </trkpt>
      <trkpt lat="47.39816" lon="-0.41246">
        <ele>37.700001</ele>
        <time>2010-10-16T12:03:50Z</time>
      </trkpt>
      <trkpt lat="47.39843" lon="-0.41259">
        <ele>35.496899</ele>
        <time>2010-10-16T12:03:55Z</time>
      </trkpt>
      <trkpt lat="47.39875" lon="-0.41275">
        <ele>32.757862</ele>
        <time>2010-10-16T12:04:00Z</time>
      </trkpt>
      <trkpt lat="47.39913" lon="-0.41296">
        <ele>28.2575</ele>
        <time>2010-10-16T12:04:05Z</time>
      </trkpt>
      <trkpt lat="47.39963" lon="-0.41293">
        <ele>25.485519</ele>
        <time>2010-10-16T12:04:10Z</time>
      </trkpt>
      <trkpt lat="47.40004" lon="-0.41274">
        <ele>23.587999</ele>
        <time>2010-10-16T12:04:15Z</time>
      </trkpt>
      <trkpt lat="47.40025" lon="-0.41275">
        <ele>22.559999</ele>
        <time>2010-10-16T12:04:20Z</time>
      </trkpt>
      <trkpt lat="47.40029" lon="-0.41245">
        <ele>22.389999</ele>
        <time>2010-10-16T12:04:25Z</time>
      </trkpt>
      <trkpt lat="47.40031" lon="-0.41213">
        <ele>22.34</ele>
        <time>2010-10-16T12:04:30Z</time>
      </trkpt>
      <trkpt lat="47.40031" lon="-0.41173">
        <ele>22.389999</ele>
        <time>2010-10-16T12:04:35Z</time>
      </trkpt>
      <trkpt lat="47.40033" lon="-0.41127">
        <ele>22.34</ele>
        <time>2010-10-16T12:04:40Z</time>
      </trkpt>
      <trkpt lat="47.40036" lon="-0.4108">
        <ele>22.280001</ele>
        <time>2010-10-16T12:04:45Z</time>
      </trkpt>
      <trkpt lat="47.40038" lon="-0.41032">
        <ele>22.156675</ele>
        <time>2010-10-16T12:04:50Z</time>
      </trkpt>
      <trkpt lat="47.40041" lon="-0.40978">
        <ele>21.761263</ele>
        <time>2010-10-16T12:04:55Z</time>
      </trkpt>
      <trkpt lat="47.40043" lon="-0.40936">
        <ele>21.354151</ele>
        <time>2010-10-16T12:05:00Z</time>
      </trkpt>
      <trkpt lat="47.40044" lon="-0.40905">
        <ele>21.103287</ele>
        <time>2010-10-16T12:05:05Z</time>
      </trkpt>
      <trkpt lat="47.40046" lon="-0.40855">
        <ele>21.442581</ele>
        <time>2010-10-16T12:05:10Z</time>
      </trkpt>
      <trkpt lat="47.40047" lon="-0.40816">
        <ele>22.120703</ele>
        <time>2010-10-16T12:05:15Z</time>
      </trkpt>
      <trkpt lat="47.40047" lon="-0.40788">
        <ele>22.807613</ele>
        <time>2010-10-16T12:05:20Z</time>
      </trkpt>
      <trkpt lat="47.40047" lon="-0.40746">
        <ele>24.528719</ele>
        <time>2010-10-16T12:05:25Z</time>
      </trkpt>
      <trkpt lat="47.40047" lon="-0.4071">
        <ele>26.288401</ele>
        <time>2010-10-16T12:05:30Z</time>
      </trkpt>
      <trkpt lat="47.40048" lon="-0.40675">
        <ele>27.959249</ele>
        <time>2010-10-16T12:05:35Z</time>
      </trkpt>
      <trkpt lat="47.40049" lon="-0.4064">
        <ele>29.6</ele>
        <time>2010-10-16T12:05:40Z</time>
      </trkpt>
      <trkpt lat="47.40049" lon="-0.40604">
        <ele>30.716249</ele>
        <time>2010-10-16T12:05:45Z</time>
      </trkpt>
      <trkpt lat="47.40051" lon="-0.40568">
        <ele>31.368061</ele>
        <time>2010-10-16T12:05:50Z</time>
      </trkpt>
      <trkpt lat="47.40044" lon="-0.40555">
        <ele>32.0797</ele>
        <time>2010-10-16T12:05:55Z</time>
      </trkpt>
      <trkpt lat="47.40035" lon="-0.40585">
        <ele>33.212498</ele>
        <time>2010-10-16T12:06:00Z</time>
      </trkpt>
      <trkpt lat="47.40022" lon="-0.40616">
        <ele>33.672501</ele>
        <time>2010-10-16T12:06:05Z</time>
      </trkpt>
      <trkpt lat="47.40002" lon="-0.40632">
        <ele>35.407501</ele>
        <time>2010-10-16T12:06:10Z</time>
      </trkpt>
      <trkpt lat="47.39978" lon="-0.40631">
        <ele>37.490688</ele>
        <time>2010-10-16T12:06:15Z</time>
      </trkpt>
      <trkpt lat="47.39955" lon="-0.40628">
        <ele>38.438751</ele>
        <time>2010-10-16T12:06:20Z</time>
      </trkpt>
      <trkpt lat="47.39931" lon="-0.40624">
        <ele>39.683937</ele>
        <time>2010-10-16T12:06:25Z</time>
      </trkpt>
      <trkpt lat="47.39904" lon="-0.40618">
        <ele>41.666248</ele>
        <time>2010-10-16T12:06:30Z</time>
      </trkpt>
      <trkpt lat="47.39878" lon="-0.40616">
        <ele>44.970001</ele>
        <time>2010-10-16T12:06:35Z</time>
      </trkpt>
      <trkpt lat="47.39854" lon="-0.40625">
        <ele>47.5</ele>
        <time>2010-10-16T12:06:40Z</time>
      </trkpt>
      <trkpt lat="47.39832" lon="-0.40638">
        <ele>48.851749</ele>
        <time>2010-10-16T12:06:45Z</time>
      </trkpt>
      <trkpt lat="47.39813" lon="-0.40658">
        <ele>49.645924</ele>
        <time>2010-10-16T12:06:50Z</time>
      </trkpt>
      <trkpt lat="47.398" lon="-0.40696">
        <ele>48.562656</ele>
        <time>2010-10-16T12:06:55Z</time>
      </trkpt>
      <trkpt lat="47.39795" lon="-0.40735">
        <ele>48.544308</ele>
        <time>2010-10-16T12:07:00Z</time>
      </trkpt>
      <trkpt lat="47.3979" lon="-0.40774">
        <ele>48.862251</ele>
        <time>2010-10-16T12:07:05Z</time>
      </trkpt>
      <trkpt lat="47.39785" lon="-0.40811">
        <ele>49.780998</ele>
        <time>2010-10-16T12:07:10Z</time>
      </trkpt>
      <trkpt lat="47.39777" lon="-0.40846">
        <ele>50.905228</ele>
        <time>2010-10-16T12:07:15Z</time>
      </trkpt>
      <trkpt lat="47.39765" lon="-0.40886">
        <ele>52.33672</ele>
        <time>2010-10-16T12:07:20Z</time>
      </trkpt>
      <trkpt lat="47.39755" lon="-0.40911">
        <ele>53.709019</ele>
        <time>2010-10-16T12:07:25Z</time>
      </trkpt>
      <trkpt lat="47.3975" lon="-0.4094">
        <ele>54.264469</ele>
        <time>2010-10-16T12:07:30Z</time>
      </trkpt>
      <trkpt lat="47.39768" lon="-0.40983">
        <ele>52.402061</ele>
        <time>2010-10-16T12:07:35Z</time>
      </trkpt>
      <trkpt lat="47.3977" lon="-0.41023">
        <ele>52.662701</ele>
        <time>2010-10-16T12:07:40Z</time>
      </trkpt>
      <trkpt lat="47.39769" lon="-0.41064">
        <ele>51.571251</ele>
        <time>2010-10-16T12:07:45Z</time>
      </trkpt>
      <trkpt lat="47.39768" lon="-0.41111">
        <ele>49.450676</ele>
        <time>2010-10-16T12:07:50Z</time>
      </trkpt>
      <trkpt lat="47.39759" lon="-0.41166">
        <ele>46.597324</ele>
        <time>2010-10-16T12:07:55Z</time>
      </trkpt>
      <trkpt lat="47.39763" lon="-0.41206">
        <ele>44.152954</ele>
        <time>2010-10-16T12:08:00Z</time>
      </trkpt>
      <trkpt lat="47.39801" lon="-0.41239">
        <ele>39.040001</ele>
        <time>2010-10-16T12:08:05Z</time>
      </trkpt>
      <trkpt lat="47.3984" lon="-0.4126">
        <ele>35.697861</ele>
        <time>2010-10-16T12:08:10Z</time>
      </trkpt>
      <trkpt lat="47.39881" lon="-0.41279">
        <ele>32.005001</ele>
        <time>2010-10-16T12:08:15Z</time>
      </trkpt>
      <trkpt lat="47.3992" lon="-0.41298">
        <ele>27.42</ele>
        <time>2010-10-16T12:08:20Z</time>
      </trkpt>
      <trkpt lat="47.39972" lon="-0.4129">
        <ele>25.037863</ele>
        <time>2010-10-16T12:08:25Z</time>
      </trkpt>
      <trkpt lat="47.40021" lon="-0.41277">
        <ele>22.709999</ele>
        <time>2010-10-16T12:08:30Z</time>
      </trkpt>
      <trkpt lat="47.40028" lon="-0.4126">
        <ele>22.440001</ele>
        <time>2010-10-16T12:08:35Z</time>
      </trkpt>
      <trkpt lat="47.40029" lon="-0.41219">
        <ele>22.43</ele>
        <time>2010-10-16T12:08:40Z</time>
      </trkpt>
      <trkpt lat="47.4003" lon="-0.41174">
        <ele>22.42</ele>
        <time>2010-10-16T12:08:45Z</time>
      </trkpt>
      <trkpt lat="47.40032" lon="-0.41129">
        <ele>22.389999</ele>
        <time>2010-10-16T12:08:50Z</time>
      </trkpt>
      <trkpt lat="47.40034" lon="-0.41083">
        <ele>22.35</ele>
        <time>2010-10-16T12:08:55Z</time>
      </trkpt>
      <trkpt lat="47.40036" lon="-0.41037">
        <ele>22.269365</ele>
        <time>2010-10-16T12:09:00Z</time>
      </trkpt>
      <trkpt lat="47.40039" lon="-0.4099">
        <ele>21.948826</ele>
        <time>2010-10-16T12:09:05Z</time>
      </trkpt>
      <trkpt lat="47.40041" lon="-0.40942">
        <ele>21.479425</ele>
        <time>2010-10-16T12:09:10Z</time>
      </trkpt>
      <trkpt lat="47.40043" lon="-0.40895">
        <ele>21.235266</ele>
        <time>2010-10-16T12:09:15Z</time>
      </trkpt>
      <trkpt lat="47.40044" lon="-0.40852">
        <ele>21.502197</ele>
        <time>2010-10-16T12:09:20Z</time>
      </trkpt>
      <trkpt lat="47.40045" lon="-0.4081">
        <ele>22.327938</ele>
        <time>2010-10-16T12:09:25Z</time>
      </trkpt>
      <trkpt lat="47.40046" lon="-0.40769">
        <ele>23.46125</ele>
        <time>2010-10-16T12:09:30Z</time>
      </trkpt>
      <trkpt lat="47.40048" lon="-0.40728">
        <ele>25.360863</ele>
        <time>2010-10-16T12:09:35Z</time>
      </trkpt>
      <trkpt lat="47.40048" lon="-0.40688">
        <ele>27.3319</ele>
        <time>2010-10-16T12:09:40Z</time>
      </trkpt>
      <trkpt lat="47.4005" lon="-0.40641">
        <ele>29.391251</ele>
        <time>2010-10-16T12:09:45Z</time>
      </trkpt>
      <trkpt lat="47.4005" lon="-0.4061">
        <ele>30.446249</ele>
        <time>2010-10-16T12:09:50Z</time>
      </trkpt>
      <trkpt lat="47.40053" lon="-0.40562">
        <ele>31.088621</ele>
        <time>2010-10-16T12:09:55Z</time>
      </trkpt>
      <trkpt lat="47.40038" lon="-0.40568">
        <ele>32.959621</ele>
        <time>2010-10-16T12:10:00Z</time>
      </trkpt>
      <trkpt lat="47.4003" lon="-0.40605">
        <ele>33.241249</ele>
        <time>2010-10-16T12:10:05Z</time>
      </trkpt>
      <trkpt lat="47.40011" lon="-0.40631">
        <ele>34.4575</ele>
        <time>2010-10-16T12:10:10Z</time>
      </trkpt>
      <trkpt lat="47.39985" lon="-0.40635">
        <ele>37.141251</ele>
        <time>2010-10-16T12:10:15Z</time>
      </trkpt>
      <trkpt lat="47.39959" lon="-0.4063">
        <ele>38.142452</ele>
        <time>2010-10-16T12:10:20Z</time>
      </trkpt>
      <trkpt lat="47.39933" lon="-0.40626">
        <ele>39.426125</ele>
        <time>2010-10-16T12:10:25Z</time>
      </trkpt>
      <trkpt lat="47.39908" lon="-0.40623">
        <ele>40.898094</ele>
        <time>2010-10-16T12:10:30Z</time>
      </trkpt>
      <trkpt lat="47.39881" lon="-0.40622">
        <ele>43.715</ele>
        <time>2010-10-16T12:10:35Z</time>
      </trkpt>
      <trkpt lat="47.39852" lon="-0.40627">
        <ele>47.395</ele>
        <time>2010-10-16T12:10:40Z</time>
      </trkpt>
      <trkpt lat="47.39834" lon="-0.40638">
        <ele>48.527523</ele>
        <time>2010-10-16T12:10:45Z</time>
      </trkpt>
      <trkpt lat="47.39813" lon="-0.40664">
        <ele>49.178467</ele>
        <time>2010-10-16T12:10:50Z</time>
      </trkpt>
      <trkpt lat="47.398" lon="-0.40704">
        <ele>48.347095</ele>
        <time>2010-10-16T12:10:55Z</time>
      </trkpt>
      <trkpt lat="47.39794" lon="-0.40745">
        <ele>48.510975</ele>
        <time>2010-10-16T12:11:00Z</time>
      </trkpt>
      <trkpt lat="47.39788" lon="-0.40785">
        <ele>49.16235</ele>
        <time>2010-10-16T12:11:05Z</time>
      </trkpt>
      <trkpt lat="47.39781" lon="-0.40823">
        <ele>50.365467</ele>
        <time>2010-10-16T12:11:10Z</time>
      </trkpt>
      <trkpt lat="47.39772" lon="-0.40861">
        <ele>51.540905</ele>
        <time>2010-10-16T12:11:15Z</time>
      </trkpt>
      <trkpt lat="47.3976" lon="-0.40897">
        <ele>52.999317</ele>
        <time>2010-10-16T12:11:20Z</time>
      </trkpt>
      <trkpt lat="47.39748" lon="-0.40929">
        <ele>54.655273</ele>
        <time>2010-10-16T12:11:25Z</time>
      </trkpt>
      <trkpt lat="47.39762" lon="-0.40963">
        <ele>52.944889</ele>
        <time>2010-10-16T12:11:30Z</time>
      </trkpt>
      <trkpt lat="47.3977" lon="-0.41004">
        <ele>52.488125</ele>
        <time>2010-10-16T12:11:35Z</time>
      </trkpt>
      <trkpt lat="47.39768" lon="-0.41047">
        <ele>52.1875</ele>
        <time>2010-10-16T12:11:40Z</time>
      </trkpt>
      <trkpt lat="47.39768" lon="-0.41094">
        <ele>50.655861</ele>
        <time>2010-10-16T12:11:45Z</time>
      </trkpt>
      <trkpt lat="47.3976" lon="-0.4115">
        <ele>47.529102</ele>
        <time>2010-10-16T12:11:50Z</time>
      </trkpt>
      <trkpt lat="47.39756" lon="-0.41197">
        <ele>45.326286</ele>
        <time>2010-10-16T12:11:55Z</time>
      </trkpt>
      <trkpt lat="47.39792" lon="-0.4123">
        <ele>39.919998</ele>
        <time>2010-10-16T12:12:00Z</time>
      </trkpt>
      <trkpt lat="47.39833" lon="-0.41257">
        <ele>36.200001</ele>
        <time>2010-10-16T12:12:05Z</time>
      </trkpt>
      <trkpt lat="47.39874" lon="-0.41275">
        <ele>32.817974</ele>
        <time>2010-10-16T12:12:10Z</time>
      </trkpt>
      <trkpt lat="47.39921" lon="-0.41299">
        <ele>27.3325</ele>
        <time>2010-10-16T12:12:15Z</time>
      </trkpt>
      <trkpt lat="47.39974" lon="-0.4129">
        <ele>24.971001</ele>
        <time>2010-10-16T12:12:20Z</time>
      </trkpt>
      <trkpt lat="47.40017" lon="-0.41277">
        <ele>22.9</ele>
        <time>2010-10-16T12:12:25Z</time>
      </trkpt>
      <trkpt lat="47.40029" lon="-0.41245">
        <ele>22.41</ele>
        <time>2010-10-16T12:12:30Z</time>
      </trkpt>
      <trkpt lat="47.40029" lon="-0.41197">
        <ele>22.440001</ele>
        <time>2010-10-16T12:12:35Z</time>
      </trkpt>
      <trkpt lat="47.40032" lon="-0.41147">
        <ele>22.35</ele>
        <time>2010-10-16T12:12:40Z</time>
      </trkpt>
      <trkpt lat="47.40034" lon="-0.41106">
        <ele>22.299999</ele>
        <time>2010-10-16T12:12:45Z</time>
      </trkpt>
      <trkpt lat="47.40038" lon="-0.41045">
        <ele>22.219999</ele>
        <time>2010-10-16T12:12:50Z</time>
      </trkpt>
      <trkpt lat="47.4004" lon="-0.40993">
        <ele>21.887106</ele>
        <time>2010-10-16T12:12:55Z</time>
      </trkpt>
      <trkpt lat="47.40043" lon="-0.40942">
        <ele>21.382563</ele>
        <time>2010-10-16T12:13:00Z</time>
      </trkpt>
      <trkpt lat="47.40045" lon="-0.40892">
        <ele>21.187412</ele>
        <time>2010-10-16T12:13:05Z</time>
      </trkpt>
      <trkpt lat="47.40046" lon="-0.40853">
        <ele>21.457693</ele>
        <time>2010-10-16T12:13:10Z</time>
      </trkpt>
      <trkpt lat="47.40047" lon="-0.40807">
        <ele>22.358145</ele>
        <time>2010-10-16T12:13:15Z</time>
      </trkpt>
      <trkpt lat="47.40048" lon="-0.40762">
        <ele>23.691126</ele>
        <time>2010-10-16T12:13:20Z</time>
      </trkpt>
      <trkpt lat="47.40049" lon="-0.40718">
        <ele>25.758169</ele>
        <time>2010-10-16T12:13:25Z</time>
      </trkpt>
      <trkpt lat="47.4005" lon="-0.40674">
        <ele>27.81315</ele>
        <time>2010-10-16T12:13:30Z</time>
      </trkpt>
      <trkpt lat="47.40051" lon="-0.4063">
        <ele>29.645</ele>
        <time>2010-10-16T12:13:35Z</time>
      </trkpt>
      <trkpt lat="47.40053" lon="-0.40587">
        <ele>30.790001</ele>
        <time>2010-10-16T12:13:40Z</time>
      </trkpt>
      <trkpt lat="47.40046" lon="-0.40555">
        <ele>31.938911</ele>
        <time>2010-10-16T12:13:45Z</time>
      </trkpt>
      <trkpt lat="47.40033" lon="-0.40585">
        <ele>33.440002</ele>
        <time>2010-10-16T12:13:50Z</time>
      </trkpt>
      <trkpt lat="47.40019" lon="-0.40622">
        <ele>33.817501</ele>
        <time>2010-10-16T12:13:55Z</time>
      </trkpt>
      <trkpt lat="47.39993" lon="-0.40634">
        <ele>36.338749</ele>
        <time>2010-10-16T12:14:00Z</time>
      </trkpt>
      <trkpt lat="47.39964" lon="-0.40631">
        <ele>37.932499</ele>
        <time>2010-10-16T12:14:05Z</time>
      </trkpt>
      <trkpt lat="47.39936" lon="-0.40626">
        <ele>39.304375</ele>
        <time>2010-10-16T12:14:10Z</time>
      </trkpt>
      <trkpt lat="47.39907" lon="-0.40623">
        <ele>40.929249</ele>
        <time>2010-10-16T12:14:15Z</time>
      </trkpt>
      <trkpt lat="47.39879" lon="-0.40622">
        <ele>44.110001</ele>
        <time>2010-10-16T12:14:20Z</time>
      </trkpt>
      <trkpt lat="47.39853" lon="-0.40625">
        <ele>47.584999</ele>
        <time>2010-10-16T12:14:25Z</time>
      </trkpt>
      <trkpt lat="47.39826" lon="-0.40645">
        <ele>48.794968</ele>
        <time>2010-10-16T12:14:30Z</time>
      </trkpt>
      <trkpt lat="47.39806" lon="-0.40679">
        <ele>49.02317</ele>
        <time>2010-10-16T12:14:35Z</time>
      </trkpt>
      <trkpt lat="47.39797" lon="-0.40724">
        <ele>48.461296</ele>
        <time>2010-10-16T12:14:40Z</time>
      </trkpt>
      <trkpt lat="47.39792" lon="-0.40769">
        <ele>48.596092</ele>
        <time>2010-10-16T12:14:45Z</time>
      </trkpt>
      <trkpt lat="47.39785" lon="-0.40812">
        <ele>49.635639</ele>
        <time>2010-10-16T12:14:50Z</time>
      </trkpt>
      <trkpt lat="47.39774" lon="-0.40862">
        <ele>51.27037</ele>
        <time>2010-10-16T12:14:55Z</time>
      </trkpt>
      <trkpt lat="47.39761" lon="-0.40901">
        <ele>52.878414</ele>
        <time>2010-10-16T12:15:00Z</time>
      </trkpt>
      <trkpt lat="47.39749" lon="-0.40932">
        <ele>54.433151</ele>
        <time>2010-10-16T12:15:05Z</time>
      </trkpt>
      <trkpt lat="47.39764" lon="-0.40964">
        <ele>52.753052</ele>
        <time>2010-10-16T12:15:10Z</time>
      </trkpt>
      <trkpt lat="47.3977" lon="-0.41004">
        <ele>52.430157</ele>
        <time>2010-10-16T12:15:15Z</time>
      </trkpt>
      <trkpt lat="47.39769" lon="-0.41046">
        <ele>52.168751</ele>
        <time>2010-10-16T12:15:20Z</time>
      </trkpt>
      <trkpt lat="47.39768" lon="-0.41091">
        <ele>50.785</ele>
        <time>2010-10-16T12:15:25Z</time>
      </trkpt>
      <trkpt lat="47.39764" lon="-0.41134">
        <ele>48.215847</ele>
        <time>2010-10-16T12:15:30Z</time>
      </trkpt>
      <trkpt lat="47.39756" lon="-0.41186">
        <ele>45.900066</ele>
        <time>2010-10-16T12:15:35Z</time>
      </trkpt>
      <trkpt lat="47.39779" lon="-0.41221">
        <ele>41.640141</ele>
        <time>2010-10-16T12:15:40Z</time>
      </trkpt>
      <trkpt lat="47.39819" lon="-0.41249">
        <ele>37.419998</ele>
        <time>2010-10-16T12:15:45Z</time>
      </trkpt>
      <trkpt lat="47.39855" lon="-0.41267">
        <ele>34.521252</ele>
        <time>2010-10-16T12:15:50Z</time>
      </trkpt>
      <trkpt lat="47.399" lon="-0.4129">
        <ele>29.709999</ele>
        <time>2010-10-16T12:15:55Z</time>
      </trkpt>
      <trkpt lat="47.39952" lon="-0.41299">
        <ele>25.84025</ele>
        <time>2010-10-16T12:16:00Z</time>
      </trkpt>
      <trkpt lat="47.40004" lon="-0.41274">
        <ele>23.602547</ele>
        <time>2010-10-16T12:16:05Z</time>
      </trkpt>
      <trkpt lat="47.40028" lon="-0.41269">
        <ele>22.42</ele>
        <time>2010-10-16T12:16:10Z</time>
      </trkpt>
      <trkpt lat="47.40029" lon="-0.4123">
        <ele>22.41</ele>
        <time>2010-10-16T12:16:15Z</time>
      </trkpt>
      <trkpt lat="47.40031" lon="-0.4118">
        <ele>22.370001</ele>
        <time>2010-10-16T12:16:20Z</time>
      </trkpt>
      <trkpt lat="47.40032" lon="-0.41129">
        <ele>22.389999</ele>
        <time>2010-10-16T12:16:25Z</time>
      </trkpt>
      <trkpt lat="47.40034" lon="-0.41077">
        <ele>22.33</ele>
        <time>2010-10-16T12:16:30Z</time>
      </trkpt>
      <trkpt lat="47.40038" lon="-0.41024">
        <ele>22.15625</ele>
        <time>2010-10-16T12:16:35Z</time>
      </trkpt>
      <trkpt lat="47.4004" lon="-0.40971">
        <ele>21.74087</ele>
        <time>2010-10-16T12:16:40Z</time>
      </trkpt>
      <trkpt lat="47.40043" lon="-0.40918">
        <ele>21.1991</ele>
        <time>2010-10-16T12:16:45Z</time>
      </trkpt>
      <trkpt lat="47.40045" lon="-0.40865">
        <ele>21.394468</ele>
        <time>2010-10-16T12:16:50Z</time>
      </trkpt>
      <trkpt lat="47.40046" lon="-0.40814">
        <ele>22.1868</ele>
        <time>2010-10-16T12:16:55Z</time>
      </trkpt>
      <trkpt lat="47.40048" lon="-0.40766">
        <ele>23.54777</ele>
        <time>2010-10-16T12:17:00Z</time>
      </trkpt>
      <trkpt lat="47.40049" lon="-0.40709">
        <ele>26.179287</ele>
        <time>2010-10-16T12:17:05Z</time>
      </trkpt>
      <trkpt lat="47.4005" lon="-0.40672">
        <ele>27.873762</ele>
        <time>2010-10-16T12:17:10Z</time>
      </trkpt>
      <trkpt lat="47.4005" lon="-0.40618">
        <ele>30.119999</ele>
        <time>2010-10-16T12:17:15Z</time>
      </trkpt>
      <trkpt lat="47.40051" lon="-0.40577">
        <ele>31.384703</ele>
        <time>2010-10-16T12:17:20Z</time>
      </trkpt>
      <trkpt lat="47.40041" lon="-0.40556">
        <ele>32.457817</ele>
        <time>2010-10-16T12:17:25Z</time>
      </trkpt>
      <trkpt lat="47.40031" lon="-0.4059">
        <ele>33.546249</ele>
        <time>2010-10-16T12:17:30Z</time>
      </trkpt>
      <trkpt lat="47.40014" lon="-0.40625">
        <ele>34.283749</ele>
        <time>2010-10-16T12:17:35Z</time>
      </trkpt>
      <trkpt lat="47.39986" lon="-0.40634">
        <ele>37.05875</ele>
        <time>2010-10-16T12:17:40Z</time>
      </trkpt>
      <trkpt lat="47.39957" lon="-0.40628">
        <ele>38.342186</ele>
        <time>2010-10-16T12:17:45Z</time>
      </trkpt>
      <trkpt lat="47.39928" lon="-0.40624">
        <ele>39.897049</ele>
        <time>2010-10-16T12:17:50Z</time>
      </trkpt>
      <trkpt lat="47.39897" lon="-0.40621">
        <ele>41.711613</ele>
        <time>2010-10-16T12:17:55Z</time>
      </trkpt>
      <trkpt lat="47.39873" lon="-0.40623">
        <ele>44.869999</ele>
        <time>2010-10-16T12:18:00Z</time>
      </trkpt>
      <trkpt lat="47.39845" lon="-0.40631">
        <ele>47.837002</ele>
        <time>2010-10-16T12:18:05Z</time>
      </trkpt>
      <trkpt lat="47.39818" lon="-0.4065">
        <ele>49.558163</ele>
        <time>2010-10-16T12:18:10Z</time>
      </trkpt>
      <trkpt lat="47.398" lon="-0.40696">
        <ele>48.562656</ele>
        <time>2010-10-16T12:18:15Z</time>
      </trkpt>
      <trkpt lat="47.39791" lon="-0.40748">
        <ele>48.887234</ele>
        <time>2010-10-16T12:18:20Z</time>
      </trkpt>
      <trkpt lat="47.39784" lon="-0.40796">
        <ele>49.849762</ele>
        <time>2010-10-16T12:18:25Z</time>
      </trkpt>
      <trkpt lat="47.39775" lon="-0.40842">
        <ele>51.246914</ele>
        <time>2010-10-16T12:18:30Z</time>
      </trkpt>
      <trkpt lat="47.39763" lon="-0.40886">
        <ele>52.628258</ele>
        <time>2010-10-16T12:18:35Z</time>
      </trkpt>
      <trkpt lat="47.3975" lon="-0.40921">
        <ele>54.418736</ele>
        <time>2010-10-16T12:18:40Z</time>
      </trkpt>
      <trkpt lat="47.39756" lon="-0.4095">
        <ele>53.6297</ele>
        <time>2010-10-16T12:18:45Z</time>
      </trkpt>
      <trkpt lat="47.39768" lon="-0.40985">
        <ele>52.401093</ele>
        <time>2010-10-16T12:18:50Z</time>
      </trkpt>
      <trkpt lat="47.39769" lon="-0.41023">
        <ele>52.750999</ele>
        <time>2010-10-16T12:18:55Z</time>
      </trkpt>
      <trkpt lat="47.39767" lon="-0.41063">
        <ele>51.7775</ele>
        <time>2010-10-16T12:19:00Z</time>
      </trkpt>
      <trkpt lat="47.39765" lon="-0.41109">
        <ele>49.854527</ele>
        <time>2010-10-16T12:19:05Z</time>
      </trkpt>
      <trkpt lat="47.39755" lon="-0.41164">
        <ele>47.026157</ele>
        <time>2010-10-16T12:19:10Z</time>
      </trkpt>
      <trkpt lat="47.39761" lon="-0.41207">
        <ele>44.288643</ele>
        <time>2010-10-16T12:19:15Z</time>
      </trkpt>
      <trkpt lat="47.39801" lon="-0.41236">
        <ele>39.040001</ele>
        <time>2010-10-16T12:19:20Z</time>
      </trkpt>
      <trkpt lat="47.39841" lon="-0.41259">
        <ele>35.606251</ele>
        <time>2010-10-16T12:19:25Z</time>
      </trkpt>
      <trkpt lat="47.39886" lon="-0.41279">
        <ele>31.58</ele>
        <time>2010-10-16T12:19:30Z</time>
      </trkpt>
      <trkpt lat="47.39937" lon="-0.41299">
        <ele>26.487003</ele>
        <time>2010-10-16T12:19:35Z</time>
      </trkpt>
      <trkpt lat="47.39991" lon="-0.41283">
        <ele>24.18804</ele>
        <time>2010-10-16T12:19:40Z</time>
      </trkpt>
      <trkpt lat="47.40028" lon="-0.41277">
        <ele>22.41</ele>
        <time>2010-10-16T12:19:45Z</time>
      </trkpt>
      <trkpt lat="47.4003" lon="-0.41229">
        <ele>22.360001</ele>
        <time>2010-10-16T12:19:50Z</time>
      </trkpt>
      <trkpt lat="47.40032" lon="-0.41179">
        <ele>22.34</ele>
        <time>2010-10-16T12:19:55Z</time>
      </trkpt>
      <trkpt lat="47.40034" lon="-0.41124">
        <ele>22.299999</ele>
        <time>2010-10-16T12:20:00Z</time>
      </trkpt>
      <trkpt lat="47.40036" lon="-0.41068">
        <ele>22.27</ele>
        <time>2010-10-16T12:20:05Z</time>
      </trkpt>
      <trkpt lat="47.40039" lon="-0.41012">
        <ele>22.025</ele>
        <time>2010-10-16T12:20:10Z</time>
      </trkpt>
      <trkpt lat="47.40041" lon="-0.40956">
        <ele>21.573975</ele>
        <time>2010-10-16T12:20:15Z</time>
      </trkpt>
      <trkpt lat="47.40044" lon="-0.40898">
        <ele>21.150724</ele>
        <time>2010-10-16T12:20:20Z</time>
      </trkpt>
      <trkpt lat="47.40045" lon="-0.40853">
        <ele>21.463526</ele>
        <time>2010-10-16T12:20:25Z</time>
      </trkpt>
      <trkpt lat="47.40047" lon="-0.40798">
        <ele>22.559288</ele>
        <time>2010-10-16T12:20:30Z</time>
      </trkpt>
      <trkpt lat="47.40048" lon="-0.40745">
        <ele>24.497551</ele>
        <time>2010-10-16T12:20:35Z</time>
      </trkpt>
      <trkpt lat="47.40049" lon="-0.40694">
        <ele>26.898424</ele>
        <time>2010-10-16T12:20:40Z</time>
      </trkpt>
      <trkpt lat="47.40049" lon="-0.40643">
        <ele>29.365</ele>
        <time>2010-10-16T12:20:45Z</time>
      </trkpt>
      <trkpt lat="47.40052" lon="-0.40595">
        <ele>30.637501</ele>
        <time>2010-10-16T12:20:50Z</time>
      </trkpt>
      <trkpt lat="47.40052" lon="-0.40555">
        <ele>31.114719</ele>
        <time>2010-10-16T12:20:55Z</time>
      </trkpt>
      <trkpt lat="47.40035" lon="-0.40577">
        <ele>33.46875</ele>
        <time>2010-10-16T12:21:00Z</time>
      </trkpt>
      <trkpt lat="47.40021" lon="-0.40616">
        <ele>33.849998</ele>
        <time>2010-10-16T12:21:05Z</time>
      </trkpt>
      <trkpt lat="47.39993" lon="-0.40634">
        <ele>36.293751</ele>
        <time>2010-10-16T12:21:10Z</time>
      </trkpt>
      <trkpt lat="47.39962" lon="-0.40631">
        <ele>37.979862</ele>
        <time>2010-10-16T12:21:15Z</time>
      </trkpt>
      <trkpt lat="47.39932" lon="-0.40626">
        <ele>39.4646</ele>
        <time>2010-10-16T12:21:20Z</time>
      </trkpt>
      <trkpt lat="47.39902" lon="-0.40623">
        <ele>41.20863</ele>
        <time>2010-10-16T12:21:25Z</time>
      </trkpt>
      <trkpt lat="47.39873" lon="-0.40623">
        <ele>44.869999</ele>
        <time>2010-10-16T12:21:30Z</time>
      </trkpt>
      <trkpt lat="47.39845" lon="-0.40633">
        <ele>47.646942</ele>
        <time>2010-10-16T12:21:35Z</time>
      </trkpt>
      <trkpt lat="47.39817" lon="-0.40657">
        <ele>49.111015</ele>
        <time>2010-10-16T12:21:40Z</time>
      </trkpt>
      <trkpt lat="47.39797" lon="-0.407">
        <ele>48.800762</ele>
        <time>2010-10-16T12:21:45Z</time>
      </trkpt>
      <trkpt lat="47.39792" lon="-0.40753">
        <ele>48.687859</ele>
        <time>2010-10-16T12:21:50Z</time>
      </trkpt>
      <trkpt lat="47.39786" lon="-0.40798">
        <ele>49.485107</ele>
        <time>2010-10-16T12:21:55Z</time>
      </trkpt>
      <trkpt lat="47.39776" lon="-0.4085">
        <ele>51.103115</ele>
        <time>2010-10-16T12:22:00Z</time>
      </trkpt>
      <trkpt lat="47.39764" lon="-0.4089">
        <ele>52.469078</ele>
        <time>2010-10-16T12:22:05Z</time>
      </trkpt>
      <trkpt lat="47.39751" lon="-0.40922">
        <ele>54.278687</ele>
        <time>2010-10-16T12:22:10Z</time>
      </trkpt>
      <trkpt lat="47.39745" lon="-0.40939">
        <ele>54.901531</ele>
        <time>2010-10-16T12:22:15Z</time>
      </trkpt>
      <trkpt lat="47.39745" lon="-0.40941">
        <ele>54.871613</ele>
        <time>2010-10-16T12:22:20Z</time>
      </trkpt>
      <trkpt lat="47.39745" lon="-0.4094">
        <ele>54.8461</ele>
        <time>2010-10-16T12:22:25Z</time>
      </trkpt>
      <trkpt lat="47.39745" lon="-0.4094">
        <ele>54.873779</ele>
        <time>2010-10-16T12:22:30Z</time>
      </trkpt>
      <trkpt lat="47.39746" lon="-0.4094">
        <ele>54.821209</ele>
        <time>2010-10-16T12:22:35Z</time>
      </trkpt>
      <trkpt lat="47.39742" lon="-0.40935">
        <ele>55.28775</ele>
        <time>2010-10-16T12:22:40Z</time>
      </trkpt>
      <trkpt lat="47.39744" lon="-0.40938">
        <ele>55.038254</ele>
        <time>2010-10-16T12:22:45Z</time>
      </trkpt>
      <trkpt lat="47.39745" lon="-0.40939">
        <ele>54.901852</ele>
        <time>2010-10-16T12:22:50Z</time>
      </trkpt>
      <trkpt lat="47.39745" lon="-0.4094">
        <ele>54.847301</ele>
        <time>2010-10-16T12:22:55Z</time>
      </trkpt>
      <trkpt lat="47.39745" lon="-0.40939">
        <ele>54.875015</ele>
        <time>2010-10-16T12:23:00Z</time>
      </trkpt>
      <trkpt lat="47.39746" lon="-0.40939">
        <ele>54.821598</ele>
        <time>2010-10-16T12:23:05Z</time>
      </trkpt>
      <trkpt lat="47.39746" lon="-0.40939">
        <ele>54.769043</ele>
        <time>2010-10-16T12:23:10Z</time>
      </trkpt>
      <trkpt lat="47.39748" lon="-0.40941">
        <ele>54.581005</ele>
        <time>2010-10-16T12:23:15Z</time>
      </trkpt>
      <trkpt lat="47.39748" lon="-0.40941">
        <ele>54.581348</ele>
        <time>2010-10-16T12:23:20Z</time>
      </trkpt>
      <trkpt lat="47.39748" lon="-0.4094">
        <ele>54.582176</ele>
        <time>2010-10-16T12:23:25Z</time>
      </trkpt>
      <trkpt lat="47.39748" lon="-0.4094">
        <ele>54.502609</ele>
        <time>2010-10-16T12:23:30Z</time>
      </trkpt>
      <trkpt lat="47.39748" lon="-0.4094">
        <ele>54.502548</ele>
        <time>2010-10-16T12:23:35Z</time>
      </trkpt>
      <trkpt lat="47.39748" lon="-0.4094">
        <ele>54.528999</ele>
        <time>2010-10-16T12:23:40Z</time>
      </trkpt>
      <trkpt lat="47.39748" lon="-0.4094">
        <ele>54.528751</ele>
        <time>2010-10-16T12:23:45Z</time>
      </trkpt>
      <trkpt lat="47.39747" lon="-0.40939">
        <ele>54.610004</ele>
        <time>2010-10-16T12:23:50Z</time>
      </trkpt>
      <trkpt lat="47.39748" lon="-0.40939">
        <ele>54.557289</ele>
        <time>2010-10-16T12:23:55Z</time>
      </trkpt>
      <trkpt lat="47.39748" lon="-0.40939">
        <ele>54.584373</ele>
        <time>2010-10-16T12:24:00Z</time>
      </trkpt>
      <trkpt lat="47.39748" lon="-0.4094">
        <ele>54.583</ele>
        <time>2010-10-16T12:24:05Z</time>
      </trkpt>
      <trkpt lat="47.39747" lon="-0.4094">
        <ele>54.634426</ele>
        <time>2010-10-16T12:24:10Z</time>
      </trkpt>
      <trkpt lat="47.39747" lon="-0.40941">
        <ele>54.633224</ele>
        <time>2010-10-16T12:24:15Z</time>
      </trkpt>
      <trkpt lat="47.39747" lon="-0.40942">
        <ele>54.604828</ele>
        <time>2010-10-16T12:24:20Z</time>
      </trkpt>
      <trkpt lat="47.39747" lon="-0.40942">
        <ele>54.631424</ele>
        <time>2010-10-16T12:24:25Z</time>
      </trkpt>
      <trkpt lat="47.39748" lon="-0.40942">
        <ele>54.579082</ele>
        <time>2010-10-16T12:24:30Z</time>
      </trkpt>
      <trkpt lat="47.39748" lon="-0.40943">
        <ele>54.577431</ele>
        <time>2010-10-16T12:24:35Z</time>
      </trkpt>
      <trkpt lat="47.39748" lon="-0.40944">
        <ele>54.576057</ele>
        <time>2010-10-16T12:24:40Z</time>
      </trkpt>
      <trkpt lat="47.39748" lon="-0.40944">
        <ele>54.549873</ele>
        <time>2010-10-16T12:24:45Z</time>
      </trkpt>
      <trkpt lat="47.39748" lon="-0.40944">
        <ele>54.523499</ele>
        <time>2010-10-16T12:24:50Z</time>
      </trkpt>
      <trkpt lat="47.39748" lon="-0.40944">
        <ele>54.496849</ele>
        <time>2010-10-16T12:24:55Z</time>
      </trkpt>
      <trkpt lat="47.39748" lon="-0.40944">
        <ele>54.549873</ele>
        <time>2010-10-16T12:25:00Z</time>
      </trkpt>
      <trkpt lat="47.39748" lon="-0.40943">
        <ele>54.550396</ele>
        <time>2010-10-16T12:25:05Z</time>
      </trkpt>
      <trkpt lat="47.39748" lon="-0.40943">
        <ele>54.576881</ele>
        <time>2010-10-16T12:25:10Z</time>
      </trkpt>
      <trkpt lat="47.39748" lon="-0.40943">
        <ele>54.577431</ele>
        <time>2010-10-16T12:25:15Z</time>
      </trkpt>
      <trkpt lat="47.39748" lon="-0.40943">
        <ele>54.57798</ele>
        <time>2010-10-16T12:25:20Z</time>
      </trkpt>
      <trkpt lat="47.39748" lon="-0.40942">
        <ele>54.551971</ele>
        <time>2010-10-16T12:25:25Z</time>
      </trkpt>
      <trkpt lat="47.39748" lon="-0.40942">
        <ele>54.526249</ele>
        <time>2010-10-16T12:25:30Z</time>
      </trkpt>
      <trkpt lat="47.39748" lon="-0.40942">
        <ele>54.526501</ele>
        <time>2010-10-16T12:25:35Z</time>
      </trkpt>
      <trkpt lat="47.39748" lon="-0.40942">
        <ele>54.500648</ele>
        <time>2010-10-16T12:25:40Z</time>
      </trkpt>
      <trkpt lat="47.39748" lon="-0.40941">
        <ele>54.500889</ele>
        <time>2010-10-16T12:25:45Z</time>
      </trkpt>
      <trkpt lat="47.39748" lon="-0.40941">
        <ele>54.553612</ele>
        <time>2010-10-16T12:25:50Z</time>
      </trkpt>
      <trkpt lat="47.39747" lon="-0.40941">
        <ele>54.606552</ele>
        <time>2010-10-16T12:25:55Z</time>
      </trkpt>
      <trkpt lat="47.39748" lon="-0.40941">
        <ele>54.58025</ele>
        <time>2010-10-16T12:26:00Z</time>
      </trkpt>
      <trkpt lat="47.39748" lon="-0.40941">
        <ele>54.554661</ele>
        <time>2010-10-16T12:26:05Z</time>
      </trkpt>
      <trkpt lat="47.39748" lon="-0.40941">
        <ele>54.501598</ele>
        <time>2010-10-16T12:26:10Z</time>
      </trkpt>
      <trkpt lat="47.39748" lon="-0.40941">
        <ele>54.501598</ele>
        <time>2010-10-16T12:26:15Z</time>
      </trkpt>
      <trkpt lat="47.39748" lon="-0.40941">
        <ele>54.501839</ele>
        <time>2010-10-16T12:26:20Z</time>
      </trkpt>
      <trkpt lat="47.39748" lon="-0.4094">
        <ele>54.583</ele>
        <time>2010-10-16T12:26:25Z</time>
      </trkpt>
      <trkpt lat="47.39748" lon="-0.40939">
        <ele>54.583824</ele>
        <time>2010-10-16T12:26:30Z</time>
      </trkpt>
      <trkpt lat="47.39747" lon="-0.40939">
        <ele>54.636524</ele>
        <time>2010-10-16T12:26:35Z</time>
      </trkpt>
      <trkpt lat="47.39747" lon="-0.4094">
        <ele>54.688919</ele>
        <time>2010-10-16T12:26:40Z</time>
      </trkpt>
      <trkpt lat="47.39746" lon="-0.4094">
        <ele>54.741825</ele>
        <time>2010-10-16T12:26:45Z</time>
      </trkpt>
      <trkpt lat="47.39746" lon="-0.40939">
        <ele>54.795937</ele>
        <time>2010-10-16T12:26:50Z</time>
      </trkpt>
      <trkpt lat="47.39746" lon="-0.40939">
        <ele>54.821983</ele>
        <time>2010-10-16T12:26:55Z</time>
      </trkpt>
      <trkpt lat="47.39746" lon="-0.40939">
        <ele>54.821598</ele>
        <time>2010-10-16T12:27:00Z</time>
      </trkpt>
      <trkpt lat="47.39745" lon="-0.4094">
        <ele>54.847698</ele>
        <time>2010-10-16T12:27:05Z</time>
      </trkpt>
      <trkpt lat="47.3975" lon="-0.40925">
        <ele>54.413624</ele>
        <time>2010-10-16T12:27:10Z</time>
      </trkpt>
      <trkpt lat="47.39764" lon="-0.40891">
        <ele>52.387035</ele>
        <time>2010-10-16T12:27:15Z</time>
      </trkpt>
      <trkpt lat="47.39781" lon="-0.40843">
        <ele>50.268387</ele>
        <time>2010-10-16T12:27:20Z</time>
      </trkpt>
      <trkpt lat="47.39792" lon="-0.40785">
        <ele>48.466373</ele>
        <time>2010-10-16T12:27:25Z</time>
      </trkpt>
      <trkpt lat="47.39803" lon="-0.40722">
        <ele>47.481838</ele>
        <time>2010-10-16T12:27:30Z</time>
      </trkpt>
      <trkpt lat="47.39818" lon="-0.40681">
        <ele>46.684502</ele>
        <time>2010-10-16T12:27:35Z</time>
      </trkpt>
      <trkpt lat="47.39849" lon="-0.40657">
        <ele>44.25106</ele>
        <time>2010-10-16T12:27:40Z</time>
      </trkpt>
      <trkpt lat="47.39891" lon="-0.40642">
        <ele>39.785</ele>
        <time>2010-10-16T12:27:45Z</time>
      </trkpt>
      <trkpt lat="47.39935" lon="-0.40642">
        <ele>37.739292</ele>
        <time>2010-10-16T12:27:50Z</time>
      </trkpt>
      <trkpt lat="47.39985" lon="-0.40646">
        <ele>36.387699</ele>
        <time>2010-10-16T12:27:55Z</time>
      </trkpt>
      <trkpt lat="47.40033" lon="-0.40619">
        <ele>32.373749</ele>
        <time>2010-10-16T12:28:00Z</time>
      </trkpt>
      <trkpt lat="47.40044" lon="-0.40555">
        <ele>32.083302</ele>
        <time>2010-10-16T12:28:05Z</time>
      </trkpt>
      <trkpt lat="47.40053" lon="-0.40553">
        <ele>30.987543</ele>
        <time>2010-10-16T12:28:10Z</time>
      </trkpt>
      <trkpt lat="47.4005" lon="-0.40598">
        <ele>30.76375</ele>
        <time>2010-10-16T12:28:15Z</time>
      </trkpt>
      <trkpt lat="47.40049" lon="-0.40657">
        <ele>28.750307</ele>
        <time>2010-10-16T12:28:20Z</time>
      </trkpt>
      <trkpt lat="47.40047" lon="-0.40723">
        <ele>25.632376</ele>
        <time>2010-10-16T12:28:25Z</time>
      </trkpt>
      <trkpt lat="47.40047" lon="-0.40795">
        <ele>22.628687</ele>
        <time>2010-10-16T12:28:30Z</time>
      </trkpt>
      <trkpt lat="47.40044" lon="-0.40865">
        <ele>21.420038</ele>
        <time>2010-10-16T12:28:35Z</time>
      </trkpt>
      <trkpt lat="47.40042" lon="-0.40933">
        <ele>21.373875</ele>
        <time>2010-10-16T12:28:40Z</time>
      </trkpt>
      <trkpt lat="47.40037" lon="-0.40993">
        <ele>22.060738</ele>
        <time>2010-10-16T12:28:45Z</time>
      </trkpt>
      <trkpt lat="47.40033" lon="-0.41043">
        <ele>22.41</ele>
        <time>2010-10-16T12:28:50Z</time>
      </trkpt>
      <trkpt lat="47.40032" lon="-0.41088">
        <ele>22.42</ele>
        <time>2010-10-16T12:28:55Z</time>
      </trkpt>
      <trkpt lat="47.40031" lon="-0.41134">
        <ele>22.440001</ele>
        <time>2010-10-16T12:29:00Z</time>
      </trkpt>
      <trkpt lat="47.40027" lon="-0.41188">
        <ele>22.540001</ele>
        <time>2010-10-16T12:29:05Z</time>
      </trkpt>
      <trkpt lat="47.40025" lon="-0.41224">
        <ele>22.58</ele>
        <time>2010-10-16T12:29:10Z</time>
      </trkpt>
      <trkpt lat="47.40023" lon="-0.41269">
        <ele>22.639999</ele>
        <time>2010-10-16T12:29:15Z</time>
      </trkpt>
      <trkpt lat="47.40021" lon="-0.41316">
        <ele>22.5</ele>
        <time>2010-10-16T12:29:20Z</time>
      </trkpt>
      <trkpt lat="47.40013" lon="-0.41364">
        <ele>22.079374</ele>
        <time>2010-10-16T12:29:25Z</time>
      </trkpt>
      <trkpt lat="47.40006" lon="-0.41417">
        <ele>21.534374</ele>
        <time>2010-10-16T12:29:30Z</time>
      </trkpt>
      <trkpt lat="47.40001" lon="-0.41459">
        <ele>21.43</ele>
        <time>2010-10-16T12:29:35Z</time>
      </trkpt>
      <trkpt lat="47.39998" lon="-0.415">
        <ele>21.51</ele>
        <time>2010-10-16T12:29:40Z</time>
      </trkpt>
      <trkpt lat="47.40005" lon="-0.41539">
        <ele>21.15</ele>
        <time>2010-10-16T12:29:45Z</time>
      </trkpt>
      <trkpt lat="47.40014" lon="-0.41575">
        <ele>20.95125</ele>
        <time>2010-10-16T12:29:50Z</time>
      </trkpt>
      <trkpt lat="47.40012" lon="-0.41614">
        <ele>21.55625</ele>
        <time>2010-10-16T12:29:55Z</time>
      </trkpt>
      <trkpt lat="47.4001" lon="-0.41644">
        <ele>22.165146</ele>
        <time>2010-10-16T12:30:00Z</time>
      </trkpt>
      <trkpt lat="47.40013" lon="-0.41675">
        <ele>22.919945</ele>
        <time>2010-10-16T12:30:05Z</time>
      </trkpt>
      <trkpt lat="47.40028" lon="-0.41704">
        <ele>22.993298</ele>
        <time>2010-10-16T12:30:10Z</time>
      </trkpt>
      <trkpt lat="47.40035" lon="-0.41728">
        <ele>23.481579</ele>
        <time>2010-10-16T12:30:15Z</time>
      </trkpt>
      <trkpt lat="47.40041" lon="-0.41767">
        <ele>24.368031</ele>
        <time>2010-10-16T12:30:20Z</time>
      </trkpt>
      <trkpt lat="47.40048" lon="-0.41807">
        <ele>23.965525</ele>
        <time>2010-10-16T12:30:25Z</time>
      </trkpt>
      <trkpt lat="47.40047" lon="-0.41847">
        <ele>23.943087</ele>
        <time>2010-10-16T12:30:30Z</time>
      </trkpt>
      <trkpt lat="47.40042" lon="-0.41887">
        <ele>24.24</ele>
        <time>2010-10-16T12:30:35Z</time>
      </trkpt>
      <trkpt lat="47.40037" lon="-0.41927">
        <ele>24.639999</ele>
        <time>2010-10-16T12:30:40Z</time>
      </trkpt>
      <trkpt lat="47.40035" lon="-0.4197">
        <ele>24.68</ele>
        <time>2010-10-16T12:30:45Z</time>
      </trkpt>
      <trkpt lat="47.40032" lon="-0.42017">
        <ele>24.92</ele>
        <time>2010-10-16T12:30:50Z</time>
      </trkpt>
      <trkpt lat="47.4003" lon="-0.4206">
        <ele>25.391251</ele>
        <time>2010-10-16T12:30:55Z</time>
      </trkpt>
      <trkpt lat="47.40044" lon="-0.42095">
        <ele>24.723125</ele>
        <time>2010-10-16T12:31:00Z</time>
      </trkpt>
      <trkpt lat="47.40066" lon="-0.42129">
        <ele>24.398653</ele>
        <time>2010-10-16T12:31:05Z</time>
      </trkpt>
      <trkpt lat="47.40082" lon="-0.42171">
        <ele>24.060387</ele>
        <time>2010-10-16T12:31:10Z</time>
      </trkpt>
      <trkpt lat="47.4009" lon="-0.42221">
        <ele>23.26</ele>
        <time>2010-10-16T12:31:15Z</time>
      </trkpt>
      <trkpt lat="47.40097" lon="-0.42269">
        <ele>22.58</ele>
        <time>2010-10-16T12:31:20Z</time>
      </trkpt>
      <trkpt lat="47.40104" lon="-0.4232">
        <ele>21.762207</ele>
        <time>2010-10-16T12:31:25Z</time>
      </trkpt>
      <trkpt lat="47.40118" lon="-0.42378">
        <ele>20.344999</ele>
        <time>2010-10-16T12:31:30Z</time>
      </trkpt>
      <trkpt lat="47.40138" lon="-0.42423">
        <ele>20</ele>
        <time>2010-10-16T12:31:35Z</time>
      </trkpt>
      <trkpt lat="47.4015" lon="-0.42458">
        <ele>20.103951</ele>
        <time>2010-10-16T12:31:40Z</time>
      </trkpt>
      <trkpt lat="47.40155" lon="-0.42506">
        <ele>20.235001</ele>
        <time>2010-10-16T12:31:45Z</time>
      </trkpt>
      <trkpt lat="47.40154" lon="-0.42563">
        <ele>20.215</ele>
        <time>2010-10-16T12:31:50Z</time>
      </trkpt>
      <trkpt lat="47.40154" lon="-0.4261">
        <ele>20.205</ele>
        <time>2010-10-16T12:31:55Z</time>
      </trkpt>
      <trkpt lat="47.40153" lon="-0.42656">
        <ele>20.134356</ele>
        <time>2010-10-16T12:32:00Z</time>
      </trkpt>
      <trkpt lat="47.40152" lon="-0.42703">
        <ele>20.002625</ele>
        <time>2010-10-16T12:32:05Z</time>
      </trkpt>
      <trkpt lat="47.40147" lon="-0.4275">
        <ele>20</ele>
        <time>2010-10-16T12:32:10Z</time>
      </trkpt>
      <trkpt lat="47.40143" lon="-0.42798">
        <ele>20</ele>
        <time>2010-10-16T12:32:15Z</time>
      </trkpt>
      <trkpt lat="47.40146" lon="-0.42847">
        <ele>20</ele>
        <time>2010-10-16T12:32:20Z</time>
      </trkpt>
      <trkpt lat="47.40152" lon="-0.42895">
        <ele>20</ele>
        <time>2010-10-16T12:32:25Z</time>
      </trkpt>
      <trkpt lat="47.40157" lon="-0.42933">
        <ele>20</ele>
        <time>2010-10-16T12:32:30Z</time>
      </trkpt>
      <trkpt lat="47.40162" lon="-0.4298">
        <ele>20</ele>
        <time>2010-10-16T12:32:35Z</time>
      </trkpt>
      <trkpt lat="47.40166" lon="-0.43027">
        <ele>20</ele>
        <time>2010-10-16T12:32:40Z</time>
      </trkpt>
      <trkpt lat="47.40163" lon="-0.43075">
        <ele>20</ele>
        <time>2010-10-16T12:32:45Z</time>
      </trkpt>
      <trkpt lat="47.40156" lon="-0.43123">
        <ele>20</ele>
        <time>2010-10-16T12:32:50Z</time>
      </trkpt>
      <trkpt lat="47.40148" lon="-0.4317">
        <ele>20.045</ele>
        <time>2010-10-16T12:32:55Z</time>
      </trkpt>
      <trkpt lat="47.4014" lon="-0.43218">
        <ele>20.190001</ele>
        <time>2010-10-16T12:33:00Z</time>
      </trkpt>
      <trkpt lat="47.40136" lon="-0.43267">
        <ele>20.393412</ele>
        <time>2010-10-16T12:33:05Z</time>
      </trkpt>
      <trkpt lat="47.40134" lon="-0.43316">
        <ele>20.540001</ele>
        <time>2010-10-16T12:33:10Z</time>
      </trkpt>
      <trkpt lat="47.40136" lon="-0.43365">
        <ele>20.389999</ele>
        <time>2010-10-16T12:33:15Z</time>
      </trkpt>
      <trkpt lat="47.40144" lon="-0.43413">
        <ele>20</ele>
        <time>2010-10-16T12:33:20Z</time>
      </trkpt>
      <trkpt lat="47.40153" lon="-0.43459">
        <ele>20</ele>
        <time>2010-10-16T12:33:25Z</time>
      </trkpt>
      <trkpt lat="47.40163" lon="-0.43507">
        <ele>20</ele>
        <time>2010-10-16T12:33:30Z</time>
      </trkpt>
      <trkpt lat="47.40172" lon="-0.43555">
        <ele>20</ele>
        <time>2010-10-16T12:33:35Z</time>
      </trkpt>
      <trkpt lat="47.40178" lon="-0.43606">
        <ele>20.082163</ele>
        <time>2010-10-16T12:33:40Z</time>
      </trkpt>
      <trkpt lat="47.40183" lon="-0.43655">
        <ele>20</ele>
        <time>2010-10-16T12:33:45Z</time>
      </trkpt>
      <trkpt lat="47.40185" lon="-0.43703">
        <ele>20</ele>
        <time>2010-10-16T12:33:50Z</time>
      </trkpt>
      <trkpt lat="47.40187" lon="-0.4375">
        <ele>20</ele>
        <time>2010-10-16T12:33:55Z</time>
      </trkpt>
      <trkpt lat="47.40187" lon="-0.43796">
        <ele>20</ele>
        <time>2010-10-16T12:34:00Z</time>
      </trkpt>
      <trkpt lat="47.40188" lon="-0.4385">
        <ele>20</ele>
        <time>2010-10-16T12:34:05Z</time>
      </trkpt>
      <trkpt lat="47.40187" lon="-0.43894">
        <ele>20</ele>
        <time>2010-10-16T12:34:10Z</time>
      </trkpt>
      <trkpt lat="47.40188" lon="-0.43939">
        <ele>19.83395</ele>
        <time>2010-10-16T12:34:15Z</time>
      </trkpt>
      <trkpt lat="47.40189" lon="-0.43984">
        <ele>19.7722</ele>
        <time>2010-10-16T12:34:20Z</time>
      </trkpt>
      <trkpt lat="47.40187" lon="-0.44025">
        <ele>19.975418</ele>
        <time>2010-10-16T12:34:25Z</time>
      </trkpt>
      <trkpt lat="47.40185" lon="-0.44069">
        <ele>20.838049</ele>
        <time>2010-10-16T12:34:30Z</time>
      </trkpt>
      <trkpt lat="47.40185" lon="-0.44111">
        <ele>22.057501</ele>
        <time>2010-10-16T12:34:35Z</time>
      </trkpt>
      <trkpt lat="47.40184" lon="-0.44154">
        <ele>23.946249</ele>
        <time>2010-10-16T12:34:40Z</time>
      </trkpt>
      <trkpt lat="47.40185" lon="-0.44196">
        <ele>25.305</ele>
        <time>2010-10-16T12:34:45Z</time>
      </trkpt>
      <trkpt lat="47.40184" lon="-0.44229">
        <ele>26.31625</ele>
        <time>2010-10-16T12:34:50Z</time>
      </trkpt>
      <trkpt lat="47.40185" lon="-0.44271">
        <ele>26.87875</ele>
        <time>2010-10-16T12:34:55Z</time>
      </trkpt>
      <trkpt lat="47.40189" lon="-0.44315">
        <ele>27.030001</ele>
        <time>2010-10-16T12:35:00Z</time>
      </trkpt>
      <trkpt lat="47.40193" lon="-0.44363">
        <ele>26.790001</ele>
        <time>2010-10-16T12:35:05Z</time>
      </trkpt>
      <trkpt lat="47.40198" lon="-0.44409">
        <ele>26.530001</ele>
        <time>2010-10-16T12:35:10Z</time>
      </trkpt>
      <trkpt lat="47.40202" lon="-0.44456">
        <ele>26.280001</ele>
        <time>2010-10-16T12:35:15Z</time>
      </trkpt>
      <trkpt lat="47.40206" lon="-0.44501">
        <ele>26.07</ele>
        <time>2010-10-16T12:35:20Z</time>
      </trkpt>
      <trkpt lat="47.4021" lon="-0.44544">
        <ele>25.83</ele>
        <time>2010-10-16T12:35:25Z</time>
      </trkpt>
      <trkpt lat="47.40212" lon="-0.44592">
        <ele>25.700001</ele>
        <time>2010-10-16T12:35:30Z</time>
      </trkpt>
      <trkpt lat="47.40212" lon="-0.44639">
        <ele>25.65</ele>
        <time>2010-10-16T12:35:35Z</time>
      </trkpt>
      <trkpt lat="47.40197" lon="-0.44682">
        <ele>26.15</ele>
        <time>2010-10-16T12:35:40Z</time>
      </trkpt>
      <trkpt lat="47.40172" lon="-0.44716">
        <ele>26.440525</ele>
        <time>2010-10-16T12:35:45Z</time>
      </trkpt>
      <trkpt lat="47.40147" lon="-0.44746">
        <ele>26.393126</ele>
        <time>2010-10-16T12:35:50Z</time>
      </trkpt>
      <trkpt lat="47.40125" lon="-0.44774">
        <ele>26.622</ele>
        <time>2010-10-16T12:35:55Z</time>
      </trkpt>
      <trkpt lat="47.40105" lon="-0.44799">
        <ele>27.25</ele>
        <time>2010-10-16T12:36:00Z</time>
      </trkpt>
      <trkpt lat="47.40096" lon="-0.44801">
        <ele>27.629999</ele>
        <time>2010-10-16T12:36:05Z</time>
      </trkpt>
      <trkpt lat="47.40096" lon="-0.44796">
        <ele>27.66</ele>
        <time>2010-10-16T12:36:10Z</time>
      </trkpt>
      <trkpt lat="47.40099" lon="-0.44791">
        <ele>27.52</ele>
        <time>2010-10-16T12:36:15Z</time>
      </trkpt>
      <trkpt lat="47.401" lon="-0.44789">
        <ele>27.459999</ele>
        <time>2010-10-16T12:36:20Z</time>
      </trkpt>
      <trkpt lat="47.401" lon="-0.44784">
        <ele>27.5</ele>
        <time>2010-10-16T12:36:25Z</time>
      </trkpt>
      <trkpt lat="47.401" lon="-0.44784">
        <ele>27.49</ele>
        <time>2010-10-16T12:36:30Z</time>
      </trkpt>
      <trkpt lat="47.40099" lon="-0.44784">
        <ele>27.5</ele>
        <time>2010-10-16T12:36:35Z</time>
      </trkpt>
      <trkpt lat="47.40091" lon="-0.44784">
        <ele>27.879999</ele>
        <time>2010-10-16T12:36:40Z</time>
      </trkpt>
      <trkpt lat="47.40067" lon="-0.4479">
        <ele>28.93</ele>
        <time>2010-10-16T12:36:45Z</time>
      </trkpt>
      <trkpt lat="47.40039" lon="-0.44789">
        <ele>30.18</ele>
        <time>2010-10-16T12:36:50Z</time>
      </trkpt>
      <trkpt lat="47.4001" lon="-0.44788">
        <ele>31.332207</ele>
        <time>2010-10-16T12:36:55Z</time>
      </trkpt>
      <trkpt lat="47.39984" lon="-0.44792">
        <ele>32.1152</ele>
        <time>2010-10-16T12:37:00Z</time>
      </trkpt>
      <trkpt lat="47.39957" lon="-0.44793">
        <ele>32.726875</ele>
        <time>2010-10-16T12:37:05Z</time>
      </trkpt>
      <trkpt lat="47.39931" lon="-0.44799">
        <ele>33.212498</ele>
        <time>2010-10-16T12:37:10Z</time>
      </trkpt>
      <trkpt lat="47.3991" lon="-0.4481">
        <ele>33.028126</ele>
        <time>2010-10-16T12:37:15Z</time>
      </trkpt>
      <trkpt lat="47.39876" lon="-0.44825">
        <ele>32.783127</ele>
        <time>2010-10-16T12:37:20Z</time>
      </trkpt>
      <trkpt lat="47.39852" lon="-0.44831">
        <ele>32.670624</ele>
        <time>2010-10-16T12:37:25Z</time>
      </trkpt>
      <trkpt lat="47.39819" lon="-0.4484">
        <ele>32.50375</ele>
        <time>2010-10-16T12:37:30Z</time>
      </trkpt>
      <trkpt lat="47.39791" lon="-0.4485">
        <ele>32.266251</ele>
        <time>2010-10-16T12:37:35Z</time>
      </trkpt>
      <trkpt lat="47.39786" lon="-0.44854">
        <ele>32.081249</ele>
        <time>2010-10-16T12:37:40Z</time>
      </trkpt>
      <trkpt lat="47.39784" lon="-0.44857">
        <ele>32.005001</ele>
        <time>2010-10-16T12:37:45Z</time>
      </trkpt>
      <trkpt lat="47.39776" lon="-0.44851">
        <ele>31.914375</ele>
        <time>2010-10-16T12:37:50Z</time>
      </trkpt>
      <trkpt lat="47.39759" lon="-0.44817">
        <ele>32.01125</ele>
        <time>2010-10-16T12:37:55Z</time>
      </trkpt>
      <trkpt lat="47.39741" lon="-0.44778">
        <ele>32.676399</ele>
        <time>2010-10-16T12:38:00Z</time>
      </trkpt>
      <trkpt lat="47.39723" lon="-0.44737">
        <ele>33.335655</ele>
        <time>2010-10-16T12:38:05Z</time>
      </trkpt>
      <trkpt lat="47.39705" lon="-0.44692">
        <ele>33.59</ele>
        <time>2010-10-16T12:38:10Z</time>
      </trkpt>
      <trkpt lat="47.39688" lon="-0.44646">
        <ele>33.875626</ele>
        <time>2010-10-16T12:38:15Z</time>
      </trkpt>
      <trkpt lat="47.3967" lon="-0.446">
        <ele>34.115002</ele>
        <time>2010-10-16T12:38:20Z</time>
      </trkpt>
      <trkpt lat="47.3964" lon="-0.44576">
        <ele>33.770626</ele>
        <time>2010-10-16T12:38:25Z</time>
      </trkpt>
      <trkpt lat="47.39634" lon="-0.44526">
        <ele>34.381248</ele>
        <time>2010-10-16T12:38:30Z</time>
      </trkpt>
      <trkpt lat="47.39624" lon="-0.44476">
        <ele>34.859375</ele>
        <time>2010-10-16T12:38:35Z</time>
      </trkpt>
      <trkpt lat="47.39605" lon="-0.44429">
        <ele>36.067501</ele>
        <time>2010-10-16T12:38:40Z</time>
      </trkpt>
      <trkpt lat="47.39584" lon="-0.44377">
        <ele>37.913124</ele>
        <time>2010-10-16T12:38:45Z</time>
      </trkpt>
      <trkpt lat="47.3957" lon="-0.44345">
        <ele>39.34375</ele>
        <time>2010-10-16T12:38:50Z</time>
      </trkpt>
      <trkpt lat="47.39552" lon="-0.44307">
        <ele>41.487446</ele>
        <time>2010-10-16T12:38:55Z</time>
      </trkpt>
      <trkpt lat="47.39535" lon="-0.44266">
        <ele>43.706482</ele>
        <time>2010-10-16T12:39:00Z</time>
      </trkpt>
      <trkpt lat="47.39535" lon="-0.44259">
        <ele>44.207314</ele>
        <time>2010-10-16T12:39:05Z</time>
      </trkpt>
      <trkpt lat="47.39553" lon="-0.44297">
        <ele>42.110603</ele>
        <time>2010-10-16T12:39:10Z</time>
      </trkpt>
      <trkpt lat="47.39583" lon="-0.44365">
        <ele>38.453125</ele>
        <time>2010-10-16T12:39:15Z</time>
      </trkpt>
      <trkpt lat="47.39611" lon="-0.44429">
        <ele>36.0825</ele>
        <time>2010-10-16T12:39:20Z</time>
      </trkpt>
      <trkpt lat="47.39638" lon="-0.44499">
        <ele>34.848751</ele>
        <time>2010-10-16T12:39:25Z</time>
      </trkpt>
      <trkpt lat="47.39658" lon="-0.44568">
        <ele>34.303123</ele>
        <time>2010-10-16T12:39:30Z</time>
      </trkpt>
      <trkpt lat="47.39688" lon="-0.44629">
        <ele>34.10125</ele>
        <time>2010-10-16T12:39:35Z</time>
      </trkpt>
      <trkpt lat="47.39706" lon="-0.44683">
        <ele>33.741249</ele>
        <time>2010-10-16T12:39:40Z</time>
      </trkpt>
      <trkpt lat="47.39732" lon="-0.44748">
        <ele>33.287735</ele>
        <time>2010-10-16T12:39:45Z</time>
      </trkpt>
      <trkpt lat="47.39761" lon="-0.44809">
        <ele>32.160625</ele>
        <time>2010-10-16T12:39:50Z</time>
      </trkpt>
      <trkpt lat="47.39791" lon="-0.44873">
        <ele>31.908394</ele>
        <time>2010-10-16T12:39:55Z</time>
      </trkpt>
      <trkpt lat="47.39821" lon="-0.44942">
        <ele>30.594313</ele>
        <time>2010-10-16T12:40:00Z</time>
      </trkpt>
      <trkpt lat="47.39849" lon="-0.45012">
        <ele>29.2267</ele>
        <time>2010-10-16T12:40:05Z</time>
      </trkpt>
      <trkpt lat="47.39878" lon="-0.45083">
        <ele>27.7775</ele>
        <time>2010-10-16T12:40:10Z</time>
      </trkpt>
      <trkpt lat="47.39904" lon="-0.45152">
        <ele>25.865625</ele>
        <time>2010-10-16T12:40:15Z</time>
      </trkpt>
      <trkpt lat="47.39922" lon="-0.45229">
        <ele>25</ele>
        <time>2010-10-16T12:40:20Z</time>
      </trkpt>
      <trkpt lat="47.39939" lon="-0.45308">
        <ele>25.708401</ele>
        <time>2010-10-16T12:40:25Z</time>
      </trkpt>
      <trkpt lat="47.3995" lon="-0.4538">
        <ele>27.872499</ele>
        <time>2010-10-16T12:40:30Z</time>
      </trkpt>
      <trkpt lat="47.39967" lon="-0.45443">
        <ele>29.867277</ele>
        <time>2010-10-16T12:40:35Z</time>
      </trkpt>
      <trkpt lat="47.3999" lon="-0.45505">
        <ele>31</ele>
        <time>2010-10-16T12:40:40Z</time>
      </trkpt>
      <trkpt lat="47.40016" lon="-0.45563">
        <ele>30.768581</ele>
        <time>2010-10-16T12:40:45Z</time>
      </trkpt>
      <trkpt lat="47.40039" lon="-0.45621">
        <ele>30.913965</ele>
        <time>2010-10-16T12:40:50Z</time>
      </trkpt>
      <trkpt lat="47.40056" lon="-0.45677">
        <ele>30.046082</ele>
        <time>2010-10-16T12:40:55Z</time>
      </trkpt>
      <trkpt lat="47.40071" lon="-0.45729">
        <ele>29.557812</ele>
        <time>2010-10-16T12:41:00Z</time>
      </trkpt>
      <trkpt lat="47.40084" lon="-0.45779">
        <ele>29.035831</ele>
        <time>2010-10-16T12:41:05Z</time>
      </trkpt>
      <trkpt lat="47.40099" lon="-0.45836">
        <ele>28.492147</ele>
        <time>2010-10-16T12:41:10Z</time>
      </trkpt>
      <trkpt lat="47.4011" lon="-0.45873">
        <ele>28.066881</ele>
        <time>2010-10-16T12:41:15Z</time>
      </trkpt>
      <trkpt lat="47.40122" lon="-0.45919">
        <ele>28</ele>
        <time>2010-10-16T12:41:20Z</time>
      </trkpt>
      <trkpt lat="47.40134" lon="-0.45965">
        <ele>28</ele>
        <time>2010-10-16T12:41:25Z</time>
      </trkpt>
      <trkpt lat="47.4015" lon="-0.4602">
        <ele>28</ele>
        <time>2010-10-16T12:41:30Z</time>
      </trkpt>
      <trkpt lat="47.40164" lon="-0.46066">
        <ele>28</ele>
        <time>2010-10-16T12:41:35Z</time>
      </trkpt>
      <trkpt lat="47.40177" lon="-0.46113">
        <ele>27.475246</ele>
        <time>2010-10-16T12:41:40Z</time>
      </trkpt>
      <trkpt lat="47.40184" lon="-0.46162">
        <ele>26.8575</ele>
        <time>2010-10-16T12:41:45Z</time>
      </trkpt>
      <trkpt lat="47.40189" lon="-0.46216">
        <ele>26.046875</ele>
        <time>2010-10-16T12:41:50Z</time>
      </trkpt>
      <trkpt lat="47.40205" lon="-0.4627">
        <ele>25.231874</ele>
        <time>2010-10-16T12:41:55Z</time>
      </trkpt>
      <trkpt lat="47.40225" lon="-0.46327">
        <ele>22.831875</ele>
        <time>2010-10-16T12:42:00Z</time>
      </trkpt>
      <trkpt lat="47.40242" lon="-0.46372">
        <ele>20.674999</ele>
        <time>2010-10-16T12:42:05Z</time>
      </trkpt>
      <trkpt lat="47.40265" lon="-0.46432">
        <ele>18.741322</ele>
        <time>2010-10-16T12:42:10Z</time>
      </trkpt>
      <trkpt lat="47.40288" lon="-0.46497">
        <ele>19.126875</ele>
        <time>2010-10-16T12:42:15Z</time>
      </trkpt>
      <trkpt lat="47.40301" lon="-0.46538">
        <ele>19.735001</ele>
        <time>2010-10-16T12:42:20Z</time>
      </trkpt>
      <trkpt lat="47.40314" lon="-0.46595">
        <ele>21.441681</ele>
        <time>2010-10-16T12:42:25Z</time>
      </trkpt>
      <trkpt lat="47.40321" lon="-0.46655">
        <ele>23.587019</ele>
        <time>2010-10-16T12:42:30Z</time>
      </trkpt>
      <trkpt lat="47.40326" lon="-0.46709">
        <ele>25.623953</ele>
        <time>2010-10-16T12:42:35Z</time>
      </trkpt>
      <trkpt lat="47.40332" lon="-0.4677">
        <ele>27.218</ele>
        <time>2010-10-16T12:42:40Z</time>
      </trkpt>
      <trkpt lat="47.40345" lon="-0.46833">
        <ele>27.376251</ele>
        <time>2010-10-16T12:42:45Z</time>
      </trkpt>
      <trkpt lat="47.40368" lon="-0.46895">
        <ele>27.623438</ele>
        <time>2010-10-16T12:42:50Z</time>
      </trkpt>
      <trkpt lat="47.40402" lon="-0.4695">
        <ele>27.690001</ele>
        <time>2010-10-16T12:42:55Z</time>
      </trkpt>
      <trkpt lat="47.40433" lon="-0.46992">
        <ele>25.81724</ele>
        <time>2010-10-16T12:43:00Z</time>
      </trkpt>
      <trkpt lat="47.40455" lon="-0.47041">
        <ele>24.564545</ele>
        <time>2010-10-16T12:43:05Z</time>
      </trkpt>
      <trkpt lat="47.40479" lon="-0.47097">
        <ele>23.72625</ele>
        <time>2010-10-16T12:43:10Z</time>
      </trkpt>
      <trkpt lat="47.40505" lon="-0.47155">
        <ele>22.760601</ele>
        <time>2010-10-16T12:43:15Z</time>
      </trkpt>
      <trkpt lat="47.40533" lon="-0.47213">
        <ele>21.957899</ele>
        <time>2010-10-16T12:43:20Z</time>
      </trkpt>
      <trkpt lat="47.40559" lon="-0.47273">
        <ele>22.323126</ele>
        <time>2010-10-16T12:43:25Z</time>
      </trkpt>
      <trkpt lat="47.40584" lon="-0.47332">
        <ele>22.17745</ele>
        <time>2010-10-16T12:43:30Z</time>
      </trkpt>
      <trkpt lat="47.40619" lon="-0.47385">
        <ele>21.637501</ele>
        <time>2010-10-16T12:43:35Z</time>
      </trkpt>
      <trkpt lat="47.40659" lon="-0.47421">
        <ele>21.171249</ele>
        <time>2010-10-16T12:43:40Z</time>
      </trkpt>
      <trkpt lat="47.40695" lon="-0.47462">
        <ele>20.928125</ele>
        <time>2010-10-16T12:43:45Z</time>
      </trkpt>
      <trkpt lat="47.40734" lon="-0.47521">
        <ele>20.879999</ele>
        <time>2010-10-16T12:43:50Z</time>
      </trkpt>
      <trkpt lat="47.40763" lon="-0.47567">
        <ele>20.903749</ele>
        <time>2010-10-16T12:43:55Z</time>
      </trkpt>
      <trkpt lat="47.40775" lon="-0.47604">
        <ele>20.725</ele>
        <time>2010-10-16T12:44:00Z</time>
      </trkpt>
      <trkpt lat="47.40775" lon="-0.47648">
        <ele>20.705</ele>
        <time>2010-10-16T12:44:05Z</time>
      </trkpt>
      <trkpt lat="47.40768" lon="-0.47715">
        <ele>20.815001</ele>
        <time>2010-10-16T12:44:10Z</time>
      </trkpt>
      <trkpt lat="47.40766" lon="-0.47786">
        <ele>20.815001</ele>
        <time>2010-10-16T12:44:15Z</time>
      </trkpt>
      <trkpt lat="47.40774" lon="-0.47852">
        <ele>20.907719</ele>
        <time>2010-10-16T12:44:20Z</time>
      </trkpt>
      <trkpt lat="47.40797" lon="-0.47907">
        <ele>21.136562</ele>
        <time>2010-10-16T12:44:25Z</time>
      </trkpt>
      <trkpt lat="47.40819" lon="-0.47958">
        <ele>21.682507</ele>
        <time>2010-10-16T12:44:30Z</time>
      </trkpt>
      <trkpt lat="47.40838" lon="-0.48018">
        <ele>21.834375</ele>
        <time>2010-10-16T12:44:35Z</time>
      </trkpt>
      <trkpt lat="47.40848" lon="-0.4807">
        <ele>21.709999</ele>
        <time>2010-10-16T12:44:40Z</time>
      </trkpt>
      <trkpt lat="47.40855" lon="-0.48129">
        <ele>21.309999</ele>
        <time>2010-10-16T12:44:45Z</time>
      </trkpt>
      <trkpt lat="47.40864" lon="-0.4819">
        <ele>20.674376</ele>
        <time>2010-10-16T12:44:50Z</time>
      </trkpt>
      <trkpt lat="47.40875" lon="-0.48261">
        <ele>19.309999</ele>
        <time>2010-10-16T12:44:55Z</time>
      </trkpt>
      <trkpt lat="47.40893" lon="-0.48333">
        <ele>19.237497</ele>
        <time>2010-10-16T12:45:00Z</time>
      </trkpt>
      <trkpt lat="47.40919" lon="-0.48401">
        <ele>19.413774</ele>
        <time>2010-10-16T12:45:05Z</time>
      </trkpt>
      <trkpt lat="47.40946" lon="-0.48469">
        <ele>19.646231</ele>
        <time>2010-10-16T12:45:10Z</time>
      </trkpt>
      <trkpt lat="47.40972" lon="-0.48535">
        <ele>20</ele>
        <time>2010-10-16T12:45:15Z</time>
      </trkpt>
      <trkpt lat="47.40999" lon="-0.48601">
        <ele>20</ele>
        <time>2010-10-16T12:45:20Z</time>
      </trkpt>
      <trkpt lat="47.41024" lon="-0.48668">
        <ele>20</ele>
        <time>2010-10-16T12:45:25Z</time>
      </trkpt>
      <trkpt lat="47.41047" lon="-0.48735">
        <ele>20.278126</ele>
        <time>2010-10-16T12:45:30Z</time>
      </trkpt>
      <trkpt lat="47.41069" lon="-0.48804">
        <ele>21</ele>
        <time>2010-10-16T12:45:35Z</time>
      </trkpt>
      <trkpt lat="47.41092" lon="-0.48871">
        <ele>20.713751</ele>
        <time>2010-10-16T12:45:40Z</time>
      </trkpt>
      <trkpt lat="47.41113" lon="-0.48938">
        <ele>20.371122</ele>
        <time>2010-10-16T12:45:45Z</time>
      </trkpt>
      <trkpt lat="47.41137" lon="-0.49003">
        <ele>20.048668</ele>
        <time>2010-10-16T12:45:50Z</time>
      </trkpt>
      <trkpt lat="47.41157" lon="-0.49072">
        <ele>20</ele>
        <time>2010-10-16T12:45:55Z</time>
      </trkpt>
      <trkpt lat="47.41178" lon="-0.49139">
        <ele>20</ele>
        <time>2010-10-16T12:46:00Z</time>
      </trkpt>
      <trkpt lat="47.41194" lon="-0.49208">
        <ele>20</ele>
        <time>2010-10-16T12:46:05Z</time>
      </trkpt>
      <trkpt lat="47.41207" lon="-0.49276">
        <ele>20</ele>
        <time>2010-10-16T12:46:10Z</time>
      </trkpt>
      <trkpt lat="47.41221" lon="-0.49358">
        <ele>20</ele>
        <time>2010-10-16T12:46:15Z</time>
      </trkpt>
      <trkpt lat="47.41234" lon="-0.49413">
        <ele>20</ele>
        <time>2010-10-16T12:46:20Z</time>
      </trkpt>
      <trkpt lat="47.41244" lon="-0.49473">
        <ele>20</ele>
        <time>2010-10-16T12:46:25Z</time>
      </trkpt>
      <trkpt lat="47.41255" lon="-0.4953">
        <ele>20</ele>
        <time>2010-10-16T12:46:30Z</time>
      </trkpt>
      <trkpt lat="47.41265" lon="-0.49574">
        <ele>20</ele>
        <time>2010-10-16T12:46:35Z</time>
      </trkpt>
      <trkpt lat="47.41272" lon="-0.49605">
        <ele>20</ele>
        <time>2010-10-16T12:46:40Z</time>
      </trkpt>
      <trkpt lat="47.4128" lon="-0.4964">
        <ele>20</ele>
        <time>2010-10-16T12:46:45Z</time>
      </trkpt>
      <trkpt lat="47.41287" lon="-0.49676">
        <ele>20</ele>
        <time>2010-10-16T12:46:50Z</time>
      </trkpt>
      <trkpt lat="47.41294" lon="-0.49709">
        <ele>20</ele>
        <time>2010-10-16T12:46:55Z</time>
      </trkpt>
      <trkpt lat="47.41303" lon="-0.49753">
        <ele>19.477516</ele>
        <time>2010-10-16T12:47:00Z</time>
      </trkpt>
      <trkpt lat="47.41308" lon="-0.49798">
        <ele>19</ele>
        <time>2010-10-16T12:47:05Z</time>
      </trkpt>
      <trkpt lat="47.41312" lon="-0.49849">
        <ele>19</ele>
        <time>2010-10-16T12:47:10Z</time>
      </trkpt>
      <trkpt lat="47.41313" lon="-0.49905">
        <ele>19</ele>
        <time>2010-10-16T12:47:15Z</time>
      </trkpt>
      <trkpt lat="47.41315" lon="-0.49961">
        <ele>19</ele>
        <time>2010-10-16T12:47:20Z</time>
      </trkpt>
      <trkpt lat="47.41314" lon="-0.50027">
        <ele>19</ele>
        <time>2010-10-16T12:47:25Z</time>
      </trkpt>
      <trkpt lat="47.4132" lon="-0.50083">
        <ele>19</ele>
        <time>2010-10-16T12:47:30Z</time>
      </trkpt>
      <trkpt lat="47.41322" lon="-0.50144">
        <ele>19</ele>
        <time>2010-10-16T12:47:35Z</time>
      </trkpt>
      <trkpt lat="47.41331" lon="-0.50205">
        <ele>19</ele>
        <time>2010-10-16T12:47:40Z</time>
      </trkpt>
      <trkpt lat="47.41346" lon="-0.50264">
        <ele>19</ele>
        <time>2010-10-16T12:47:45Z</time>
      </trkpt>
      <trkpt lat="47.41358" lon="-0.50316">
        <ele>19</ele>
        <time>2010-10-16T12:47:50Z</time>
      </trkpt>
      <trkpt lat="47.41357" lon="-0.50374">
        <ele>19</ele>
        <time>2010-10-16T12:47:55Z</time>
      </trkpt>
      <trkpt lat="47.41362" lon="-0.50434">
        <ele>19</ele>
        <time>2010-10-16T12:48:00Z</time>
      </trkpt>
      <trkpt lat="47.41373" lon="-0.50495">
        <ele>19.069452</ele>
        <time>2010-10-16T12:48:05Z</time>
      </trkpt>
      <trkpt lat="47.41383" lon="-0.50553">
        <ele>19.651918</ele>
        <time>2010-10-16T12:48:10Z</time>
      </trkpt>
      <trkpt lat="47.4139" lon="-0.50614">
        <ele>20</ele>
        <time>2010-10-16T12:48:15Z</time>
      </trkpt>
      <trkpt lat="47.41398" lon="-0.5067">
        <ele>20</ele>
        <time>2010-10-16T12:48:20Z</time>
      </trkpt>
      <trkpt lat="47.41412" lon="-0.50739">
        <ele>20</ele>
        <time>2010-10-16T12:48:25Z</time>
      </trkpt>
      <trkpt lat="47.41415" lon="-0.50779">
        <ele>20</ele>
        <time>2010-10-16T12:48:30Z</time>
      </trkpt>
      <trkpt lat="47.41408" lon="-0.50839">
        <ele>20</ele>
        <time>2010-10-16T12:48:35Z</time>
      </trkpt>
      <trkpt lat="47.41401" lon="-0.50893">
        <ele>20</ele>
        <time>2010-10-16T12:48:40Z</time>
      </trkpt>
      <trkpt lat="47.41395" lon="-0.50947">
        <ele>19.6425</ele>
        <time>2010-10-16T12:48:45Z</time>
      </trkpt>
      <trkpt lat="47.41385" lon="-0.51">
        <ele>19</ele>
        <time>2010-10-16T12:48:50Z</time>
      </trkpt>
      <trkpt lat="47.41369" lon="-0.5105">
        <ele>19</ele>
        <time>2010-10-16T12:48:55Z</time>
      </trkpt>
      <trkpt lat="47.41345" lon="-0.51096">
        <ele>19</ele>
        <time>2010-10-16T12:49:00Z</time>
      </trkpt>
      <trkpt lat="47.4132" lon="-0.5114">
        <ele>19</ele>
        <time>2010-10-16T12:49:05Z</time>
      </trkpt>
      <trkpt lat="47.41294" lon="-0.51185">
        <ele>19</ele>
        <time>2010-10-16T12:49:10Z</time>
      </trkpt>
      <trkpt lat="47.41269" lon="-0.5123">
        <ele>19</ele>
        <time>2010-10-16T12:49:15Z</time>
      </trkpt>
      <trkpt lat="47.41248" lon="-0.51265">
        <ele>19</ele>
        <time>2010-10-16T12:49:20Z</time>
      </trkpt>
      <trkpt lat="47.41216" lon="-0.51319">
        <ele>19</ele>
        <time>2010-10-16T12:49:25Z</time>
      </trkpt>
      <trkpt lat="47.41194" lon="-0.51354">
        <ele>19</ele>
        <time>2010-10-16T12:49:30Z</time>
      </trkpt>
      <trkpt lat="47.41166" lon="-0.51396">
        <ele>19</ele>
        <time>2010-10-16T12:49:35Z</time>
      </trkpt>
      <trkpt lat="47.41136" lon="-0.51435">
        <ele>19</ele>
        <time>2010-10-16T12:49:40Z</time>
      </trkpt>
      <trkpt lat="47.41106" lon="-0.51474">
        <ele>19</ele>
        <time>2010-10-16T12:49:45Z</time>
      </trkpt>
      <trkpt lat="47.4108" lon="-0.51517">
        <ele>19</ele>
        <time>2010-10-16T12:49:50Z</time>
      </trkpt>
      <trkpt lat="47.41065" lon="-0.51573">
        <ele>19</ele>
        <time>2010-10-16T12:49:55Z</time>
      </trkpt>
      <trkpt lat="47.41056" lon="-0.5163">
        <ele>19</ele>
        <time>2010-10-16T12:50:00Z</time>
      </trkpt>
      <trkpt lat="47.41048" lon="-0.51689">
        <ele>19</ele>
        <time>2010-10-16T12:50:05Z</time>
      </trkpt>
      <trkpt lat="47.41039" lon="-0.51747">
        <ele>19</ele>
        <time>2010-10-16T12:50:10Z</time>
      </trkpt>
      <trkpt lat="47.41027" lon="-0.51804">
        <ele>19</ele>
        <time>2010-10-16T12:50:15Z</time>
      </trkpt>
      <trkpt lat="47.41017" lon="-0.51865">
        <ele>19</ele>
        <time>2010-10-16T12:50:20Z</time>
      </trkpt>
      <trkpt lat="47.41007" lon="-0.51927">
        <ele>18.905632</ele>
        <time>2010-10-16T12:50:25Z</time>
      </trkpt>
      <trkpt lat="47.41003" lon="-0.51985">
        <ele>18.73</ele>
        <time>2010-10-16T12:50:30Z</time>
      </trkpt>
      <trkpt lat="47.40991" lon="-0.52039">
        <ele>18.410128</ele>
        <time>2010-10-16T12:50:35Z</time>
      </trkpt>
      <trkpt lat="47.40985" lon="-0.52097">
        <ele>18</ele>
        <time>2010-10-16T12:50:40Z</time>
      </trkpt>
      <trkpt lat="47.40971" lon="-0.52152">
        <ele>18</ele>
        <time>2010-10-16T12:50:45Z</time>
      </trkpt>
      <trkpt lat="47.40959" lon="-0.52208">
        <ele>18</ele>
        <time>2010-10-16T12:50:50Z</time>
      </trkpt>
      <trkpt lat="47.40949" lon="-0.52264">
        <ele>18</ele>
        <time>2010-10-16T12:50:55Z</time>
      </trkpt>
      <trkpt lat="47.40934" lon="-0.52327">
        <ele>18</ele>
        <time>2010-10-16T12:51:00Z</time>
      </trkpt>
      <trkpt lat="47.40931" lon="-0.5237">
        <ele>18.195</ele>
        <time>2010-10-16T12:51:05Z</time>
      </trkpt>
      <trkpt lat="47.40928" lon="-0.52427">
        <ele>19</ele>
        <time>2010-10-16T12:51:10Z</time>
      </trkpt>
      <trkpt lat="47.40932" lon="-0.52463">
        <ele>19</ele>
        <time>2010-10-16T12:51:15Z</time>
      </trkpt>
      <trkpt lat="47.40937" lon="-0.52472">
        <ele>19</ele>
        <time>2010-10-16T12:51:20Z</time>
      </trkpt>
      <trkpt lat="47.40937" lon="-0.52474">
        <ele>19</ele>
        <time>2010-10-16T12:51:25Z</time>
      </trkpt>
      <trkpt lat="47.40936" lon="-0.52474">
        <ele>19</ele>
        <time>2010-10-16T12:51:30Z</time>
      </trkpt>
      <trkpt lat="47.40936" lon="-0.52477">
        <ele>19</ele>
        <time>2010-10-16T12:51:35Z</time>
      </trkpt>
      <trkpt lat="47.40938" lon="-0.52475">
        <ele>19</ele>
        <time>2010-10-16T12:51:40Z</time>
      </trkpt>
      <trkpt lat="47.40939" lon="-0.52475">
        <ele>19</ele>
        <time>2010-10-16T12:51:45Z</time>
      </trkpt>
      <trkpt lat="47.4094" lon="-0.52476">
        <ele>19</ele>
        <time>2010-10-16T12:51:50Z</time>
      </trkpt>
      <trkpt lat="47.40939" lon="-0.52477">
        <ele>19</ele>
        <time>2010-10-16T12:51:55Z</time>
      </trkpt>
      <trkpt lat="47.40938" lon="-0.5248">
        <ele>19</ele>
        <time>2010-10-16T12:52:00Z</time>
      </trkpt>
      <trkpt lat="47.40938" lon="-0.5248">
        <ele>19</ele>
        <time>2010-10-16T12:52:05Z</time>
      </trkpt>
      <trkpt lat="47.40936" lon="-0.52482">
        <ele>19</ele>
        <time>2010-10-16T12:52:10Z</time>
      </trkpt>
      <trkpt lat="47.40936" lon="-0.52479">
        <ele>19</ele>
        <time>2010-10-16T12:52:15Z</time>
      </trkpt>
      <trkpt lat="47.40937" lon="-0.52478">
        <ele>19</ele>
        <time>2010-10-16T12:52:20Z</time>
      </trkpt>
      <trkpt lat="47.4094" lon="-0.52481">
        <ele>19</ele>
        <time>2010-10-16T12:52:25Z</time>
      </trkpt>
      <trkpt lat="47.40944" lon="-0.52484">
        <ele>19</ele>
        <time>2010-10-16T12:52:30Z</time>
      </trkpt>
      <trkpt lat="47.40966" lon="-0.52475">
        <ele>19</ele>
        <time>2010-10-16T12:52:35Z</time>
      </trkpt>
      <trkpt lat="47.40999" lon="-0.52461">
        <ele>19</ele>
        <time>2010-10-16T12:52:40Z</time>
      </trkpt>
      <trkpt lat="47.41038" lon="-0.52445">
        <ele>19</ele>
        <time>2010-10-16T12:52:45Z</time>
      </trkpt>
      <trkpt lat="47.41079" lon="-0.52425">
        <ele>19</ele>
        <time>2010-10-16T12:52:50Z</time>
      </trkpt>
      <trkpt lat="47.4112" lon="-0.52413">
        <ele>19.565001</ele>
        <time>2010-10-16T12:52:55Z</time>
      </trkpt>
      <trkpt lat="47.41164" lon="-0.52397">
        <ele>20</ele>
        <time>2010-10-16T12:53:00Z</time>
      </trkpt>
      <trkpt lat="47.41205" lon="-0.52385">
        <ele>20</ele>
        <time>2010-10-16T12:53:05Z</time>
      </trkpt>
      <trkpt lat="47.41254" lon="-0.52373">
        <ele>19.45875</ele>
        <time>2010-10-16T12:53:10Z</time>
      </trkpt>
      <trkpt lat="47.41295" lon="-0.5236">
        <ele>18.326876</ele>
        <time>2010-10-16T12:53:15Z</time>
      </trkpt>
      <trkpt lat="47.41327" lon="-0.5235">
        <ele>17.580626</ele>
        <time>2010-10-16T12:53:20Z</time>
      </trkpt>
      <trkpt lat="47.41367" lon="-0.52337">
        <ele>17.368099</ele>
        <time>2010-10-16T12:53:25Z</time>
      </trkpt>
      <trkpt lat="47.41412" lon="-0.52327">
        <ele>19.841663</ele>
        <time>2010-10-16T12:53:30Z</time>
      </trkpt>
      <trkpt lat="47.41446" lon="-0.52321">
        <ele>21.407112</ele>
        <time>2010-10-16T12:53:35Z</time>
      </trkpt>
      <trkpt lat="47.41483" lon="-0.52317">
        <ele>22.648138</ele>
        <time>2010-10-16T12:53:40Z</time>
      </trkpt>
      <trkpt lat="47.41524" lon="-0.52322">
        <ele>23.501474</ele>
        <time>2010-10-16T12:53:45Z</time>
      </trkpt>
      <trkpt lat="47.41556" lon="-0.52324">
        <ele>23.79825</ele>
        <time>2010-10-16T12:53:50Z</time>
      </trkpt>
      <trkpt lat="47.41584" lon="-0.52326">
        <ele>23.190094</ele>
        <time>2010-10-16T12:53:55Z</time>
      </trkpt>
      <trkpt lat="47.41604" lon="-0.52329">
        <ele>22.514275</ele>
        <time>2010-10-16T12:54:00Z</time>
      </trkpt>
      <trkpt lat="47.41632" lon="-0.52333">
        <ele>21.357025</ele>
        <time>2010-10-16T12:54:05Z</time>
      </trkpt>
      <trkpt lat="47.41665" lon="-0.52335">
        <ele>21.10828</ele>
        <time>2010-10-16T12:54:10Z</time>
      </trkpt>
      <trkpt lat="47.41711" lon="-0.52336">
        <ele>21.017775</ele>
        <time>2010-10-16T12:54:15Z</time>
      </trkpt>
      <trkpt lat="47.41756" lon="-0.52338">
        <ele>21</ele>
        <time>2010-10-16T12:54:20Z</time>
      </trkpt>
      <trkpt lat="47.41801" lon="-0.52341">
        <ele>21</ele>
        <time>2010-10-16T12:54:25Z</time>
      </trkpt>
      <trkpt lat="47.41842" lon="-0.52328">
        <ele>20.362724</ele>
        <time>2010-10-16T12:54:30Z</time>
      </trkpt>
      <trkpt lat="47.41872" lon="-0.52342">
        <ele>20</ele>
        <time>2010-10-16T12:54:35Z</time>
      </trkpt>
      <trkpt lat="47.41907" lon="-0.52348">
        <ele>20</ele>
        <time>2010-10-16T12:54:40Z</time>
      </trkpt>
      <trkpt lat="47.41949" lon="-0.52352">
        <ele>20</ele>
        <time>2010-10-16T12:54:45Z</time>
      </trkpt>
      <trkpt lat="47.41993" lon="-0.52351">
        <ele>20</ele>
        <time>2010-10-16T12:54:50Z</time>
      </trkpt>
      <trkpt lat="47.42035" lon="-0.52354">
        <ele>20</ele>
        <time>2010-10-16T12:54:55Z</time>
      </trkpt>
      <trkpt lat="47.42077" lon="-0.52358">
        <ele>20</ele>
        <time>2010-10-16T12:55:00Z</time>
      </trkpt>
      <trkpt lat="47.4212" lon="-0.52359">
        <ele>20</ele>
        <time>2010-10-16T12:55:05Z</time>
      </trkpt>
      <trkpt lat="47.42163" lon="-0.52362">
        <ele>20</ele>
        <time>2010-10-16T12:55:10Z</time>
      </trkpt>
      <trkpt lat="47.42207" lon="-0.52365">
        <ele>20</ele>
        <time>2010-10-16T12:55:15Z</time>
      </trkpt>
      <trkpt lat="47.42252" lon="-0.52368">
        <ele>20</ele>
        <time>2010-10-16T12:55:20Z</time>
      </trkpt>
      <trkpt lat="47.42297" lon="-0.52381">
        <ele>20</ele>
        <time>2010-10-16T12:55:25Z</time>
      </trkpt>
      <trkpt lat="47.42337" lon="-0.52418">
        <ele>20</ele>
        <time>2010-10-16T12:55:30Z</time>
      </trkpt>
      <trkpt lat="47.42378" lon="-0.52451">
        <ele>20</ele>
        <time>2010-10-16T12:55:35Z</time>
      </trkpt>
      <trkpt lat="47.42425" lon="-0.52479">
        <ele>20</ele>
        <time>2010-10-16T12:55:40Z</time>
      </trkpt>
      <trkpt lat="47.42466" lon="-0.52512">
        <ele>20</ele>
        <time>2010-10-16T12:55:45Z</time>
      </trkpt>
      <trkpt lat="47.4252" lon="-0.52541">
        <ele>20</ele>
        <time>2010-10-16T12:55:50Z</time>
      </trkpt>
      <trkpt lat="47.42564" lon="-0.5257">
        <ele>20</ele>
        <time>2010-10-16T12:55:55Z</time>
      </trkpt>
      <trkpt lat="47.42607" lon="-0.52602">
        <ele>20</ele>
        <time>2010-10-16T12:56:00Z</time>
      </trkpt>
      <trkpt lat="47.42648" lon="-0.52636">
        <ele>20</ele>
        <time>2010-10-16T12:56:05Z</time>
      </trkpt>
      <trkpt lat="47.42687" lon="-0.52664">
        <ele>20</ele>
        <time>2010-10-16T12:56:10Z</time>
      </trkpt>
      <trkpt lat="47.42727" lon="-0.52692">
        <ele>20</ele>
        <time>2010-10-16T12:56:15Z</time>
      </trkpt>
      <trkpt lat="47.42769" lon="-0.52723">
        <ele>20</ele>
        <time>2010-10-16T12:56:20Z</time>
      </trkpt>
      <trkpt lat="47.42815" lon="-0.52755">
        <ele>20</ele>
        <time>2010-10-16T12:56:25Z</time>
      </trkpt>
      <trkpt lat="47.42864" lon="-0.52778">
        <ele>20</ele>
        <time>2010-10-16T12:56:30Z</time>
      </trkpt>
      <trkpt lat="47.42903" lon="-0.52794">
        <ele>20</ele>
        <time>2010-10-16T12:56:35Z</time>
      </trkpt>
      <trkpt lat="47.42947" lon="-0.528">
        <ele>20</ele>
        <time>2010-10-16T12:56:40Z</time>
      </trkpt>
      <trkpt lat="47.42952" lon="-0.528">
        <ele>20</ele>
        <time>2010-10-16T12:56:45Z</time>
      </trkpt>
      <trkpt lat="47.4295" lon="-0.52799">
        <ele>20</ele>
        <time>2010-10-16T12:56:50Z</time>
      </trkpt>
      <trkpt lat="47.4295" lon="-0.52797">
        <ele>20</ele>
        <time>2010-10-16T12:56:55Z</time>
      </trkpt>
      <trkpt lat="47.4295" lon="-0.52796">
        <ele>20</ele>
        <time>2010-10-16T12:57:00Z</time>
      </trkpt>
      <trkpt lat="47.42954" lon="-0.52796">
        <ele>20</ele>
        <time>2010-10-16T12:57:05Z</time>
      </trkpt>
      <trkpt lat="47.42967" lon="-0.52799">
        <ele>20</ele>
        <time>2010-10-16T12:57:10Z</time>
      </trkpt>
      <trkpt lat="47.42993" lon="-0.52803">
        <ele>20</ele>
        <time>2010-10-16T12:57:15Z</time>
      </trkpt>
      <trkpt lat="47.43021" lon="-0.52813">
        <ele>19.98</ele>
        <time>2010-10-16T12:57:20Z</time>
      </trkpt>
      <trkpt lat="47.43046" lon="-0.52821">
        <ele>19.42</ele>
        <time>2010-10-16T12:57:25Z</time>
      </trkpt>
      <trkpt lat="47.43075" lon="-0.52831">
        <ele>19</ele>
        <time>2010-10-16T12:57:30Z</time>
      </trkpt>
      <trkpt lat="47.43105" lon="-0.52843">
        <ele>19</ele>
        <time>2010-10-16T12:57:35Z</time>
      </trkpt>
      <trkpt lat="47.4314" lon="-0.52862">
        <ele>19</ele>
        <time>2010-10-16T12:57:40Z</time>
      </trkpt>
      <trkpt lat="47.43174" lon="-0.52872">
        <ele>19.42581</ele>
        <time>2010-10-16T12:57:45Z</time>
      </trkpt>
      <trkpt lat="47.43205" lon="-0.52885">
        <ele>20</ele>
        <time>2010-10-16T12:57:50Z</time>
      </trkpt>
      <trkpt lat="47.43238" lon="-0.52903">
        <ele>20</ele>
        <time>2010-10-16T12:57:55Z</time>
      </trkpt>
      <trkpt lat="47.43274" lon="-0.5292">
        <ele>20</ele>
        <time>2010-10-16T12:58:00Z</time>
      </trkpt>
      <trkpt lat="47.43304" lon="-0.52934">
        <ele>20</ele>
        <time>2010-10-16T12:58:05Z</time>
      </trkpt>
      <trkpt lat="47.43325" lon="-0.52936">
        <ele>20</ele>
        <time>2010-10-16T12:58:10Z</time>
      </trkpt>
      <trkpt lat="47.43351" lon="-0.52924">
        <ele>20</ele>
        <time>2010-10-16T12:58:15Z</time>
      </trkpt>
      <trkpt lat="47.4338" lon="-0.52938">
        <ele>20.043175</ele>
        <time>2010-10-16T12:58:20Z</time>
      </trkpt>
      <trkpt lat="47.43377" lon="-0.52961">
        <ele>20.004999</ele>
        <time>2010-10-16T12:58:25Z</time>
      </trkpt>
      <trkpt lat="47.43377" lon="-0.52962">
        <ele>20.01</ele>
        <time>2010-10-16T12:58:30Z</time>
      </trkpt>
      <trkpt lat="47.43377" lon="-0.52962">
        <ele>20.02</ele>
        <time>2010-10-16T12:58:35Z</time>
      </trkpt>
      <trkpt lat="47.43377" lon="-0.52962">
        <ele>20.014999</ele>
        <time>2010-10-16T12:58:40Z</time>
      </trkpt>
      <trkpt lat="47.43377" lon="-0.52961">
        <ele>20.004999</ele>
        <time>2010-10-16T12:58:45Z</time>
      </trkpt>
      <trkpt lat="47.43376" lon="-0.5296">
        <ele>20</ele>
        <time>2010-10-16T12:58:50Z</time>
      </trkpt>
      <trkpt lat="47.43376" lon="-0.5296">
        <ele>20</ele>
        <time>2010-10-16T12:58:55Z</time>
      </trkpt>
      <trkpt lat="47.43368" lon="-0.52966">
        <ele>20</ele>
        <time>2010-10-16T12:59:00Z</time>
      </trkpt>
      <trkpt lat="47.43348" lon="-0.52993">
        <ele>20</ele>
        <time>2010-10-16T12:59:05Z</time>
      </trkpt>
      <trkpt lat="47.43339" lon="-0.53026">
        <ele>20</ele>
        <time>2010-10-16T12:59:10Z</time>
      </trkpt>
      <trkpt lat="47.43326" lon="-0.53071">
        <ele>20</ele>
        <time>2010-10-16T12:59:15Z</time>
      </trkpt>
      <trkpt lat="47.4331" lon="-0.53116">
        <ele>20</ele>
        <time>2010-10-16T12:59:20Z</time>
      </trkpt>
      <trkpt lat="47.43296" lon="-0.53164">
        <ele>20</ele>
        <time>2010-10-16T12:59:25Z</time>
      </trkpt>
      <trkpt lat="47.43282" lon="-0.53213">
        <ele>20</ele>
        <time>2010-10-16T12:59:30Z</time>
      </trkpt>
      <trkpt lat="47.43266" lon="-0.53261">
        <ele>20</ele>
        <time>2010-10-16T12:59:35Z</time>
      </trkpt>
      <trkpt lat="47.4325" lon="-0.53309">
        <ele>20</ele>
        <time>2010-10-16T12:59:40Z</time>
      </trkpt>
      <trkpt lat="47.43235" lon="-0.5336">
        <ele>20</ele>
        <time>2010-10-16T12:59:45Z</time>
      </trkpt>
      <trkpt lat="47.43222" lon="-0.5341">
        <ele>20.026875</ele>
        <time>2010-10-16T12:59:50Z</time>
      </trkpt>
      <trkpt lat="47.43232" lon="-0.53452">
        <ele>20.607166</ele>
        <time>2010-10-16T12:59:55Z</time>
      </trkpt>
      <trkpt lat="47.43247" lon="-0.53494">
        <ele>20.584999</ele>
        <time>2010-10-16T13:00:00Z</time>
      </trkpt>
      <trkpt lat="47.43273" lon="-0.53527">
        <ele>20</ele>
        <time>2010-10-16T13:00:05Z</time>
      </trkpt>
      <trkpt lat="47.43303" lon="-0.53555">
        <ele>19.902388</ele>
        <time>2010-10-16T13:00:10Z</time>
      </trkpt>
      <trkpt lat="47.43334" lon="-0.53584">
        <ele>19.271116</ele>
        <time>2010-10-16T13:00:15Z</time>
      </trkpt>
      <trkpt lat="47.43364" lon="-0.53614">
        <ele>18.91654</ele>
        <time>2010-10-16T13:00:20Z</time>
      </trkpt>
      <trkpt lat="47.43395" lon="-0.5364">
        <ele>18.134663</ele>
        <time>2010-10-16T13:00:25Z</time>
      </trkpt>
      <trkpt lat="47.43437" lon="-0.53664">
        <ele>18.725</ele>
        <time>2010-10-16T13:00:30Z</time>
      </trkpt>
      <trkpt lat="47.43466" lon="-0.53676">
        <ele>19.385</ele>
        <time>2010-10-16T13:00:35Z</time>
      </trkpt>
      <trkpt lat="47.43508" lon="-0.53695">
        <ele>20.382475</ele>
        <time>2010-10-16T13:00:40Z</time>
      </trkpt>
      <trkpt lat="47.43537" lon="-0.53724">
        <ele>20.997549</ele>
        <time>2010-10-16T13:00:45Z</time>
      </trkpt>
      <trkpt lat="47.43554" lon="-0.5377">
        <ele>21.708094</ele>
        <time>2010-10-16T13:00:50Z</time>
      </trkpt>
      <trkpt lat="47.43565" lon="-0.5382">
        <ele>21.702488</ele>
        <time>2010-10-16T13:00:55Z</time>
      </trkpt>
      <trkpt lat="47.43576" lon="-0.53868">
        <ele>21.945</ele>
        <time>2010-10-16T13:01:00Z</time>
      </trkpt>
      <trkpt lat="47.43587" lon="-0.53917">
        <ele>21.818125</ele>
        <time>2010-10-16T13:01:05Z</time>
      </trkpt>
      <trkpt lat="47.43598" lon="-0.53968">
        <ele>21.419981</ele>
        <time>2010-10-16T13:01:10Z</time>
      </trkpt>
      <trkpt lat="47.43611" lon="-0.54017">
        <ele>21.627625</ele>
        <time>2010-10-16T13:01:15Z</time>
      </trkpt>
      <trkpt lat="47.43623" lon="-0.54067">
        <ele>20.927288</ele>
        <time>2010-10-16T13:01:20Z</time>
      </trkpt>
      <trkpt lat="47.43634" lon="-0.54107">
        <ele>20.444601</ele>
        <time>2010-10-16T13:01:25Z</time>
      </trkpt>
      <trkpt lat="47.43647" lon="-0.54157">
        <ele>19.788151</ele>
        <time>2010-10-16T13:01:30Z</time>
      </trkpt>
      <trkpt lat="47.43661" lon="-0.54206">
        <ele>19.331249</ele>
        <time>2010-10-16T13:01:35Z</time>
      </trkpt>
      <trkpt lat="47.43674" lon="-0.54254">
        <ele>19.32</ele>
        <time>2010-10-16T13:01:40Z</time>
      </trkpt>
      <trkpt lat="47.43682" lon="-0.54303">
        <ele>19.535</ele>
        <time>2010-10-16T13:01:45Z</time>
      </trkpt>
      <trkpt lat="47.43684" lon="-0.54354">
        <ele>19.605</ele>
        <time>2010-10-16T13:01:50Z</time>
      </trkpt>
      <trkpt lat="47.43688" lon="-0.54403">
        <ele>19.719999</ele>
        <time>2010-10-16T13:01:55Z</time>
      </trkpt>
      <trkpt lat="47.43702" lon="-0.54448">
        <ele>19.781031</ele>
        <time>2010-10-16T13:02:00Z</time>
      </trkpt>
      <trkpt lat="47.4372" lon="-0.54489">
        <ele>20.002607</ele>
        <time>2010-10-16T13:02:05Z</time>
      </trkpt>
      <trkpt lat="47.43739" lon="-0.54528">
        <ele>20.423344</ele>
        <time>2010-10-16T13:02:10Z</time>
      </trkpt>
      <trkpt lat="47.43764" lon="-0.54562">
        <ele>20.530624</ele>
        <time>2010-10-16T13:02:15Z</time>
      </trkpt>
      <trkpt lat="47.43788" lon="-0.54594">
        <ele>21.078938</ele>
        <time>2010-10-16T13:02:20Z</time>
      </trkpt>
      <trkpt lat="47.43805" lon="-0.54636">
        <ele>21.411694</ele>
        <time>2010-10-16T13:02:25Z</time>
      </trkpt>
      <trkpt lat="47.43814" lon="-0.54683">
        <ele>21.445</ele>
        <time>2010-10-16T13:02:30Z</time>
      </trkpt>
      <trkpt lat="47.43824" lon="-0.54729">
        <ele>21.866337</ele>
        <time>2010-10-16T13:02:35Z</time>
      </trkpt>
      <trkpt lat="47.43834" lon="-0.54776">
        <ele>22.16</ele>
        <time>2010-10-16T13:02:40Z</time>
      </trkpt>
      <trkpt lat="47.43851" lon="-0.54817">
        <ele>22.565001</ele>
        <time>2010-10-16T13:02:45Z</time>
      </trkpt>
      <trkpt lat="47.43882" lon="-0.5485">
        <ele>23.285</ele>
        <time>2010-10-16T13:02:50Z</time>
      </trkpt>
      <trkpt lat="47.43907" lon="-0.54859">
        <ele>23.83</ele>
        <time>2010-10-16T13:02:55Z</time>
      </trkpt>
      <trkpt lat="47.43937" lon="-0.54868">
        <ele>24.5</ele>
        <time>2010-10-16T13:03:00Z</time>
      </trkpt>
      <trkpt lat="47.43966" lon="-0.54877">
        <ele>25.15</ele>
        <time>2010-10-16T13:03:05Z</time>
      </trkpt>
      <trkpt lat="47.44001" lon="-0.54888">
        <ele>25.93</ele>
        <time>2010-10-16T13:03:10Z</time>
      </trkpt>
      <trkpt lat="47.44031" lon="-0.54894">
        <ele>26.615</ele>
        <time>2010-10-16T13:03:15Z</time>
      </trkpt>
      <trkpt lat="47.44061" lon="-0.549">
        <ele>27.285</ele>
        <time>2010-10-16T13:03:20Z</time>
      </trkpt>
      <trkpt lat="47.4409" lon="-0.54904">
        <ele>27.92</ele>
        <time>2010-10-16T13:03:25Z</time>
      </trkpt>
      <trkpt lat="47.44109" lon="-0.54918">
        <ele>28</ele>
        <time>2010-10-16T13:03:30Z</time>
      </trkpt>
      <trkpt lat="47.44112" lon="-0.54959">
        <ele>28</ele>
        <time>2010-10-16T13:03:35Z</time>
      </trkpt>
      <trkpt lat="47.4411" lon="-0.55005">
        <ele>27.79845</ele>
        <time>2010-10-16T13:03:40Z</time>
      </trkpt>
      <trkpt lat="47.44109" lon="-0.55053">
        <ele>27.434999</ele>
        <time>2010-10-16T13:03:45Z</time>
      </trkpt>
      <trkpt lat="47.44109" lon="-0.5509">
        <ele>27.445</ele>
        <time>2010-10-16T13:03:50Z</time>
      </trkpt>
      <trkpt lat="47.4411" lon="-0.55137">
        <ele>27.331249</ele>
        <time>2010-10-16T13:03:55Z</time>
      </trkpt>
      <trkpt lat="47.44114" lon="-0.55182">
        <ele>26.993176</ele>
        <time>2010-10-16T13:04:00Z</time>
      </trkpt>
      <trkpt lat="47.44135" lon="-0.55208">
        <ele>27</ele>
        <time>2010-10-16T13:04:05Z</time>
      </trkpt>
      <trkpt lat="47.44163" lon="-0.55201">
        <ele>27</ele>
        <time>2010-10-16T13:04:10Z</time>
      </trkpt>
      <trkpt lat="47.44193" lon="-0.55193">
        <ele>27</ele>
        <time>2010-10-16T13:04:15Z</time>
      </trkpt>
      <trkpt lat="47.44224" lon="-0.55187">
        <ele>27</ele>
        <time>2010-10-16T13:04:20Z</time>
      </trkpt>
      <trkpt lat="47.44256" lon="-0.5518">
        <ele>27.12875</ele>
        <time>2010-10-16T13:04:25Z</time>
      </trkpt>
      <trkpt lat="47.44287" lon="-0.55173">
        <ele>27.608112</ele>
        <time>2010-10-16T13:04:30Z</time>
      </trkpt>
      <trkpt lat="47.4432" lon="-0.5517">
        <ele>28</ele>
        <time>2010-10-16T13:04:35Z</time>
      </trkpt>
      <trkpt lat="47.4435" lon="-0.55168">
        <ele>28</ele>
        <time>2010-10-16T13:04:40Z</time>
      </trkpt>
      <trkpt lat="47.44376" lon="-0.55168">
        <ele>28.180676</ele>
        <time>2010-10-16T13:04:45Z</time>
      </trkpt>
      <trkpt lat="47.444" lon="-0.55163">
        <ele>28.477375</ele>
        <time>2010-10-16T13:04:50Z</time>
      </trkpt>
      <trkpt lat="47.44417" lon="-0.55163">
        <ele>28.686089</ele>
        <time>2010-10-16T13:04:55Z</time>
      </trkpt>
      <trkpt lat="47.44419" lon="-0.55163">
        <ele>28.705887</ele>
        <time>2010-10-16T13:05:00Z</time>
      </trkpt>
      <trkpt lat="47.44423" lon="-0.55164">
        <ele>28.738644</ele>
        <time>2010-10-16T13:05:05Z</time>
      </trkpt>
      <trkpt lat="47.44434" lon="-0.55165">
        <ele>28.854712</ele>
        <time>2010-10-16T13:05:10Z</time>
      </trkpt>
      <trkpt lat="47.4444" lon="-0.55169">
        <ele>28.922037</ele>
        <time>2010-10-16T13:05:15Z</time>
      </trkpt>
      <trkpt lat="47.44434" lon="-0.55198">
        <ele>28.731518</ele>
        <time>2010-10-16T13:05:20Z</time>
      </trkpt>
      <trkpt lat="47.44422" lon="-0.55249">
        <ele>28.495001</ele>
        <time>2010-10-16T13:05:25Z</time>
      </trkpt>
      <trkpt lat="47.44413" lon="-0.55286">
        <ele>28.213688</ele>
        <time>2010-10-16T13:05:30Z</time>
      </trkpt>
      <trkpt lat="47.44404" lon="-0.55337">
        <ele>27.908087</ele>
        <time>2010-10-16T13:05:35Z</time>
      </trkpt>
      <trkpt lat="47.44401" lon="-0.55399">
        <ele>27.105</ele>
        <time>2010-10-16T13:05:40Z</time>
      </trkpt>
      <trkpt lat="47.44397" lon="-0.55452">
        <ele>27.045</ele>
        <time>2010-10-16T13:05:45Z</time>
      </trkpt>
      <trkpt lat="47.44392" lon="-0.55505">
        <ele>27</ele>
        <time>2010-10-16T13:05:50Z</time>
      </trkpt>
      <trkpt lat="47.44386" lon="-0.55559">
        <ele>26.940001</ele>
        <time>2010-10-16T13:05:55Z</time>
      </trkpt>
      <trkpt lat="47.44377" lon="-0.5561">
        <ele>26.529375</ele>
        <time>2010-10-16T13:06:00Z</time>
      </trkpt>
      <trkpt lat="47.44373" lon="-0.55656">
        <ele>26.034256</ele>
        <time>2010-10-16T13:06:05Z</time>
      </trkpt>
      <trkpt lat="47.44361" lon="-0.55703">
        <ele>25.59141</ele>
        <time>2010-10-16T13:06:10Z</time>
      </trkpt>
      <trkpt lat="47.44356" lon="-0.55745">
        <ele>25.00375</ele>
        <time>2010-10-16T13:06:15Z</time>
      </trkpt>
      <trkpt lat="47.44349" lon="-0.55795">
        <ele>24.18</ele>
        <time>2010-10-16T13:06:20Z</time>
      </trkpt>
      <trkpt lat="47.44343" lon="-0.55847">
        <ele>24.07</ele>
        <time>2010-10-16T13:06:25Z</time>
      </trkpt>
      <trkpt lat="47.44338" lon="-0.559">
        <ele>24.649376</ele>
        <time>2010-10-16T13:06:30Z</time>
      </trkpt>
      <trkpt lat="47.44333" lon="-0.55951">
        <ele>25.424999</ele>
        <time>2010-10-16T13:06:35Z</time>
      </trkpt>
      <trkpt lat="47.4433" lon="-0.56003">
        <ele>26</ele>
        <time>2010-10-16T13:06:40Z</time>
      </trkpt>
      <trkpt lat="47.44329" lon="-0.56054">
        <ele>26</ele>
        <time>2010-10-16T13:06:45Z</time>
      </trkpt>
      <trkpt lat="47.44331" lon="-0.56106">
        <ele>26.037907</ele>
        <time>2010-10-16T13:06:50Z</time>
      </trkpt>
      <trkpt lat="47.44336" lon="-0.56155">
        <ele>26.502501</ele>
        <time>2010-10-16T13:06:55Z</time>
      </trkpt>
      <trkpt lat="47.44345" lon="-0.56203">
        <ele>27</ele>
        <time>2010-10-16T13:07:00Z</time>
      </trkpt>
      <trkpt lat="47.44363" lon="-0.56241">
        <ele>27</ele>
        <time>2010-10-16T13:07:05Z</time>
      </trkpt>
      <trkpt lat="47.44392" lon="-0.56252">
        <ele>26.96896</ele>
        <time>2010-10-16T13:07:10Z</time>
      </trkpt>
      <trkpt lat="47.44419" lon="-0.56246">
        <ele>26.81414</ele>
        <time>2010-10-16T13:07:15Z</time>
      </trkpt>
      <trkpt lat="47.44449" lon="-0.56237">
        <ele>26.643126</ele>
        <time>2010-10-16T13:07:20Z</time>
      </trkpt>
      <trkpt lat="47.44479" lon="-0.56231">
        <ele>26.523125</ele>
        <time>2010-10-16T13:07:25Z</time>
      </trkpt>
      <trkpt lat="47.44513" lon="-0.5622">
        <ele>26.377251</ele>
        <time>2010-10-16T13:07:30Z</time>
      </trkpt>
      <trkpt lat="47.44548" lon="-0.5621">
        <ele>26.856882</ele>
        <time>2010-10-16T13:07:35Z</time>
      </trkpt>
      <trkpt lat="47.44582" lon="-0.56201">
        <ele>26.995644</ele>
        <time>2010-10-16T13:07:40Z</time>
      </trkpt>
      <trkpt lat="47.44607" lon="-0.56198">
        <ele>27</ele>
        <time>2010-10-16T13:07:45Z</time>
      </trkpt>
      <trkpt lat="47.4459" lon="-0.56211">
        <ele>27</ele>
        <time>2010-10-16T13:07:50Z</time>
      </trkpt>
      <trkpt lat="47.44562" lon="-0.56218">
        <ele>27</ele>
        <time>2010-10-16T13:07:55Z</time>
      </trkpt>
      <trkpt lat="47.44527" lon="-0.56227">
        <ele>26.638</ele>
        <time>2010-10-16T13:08:00Z</time>
      </trkpt>
      <trkpt lat="47.44485" lon="-0.56239">
        <ele>26.636875</ele>
        <time>2010-10-16T13:08:05Z</time>
      </trkpt>
      <trkpt lat="47.44474" lon="-0.5625">
        <ele>26.81625</ele>
        <time>2010-10-16T13:08:10Z</time>
      </trkpt>
      <trkpt lat="47.44475" lon="-0.5625">
        <ele>26.81625</ele>
        <time>2010-10-16T13:08:15Z</time>
      </trkpt>
      <trkpt lat="47.44474" lon="-0.5625">
        <ele>26.811251</ele>
        <time>2010-10-16T13:08:20Z</time>
      </trkpt>
      <trkpt lat="47.44475" lon="-0.56249">
        <ele>26.805626</ele>
        <time>2010-10-16T13:08:25Z</time>
      </trkpt>
      <trkpt lat="47.44474" lon="-0.5625">
        <ele>26.813749</ele>
        <time>2010-10-16T13:08:30Z</time>
      </trkpt>
      <trkpt lat="47.44475" lon="-0.5625">
        <ele>26.81625</ele>
        <time>2010-10-16T13:08:35Z</time>
      </trkpt>
      <trkpt lat="47.44475" lon="-0.5625">
        <ele>26.815624</ele>
        <time>2010-10-16T13:08:40Z</time>
      </trkpt>
      <trkpt lat="47.44475" lon="-0.5625">
        <ele>26.820625</ele>
        <time>2010-10-16T13:08:45Z</time>
      </trkpt>
      <trkpt lat="47.44475" lon="-0.5625">
        <ele>26.823126</ele>
        <time>2010-10-16T13:08:50Z</time>
      </trkpt>
      <trkpt lat="47.44475" lon="-0.56251">
        <ele>26.825624</ele>
        <time>2010-10-16T13:08:55Z</time>
      </trkpt>
      <trkpt lat="47.44476" lon="-0.56251">
        <ele>26.830626</ele>
        <time>2010-10-16T13:09:00Z</time>
      </trkpt>
      <trkpt lat="47.44476" lon="-0.56251">
        <ele>26.825624</ele>
        <time>2010-10-16T13:09:05Z</time>
      </trkpt>
      <trkpt lat="47.44476" lon="-0.5625">
        <ele>26.8225</ele>
        <time>2010-10-16T13:09:10Z</time>
      </trkpt>
      <trkpt lat="47.44476" lon="-0.56251">
        <ele>26.825001</ele>
        <time>2010-10-16T13:09:15Z</time>
      </trkpt>
      <trkpt lat="47.44477" lon="-0.56251">
        <ele>26.826876</ele>
        <time>2010-10-16T13:09:20Z</time>
      </trkpt>
      <trkpt lat="47.44477" lon="-0.56252">
        <ele>26.841249</ele>
        <time>2010-10-16T13:09:25Z</time>
      </trkpt>
      <trkpt lat="47.44477" lon="-0.56252">
        <ele>26.851875</ele>
        <time>2010-10-16T13:09:30Z</time>
      </trkpt>
      <trkpt lat="47.44477" lon="-0.56252">
        <ele>26.848749</ele>
        <time>2010-10-16T13:09:35Z</time>
      </trkpt>
      <trkpt lat="47.44477" lon="-0.56252">
        <ele>26.849375</ele>
        <time>2010-10-16T13:09:40Z</time>
      </trkpt>
      <trkpt lat="47.44476" lon="-0.56252">
        <ele>26.852501</ele>
        <time>2010-10-16T13:09:45Z</time>
      </trkpt>
      <trkpt lat="47.44476" lon="-0.56252">
        <ele>26.853125</ele>
        <time>2010-10-16T13:09:50Z</time>
      </trkpt>
      <trkpt lat="47.44476" lon="-0.56252">
        <ele>26.84</ele>
        <time>2010-10-16T13:09:55Z</time>
      </trkpt>
      <trkpt lat="47.44477" lon="-0.5625">
        <ele>26.811251</ele>
        <time>2010-10-16T13:10:00Z</time>
      </trkpt>
      <trkpt lat="47.44477" lon="-0.56249">
        <ele>26.804375</ele>
        <time>2010-10-16T13:10:05Z</time>
      </trkpt>
      <trkpt lat="47.44476" lon="-0.56249">
        <ele>26.807501</ele>
        <time>2010-10-16T13:10:10Z</time>
      </trkpt>
      <trkpt lat="47.44476" lon="-0.56249">
        <ele>26.807501</ele>
        <time>2010-10-16T13:10:15Z</time>
      </trkpt>
      <trkpt lat="47.44476" lon="-0.56249">
        <ele>26.805</ele>
        <time>2010-10-16T13:10:20Z</time>
      </trkpt>
      <trkpt lat="47.44477" lon="-0.56249">
        <ele>26.799376</ele>
        <time>2010-10-16T13:10:25Z</time>
      </trkpt>
      <trkpt lat="47.44477" lon="-0.56249">
        <ele>26.796875</ele>
        <time>2010-10-16T13:10:30Z</time>
      </trkpt>
      <trkpt lat="47.44477" lon="-0.56249">
        <ele>26.80125</ele>
        <time>2010-10-16T13:10:35Z</time>
      </trkpt>
      <trkpt lat="47.44477" lon="-0.5625">
        <ele>26.80875</ele>
        <time>2010-10-16T13:10:40Z</time>
      </trkpt>
      <trkpt lat="47.44477" lon="-0.5625">
        <ele>26.819374</ele>
        <time>2010-10-16T13:10:45Z</time>
      </trkpt>
      <trkpt lat="47.44476" lon="-0.56251">
        <ele>26.83</ele>
        <time>2010-10-16T13:10:50Z</time>
      </trkpt>
      <trkpt lat="47.44475" lon="-0.56251">
        <ele>26.83625</ele>
        <time>2010-10-16T13:10:55Z</time>
      </trkpt>
      <trkpt lat="47.44475" lon="-0.56252">
        <ele>26.84375</ele>
        <time>2010-10-16T13:11:00Z</time>
      </trkpt>
      <trkpt lat="47.44475" lon="-0.56252">
        <ele>26.850624</ele>
        <time>2010-10-16T13:11:05Z</time>
      </trkpt>
      <trkpt lat="47.44476" lon="-0.56253">
        <ele>26.863125</ele>
        <time>2010-10-16T13:11:10Z</time>
      </trkpt>
      <trkpt lat="47.44476" lon="-0.56253">
        <ele>26.865</ele>
        <time>2010-10-16T13:11:15Z</time>
      </trkpt>
      <trkpt lat="47.44476" lon="-0.56254">
        <ele>26.872499</ele>
        <time>2010-10-16T13:11:20Z</time>
      </trkpt>
      <trkpt lat="47.44476" lon="-0.56253">
        <ele>26.8675</ele>
        <time>2010-10-16T13:11:25Z</time>
      </trkpt>
      <trkpt lat="47.44475" lon="-0.56253">
        <ele>26.863125</ele>
        <time>2010-10-16T13:11:30Z</time>
      </trkpt>
      <trkpt lat="47.44475" lon="-0.56253">
        <ele>26.858126</ele>
        <time>2010-10-16T13:11:35Z</time>
      </trkpt>
      <trkpt lat="47.44476" lon="-0.56253">
        <ele>26.860624</ele>
        <time>2010-10-16T13:11:40Z</time>
      </trkpt>
      <trkpt lat="47.44476" lon="-0.56253">
        <ele>26.855625</ele>
        <time>2010-10-16T13:11:45Z</time>
      </trkpt>
      <trkpt lat="47.44476" lon="-0.56253">
        <ele>26.8575</ele>
        <time>2010-10-16T13:11:50Z</time>
      </trkpt>
      <trkpt lat="47.44476" lon="-0.56252">
        <ele>26.8475</ele>
        <time>2010-10-16T13:11:55Z</time>
      </trkpt>
      <trkpt lat="47.44476" lon="-0.56252">
        <ele>26.844999</ele>
        <time>2010-10-16T13:12:00Z</time>
      </trkpt>
      <trkpt lat="47.44476" lon="-0.56252">
        <ele>26.84</ele>
        <time>2010-10-16T13:12:05Z</time>
      </trkpt>
      <trkpt lat="47.44476" lon="-0.56251">
        <ele>26.8375</ele>
        <time>2010-10-16T13:12:10Z</time>
      </trkpt>
      <trkpt lat="47.44476" lon="-0.56251">
        <ele>26.834999</ele>
        <time>2010-10-16T13:12:15Z</time>
      </trkpt>
      <trkpt lat="47.44476" lon="-0.56251">
        <ele>26.831875</ele>
        <time>2010-10-16T13:12:20Z</time>
      </trkpt>
      <trkpt lat="47.44476" lon="-0.56251">
        <ele>26.829374</ele>
        <time>2010-10-16T13:12:25Z</time>
      </trkpt>
      <trkpt lat="47.44477" lon="-0.56251">
        <ele>26.831875</ele>
        <time>2010-10-16T13:12:30Z</time>
      </trkpt>
      <trkpt lat="47.44477" lon="-0.56251">
        <ele>26.831875</ele>
        <time>2010-10-16T13:12:35Z</time>
      </trkpt>
      <trkpt lat="47.44477" lon="-0.56251">
        <ele>26.82375</ele>
        <time>2010-10-16T13:12:40Z</time>
      </trkpt>
      <trkpt lat="47.44478" lon="-0.56251">
        <ele>26.82625</ele>
        <time>2010-10-16T13:12:45Z</time>
      </trkpt>
      <trkpt lat="47.44477" lon="-0.56251">
        <ele>26.828751</ele>
        <time>2010-10-16T13:12:50Z</time>
      </trkpt>
      <trkpt lat="47.44477" lon="-0.56251">
        <ele>26.828751</ele>
        <time>2010-10-16T13:12:55Z</time>
      </trkpt>
      <trkpt lat="47.44477" lon="-0.56251">
        <ele>26.831249</ele>
        <time>2010-10-16T13:13:00Z</time>
      </trkpt>
      <trkpt lat="47.44477" lon="-0.56251">
        <ele>26.83375</ele>
        <time>2010-10-16T13:13:05Z</time>
      </trkpt>
      <trkpt lat="47.44477" lon="-0.56252">
        <ele>26.839375</ele>
        <time>2010-10-16T13:13:10Z</time>
      </trkpt>
      <trkpt lat="47.44477" lon="-0.56253">
        <ele>26.859375</ele>
        <time>2010-10-16T13:13:15Z</time>
      </trkpt>
      <trkpt lat="47.44473" lon="-0.56254">
        <ele>26.879999</ele>
        <time>2010-10-16T13:13:20Z</time>
      </trkpt>
      <trkpt lat="47.44471" lon="-0.56255">
        <ele>26.889376</ele>
        <time>2010-10-16T13:13:25Z</time>
      </trkpt>
      <trkpt lat="47.4447" lon="-0.56255">
        <ele>26.897499</ele>
        <time>2010-10-16T13:13:30Z</time>
      </trkpt>
      <trkpt lat="47.44471" lon="-0.56255">
        <ele>26.891874</ele>
        <time>2010-10-16T13:13:35Z</time>
      </trkpt>
      <trkpt lat="47.44471" lon="-0.56255">
        <ele>26.88875</ele>
        <time>2010-10-16T13:13:40Z</time>
      </trkpt>
      <trkpt lat="47.44472" lon="-0.56254">
        <ele>26.885626</ele>
        <time>2010-10-16T13:13:45Z</time>
      </trkpt>
      <trkpt lat="47.44472" lon="-0.56254">
        <ele>26.88125</ele>
        <time>2010-10-16T13:13:50Z</time>
      </trkpt>
      <trkpt lat="47.44472" lon="-0.56254">
        <ele>26.875626</ele>
        <time>2010-10-16T13:13:55Z</time>
      </trkpt>
      <trkpt lat="47.44473" lon="-0.56254">
        <ele>26.872499</ele>
        <time>2010-10-16T13:14:00Z</time>
      </trkpt>
      <trkpt lat="47.44474" lon="-0.56253">
        <ele>26.866875</ele>
        <time>2010-10-16T13:14:05Z</time>
      </trkpt>
      <trkpt lat="47.44473" lon="-0.56253">
        <ele>26.862499</ele>
        <time>2010-10-16T13:14:10Z</time>
      </trkpt>
      <trkpt lat="47.44474" lon="-0.56252">
        <ele>26.848749</ele>
        <time>2010-10-16T13:14:15Z</time>
      </trkpt>
      <trkpt lat="47.44475" lon="-0.56252">
        <ele>26.846251</ele>
        <time>2010-10-16T13:14:20Z</time>
      </trkpt>
      <trkpt lat="47.44475" lon="-0.56252">
        <ele>26.843124</ele>
        <time>2010-10-16T13:14:25Z</time>
      </trkpt>
      <trkpt lat="47.44475" lon="-0.56252">
        <ele>26.841249</ele>
        <time>2010-10-16T13:14:30Z</time>
      </trkpt>
      <trkpt lat="47.44475" lon="-0.56251">
        <ele>26.83625</ele>
        <time>2010-10-16T13:14:35Z</time>
      </trkpt>
    </trkseg>
  </trk>
</gpx>